
Distance (Route):
Temperature : 0°C
Humidity : 0%
Pressure : 0hPa| Receiver | Frames | First received | Last received |
|---|---|---|---|
| SQ6EMJ | 732 | 2026-09-02 23:27:54 | 2026-09-03 01:19:08 |
| PETON7-10 | 228 | 2026-09-02 23:58:01 | 2026-09-03 01:04:15 |
| SP3BTT-10 | 92 | 2026-09-02 23:40:38 | 2026-09-03 01:12:58 |
| OE5DRO-10 | 78 | 2026-09-03 00:07:29 | 2026-09-03 01:02:22 |
| POL1PZ | 76 | 2026-09-03 01:02:55 | 2026-09-03 01:32:38 |
| KRY50SP | 34 | 2026-09-02 23:42:50 | 2026-09-03 01:08:46 |
| SP4MAZ | 29 | 2026-09-03 00:21:01 | 2026-09-03 01:02:21 |
| PG1ADW-2 | 28 | 2026-09-03 00:24:13 | 2026-09-03 00:39:38 |
| AA1-15 | 13 | 2026-09-03 00:55:23 | 2026-09-03 00:57:40 |
| OK1SLM-15 | 7 | 2026-09-03 00:05:51 | 2026-09-03 00:53:18 |
| OE5MMP-10 | 4 | 2026-09-03 00:50:44 | 2026-09-03 00:51:17 |
| SP6BVK | 3 | 2026-09-03 01:24:33 | 2026-09-03 01:28:22 |
| DB0UT-7 | 2 | 2026-09-03 00:51:57 | 2026-09-03 00:55:02 |
| Receiver | Date | Latitude | Longitude | Direction | Speed | Altitude | Climb | Temperature | Humidity | Pressure | Voltage | Killtimer | Uptime | BKT | XDATA |
|---|---|---|---|---|---|---|---|---|---|---|---|---|---|---|---|
| POL1PZ | 2026-09-03 01:32:38 | 50.73377 | 18.00289 | 86° | 33km/h | 2157m | -9.6m/s | 0°C | 0% | 0hPa | 2.2V | 00:00:00 | 00:00:00 | 00:00:00 | |
| POL1PZ | 2026-09-03 01:32:18 | 50.73394 | 18.00046 | 100° | 35km/h | 2334m | -7.8m/s | 0°C | 0% | 0hPa | 2.2V | 00:00:00 | 00:00:00 | 00:00:00 | |
| POL1PZ | 2026-09-03 01:31:34 | 50.73494 | 17.99495 | 107° | 35km/h | 2765m | -8.6m/s | 0°C | 0% | 0hPa | 2.2V | 00:00:00 | 00:00:00 | 00:00:00 | |
| POL1PZ | 2026-09-03 01:31:10 | 50.73573 | 17.99162 | 112° | 40km/h | 2960m | -8.8m/s | 0°C | 0% | 0hPa | 2.2V | 00:00:00 | 00:00:00 | 00:00:00 | |
| POL1PZ | 2026-09-03 01:30:49 | 50.73640 | 17.98838 | 106° | 40km/h | 3124m | -8.7m/s | 0°C | 0% | 0hPa | 2.2V | 00:00:00 | 00:00:00 | 00:00:00 | |
| POL1PZ | 2026-09-03 01:30:28 | 50.73680 | 17.98533 | 109° | 35km/h | 3285m | -6.0m/s | 0°C | 0% | 0hPa | 2.2V | 00:00:00 | 00:00:00 | 00:00:00 | |
| POL1PZ | 2026-09-03 01:30:06 | 50.73720 | 17.98249 | 103° | 35km/h | 3449m | -6.4m/s | 0°C | 0% | 0hPa | 2.2V | 00:00:00 | 00:00:00 | 00:00:00 | |
| POL1PZ | 2026-09-03 01:29:07 | 50.73770 | 17.97379 | 100° | 40km/h | 3972m | -8.1m/s | 0°C | 0% | 0hPa | 2.2V | 00:00:00 | 00:00:00 | 00:00:00 | |
| POL1PZ | 2026-09-03 01:28:40 | 50.73820 | 17.96942 | 99° | 44km/h | 4245m | -9.7m/s | 0°C | 0% | 0hPa | 2.2V | 00:00:00 | 00:00:00 | 00:00:00 | |
| SP6BVK | 2026-09-03 01:28:22 | 50.73853 | 17.96619 | 105° | 44km/h | 4396m | -6.8m/s | 0°C | 0% | 0hPa | 2.2V | 00:00:00 | 00:00:00 | 00:00:00 | |
| POL1PZ | 2026-09-03 01:28:19 | 50.73861 | 17.96567 | 106° | 46km/h | 4422m | -7.8m/s | 0°C | 0% | 0hPa | 2.2V | 00:00:00 | 00:00:00 | 00:00:00 | |
| POL1PZ | 2026-09-03 01:27:59 | 50.73923 | 17.96215 | 107° | 44km/h | 4589m | -9.3m/s | 0°C | 0% | 0hPa | 2.2V | 00:00:00 | 00:00:00 | 00:00:00 | |
| POL1PZ | 2026-09-03 01:27:39 | 50.73979 | 17.95871 | 106° | 44km/h | 4778m | -9.6m/s | 0°C | 0% | 0hPa | 2.2V | 00:00:00 | 00:00:00 | 00:00:00 | |
| POL1PZ | 2026-09-03 01:27:18 | 50.74055 | 17.95501 | 113° | 49km/h | 4985m | -9.5m/s | 0°C | 0% | 0hPa | 2.2V | 00:00:00 | 00:00:00 | 00:00:00 | |
| POL1PZ | 2026-09-03 01:26:54 | 50.74152 | 17.95085 | 111° | 46km/h | 5218m | -10.2m/s | 0°C | 0% | 0hPa | 2.2V | 00:00:00 | 00:00:00 | 00:00:00 | |
| POL1PZ | 2026-09-03 01:26:32 | 50.74253 | 17.94714 | 118° | 46km/h | 5418m | -8.2m/s | 0°C | 0% | 0hPa | 2.2V | 00:00:00 | 00:00:00 | 00:00:00 | |
| POL1PZ | 2026-09-03 01:26:12 | 50.74374 | 17.94341 | 118° | 58km/h | 5633m | -11.3m/s | 0°C | 0% | 0hPa | 2.2V | 00:00:00 | 00:00:00 | 00:00:00 | |
| POL1PZ | 2026-09-03 01:25:52 | 50.74486 | 17.93950 | 111° | 49km/h | 5845m | -10.3m/s | 0°C | 0% | 0hPa | 2.2V | 00:00:00 | 00:00:00 | 00:00:00 | |
| POL1PZ | 2026-09-03 01:25:32 | 50.74562 | 17.93616 | 108° | 40km/h | 6040m | -8.2m/s | 0°C | 0% | 0hPa | 2.2V | 00:00:00 | 00:00:00 | 00:00:00 | |
| POL1PZ | 2026-09-03 01:25:12 | 50.74640 | 17.93327 | 118° | 44km/h | 6231m | -9.1m/s | 0°C | 0% | 0hPa | 2.2V | 00:00:00 | 00:00:00 | 00:00:00 | |
| SP6BVK | 2026-09-03 01:24:53 | 50.74773 | 17.93019 | 132° | 53km/h | 6411m | -8.4m/s | 0°C | 0% | 0hPa | 2.2V | 00:00:00 | 00:00:00 | 00:00:00 | |
| POL1PZ | 2026-09-03 01:24:51 | 50.74790 | 17.92986 | 133° | 53km/h | 6429m | -10.9m/s | 0°C | 0% | 0hPa | 2.2V | 00:00:00 | 00:00:00 | 00:00:00 | |
| SP6BVK | 2026-09-03 01:24:33 | 50.74976 | 17.92644 | 132° | 71km/h | 6597m | -7.8m/s | 0°C | 0% | 0hPa | 2.2V | 00:00:00 | 00:00:00 | 00:00:00 | |
| POL1PZ | 2026-09-03 01:24:31 | 50.75000 | 17.92601 | 132° | 73km/h | 6615m | -9.7m/s | 0°C | 0% | 0hPa | 2.2V | 00:00:00 | 00:00:00 | 00:00:00 | |
| POL1PZ | 2026-09-03 01:24:10 | 50.75264 | 17.92117 | 129° | 77km/h | 6819m | -8.4m/s | 0°C | 0% | 0hPa | 2.2V | 00:00:00 | 00:00:00 | 00:00:00 | |
| POL1PZ | 2026-09-03 01:23:50 | 50.75495 | 17.91622 | 126° | 77km/h | 7010m | -9.4m/s | 0°C | 0% | 0hPa | 2.2V | 00:00:00 | 00:00:00 | 00:00:00 | |
| POL1PZ | 2026-09-03 01:23:29 | 50.75752 | 17.91102 | 130° | 77km/h | 7216m | -9.7m/s | 0°C | 0% | 0hPa | 2.2V | 00:00:00 | 00:00:00 | 00:00:00 | |
| POL1PZ | 2026-09-03 01:23:07 | 50.76028 | 17.90557 | 128° | 84km/h | 7438m | -9.7m/s | 0°C | 0% | 0hPa | 2.2V | 00:00:00 | 00:00:00 | 00:00:00 | |
| POL1PZ | 2026-09-03 01:22:47 | 50.76294 | 17.89993 | 126° | 89km/h | 7647m | -8.1m/s | 0°C | 0% | 0hPa | 2.2V | 00:00:00 | 00:00:00 | 00:00:00 | |
| POL1PZ | 2026-09-03 01:22:26 | 50.76552 | 17.89380 | 124° | 88km/h | 7874m | -9.1m/s | 0°C | 0% | 0hPa | 2.2V | 00:00:00 | 00:00:00 | 00:00:00 | |
| POL1PZ | 2026-09-03 01:22:06 | 50.76793 | 17.88847 | 129° | 82km/h | 8097m | -10.9m/s | 0°C | 0% | 0hPa | 2.2V | 00:00:00 | 00:00:00 | 00:00:00 | |
| POL1PZ | 2026-09-03 01:21:46 | 50.77062 | 17.88336 | 132° | 88km/h | 8315m | -10.8m/s | 0°C | 0% | 0hPa | 2.2V | 00:00:00 | 00:00:00 | 00:00:00 | |
| POL1PZ | 2026-09-03 01:21:23 | 50.77399 | 17.87745 | 134° | 88km/h | 8567m | -11.6m/s | 0°C | 0% | 0hPa | 2.2V | 00:00:00 | 00:00:00 | 00:00:00 | |
| POL1PZ | 2026-09-03 01:21:02 | 50.77717 | 17.87203 | 134° | 86km/h | 8802m | -10.6m/s | 0°C | 0% | 0hPa | 2.2V | 00:00:00 | 00:00:00 | 00:00:00 | |
| POL1PZ | 2026-09-03 01:20:42 | 50.78010 | 17.86699 | 134° | 82km/h | 9012m | -10.7m/s | 0°C | 0% | 0hPa | 2.2V | 00:00:00 | 00:00:00 | 00:00:00 | |
| POL1PZ | 2026-09-03 01:20:21 | 50.78315 | 17.86193 | 135° | 84km/h | 9251m | -9.9m/s | 0°C | 0% | 0hPa | 2.2V | 00:00:00 | 00:00:00 | 00:00:00 | |
| POL1PZ | 2026-09-03 01:20:01 | 50.78611 | 17.85707 | 132° | 84km/h | 9473m | -10.9m/s | 0°C | 0% | 0hPa | 2.2V | 00:00:00 | 00:00:00 | 00:00:00 | |
| POL1PZ | 2026-09-03 01:19:40 | 50.78914 | 17.85171 | 135° | 84km/h | 9726m | -12.4m/s | 0°C | 0% | 0hPa | 2.2V | 00:00:00 | 00:00:00 | 00:00:00 | |
| POL1PZ | 2026-09-03 01:19:19 | 50.79212 | 17.84643 | 132° | 84km/h | 9974m | -13.3m/s | 0°C | 0% | 0hPa | 2.2V | 00:00:00 | 00:00:00 | 00:00:00 | |
| SQ6EMJ | 2026-09-03 01:19:08 | 50.79364 | 17.84365 | 130° | 88km/h | 10106m | -11.2m/s | 0°C | 0% | 0hPa | 2.2V | 00:00:00 | 00:00:00 | 00:00:00 | |
| POL1PZ | 2026-09-03 01:18:59 | 50.79480 | 17.84123 | 129° | 82km/h | 10207m | -11.6m/s | 0°C | 0% | 0hPa | 2.2V | 00:00:00 | 00:00:00 | 00:00:00 | |
| SQ6EMJ | 2026-09-03 01:18:57 | 50.79506 | 17.84070 | 127° | 86km/h | 10232m | -10.9m/s | 0°C | 0% | 0hPa | 2.2V | 00:00:00 | 00:00:00 | 00:00:00 | |
| POL1PZ | 2026-09-03 01:18:38 | 50.79758 | 17.83514 | 129° | 99km/h | 10464m | -12.4m/s | 0°C | 0% | 0hPa | 2.2V | 00:00:00 | 00:00:00 | 00:00:00 | |
| POL1PZ | 2026-09-03 01:18:17 | 50.80123 | 17.82916 | 134° | 100km/h | 10729m | -11.8m/s | 0°C | 0% | 0hPa | 2.2V | 00:00:00 | 00:00:00 | 00:00:00 | |
| POL1PZ | 2026-09-03 01:17:57 | 50.80452 | 17.82345 | 135° | 97km/h | 10972m | -11.7m/s | 0°C | 0% | 0hPa | 2.2V | 00:00:00 | 00:00:00 | 00:00:00 | |
| SQ6EMJ | 2026-09-03 01:17:47 | 50.80618 | 17.82062 | 133° | 95km/h | 11092m | -10.1m/s | 0°C | 0% | 0hPa | 2.2V | 00:00:00 | 00:00:00 | 00:00:00 | |
| POL1PZ | 2026-09-03 01:16:58 | 50.81441 | 17.80659 | 141° | 91km/h | 11675m | -12.1m/s | 0°C | 0% | 0hPa | 2.2V | 00:00:00 | 00:00:00 | 00:00:00 | |
| POL1PZ | 2026-09-03 01:16:30 | 50.81849 | 17.80040 | 126° | 77km/h | 12024m | -13.5m/s | 0°C | 0% | 0hPa | 2.2V | 00:00:00 | 00:00:00 | 00:00:00 | |
| POL1PZ | 2026-09-03 01:16:06 | 50.82092 | 17.79415 | 123° | 78km/h | 12326m | -15.6m/s | 0°C | 0% | 0hPa | 2.2V | 00:00:00 | 00:00:00 | 00:00:00 | |
| POL1PZ | 2026-09-03 01:15:44 | 50.82322 | 17.78877 | 125° | 73km/h | 12614m | -12.0m/s | 0°C | 0% | 0hPa | 2.2V | 00:00:00 | 00:00:00 | 00:00:00 | |
| POL1PZ | 2026-09-03 01:15:20 | 50.82588 | 17.78266 | 122° | 82km/h | 12894m | -11.9m/s | 0°C | 0% | 0hPa | 2.2V | 00:00:00 | 00:00:00 | 00:00:00 | |
| SQ6EMJ | 2026-09-03 01:15:08 | 50.82732 | 17.77927 | 127° | 73km/h | 13043m | -10.3m/s | 0°C | 0% | 0hPa | 2.2V | 00:00:00 | 00:00:00 | 00:00:00 | |
| POL1PZ | 2026-09-03 01:14:59 | 50.82815 | 17.77741 | 123° | 69km/h | 13140m | -11.1m/s | 0°C | 0% | 0hPa | 2.2V | 00:00:00 | 00:00:00 | 00:00:00 | |
| POL1PZ | 2026-09-03 01:14:39 | 50.82952 | 17.77254 | 110° | 78km/h | 13416m | -14.0m/s | 0°C | 0% | 0hPa | 2.2V | 00:00:00 | 00:00:00 | 00:00:00 | |
| SQ6EMJ | 2026-09-03 01:14:36 | 50.82973 | 17.77168 | 115° | 68km/h | 13459m | -15.2m/s | 0°C | 0% | 0hPa | 2.2V | 00:00:00 | 00:00:00 | 00:00:00 | |
| SQ6EMJ | 2026-09-03 01:14:20 | 50.83109 | 17.76712 | 117° | 77km/h | 13686m | -13.6m/s | 0°C | 0% | 0hPa | 2.2V | 00:00:00 | 00:00:00 | 00:00:00 | |
| POL1PZ | 2026-09-03 01:14:17 | 50.83135 | 17.76630 | 120° | 75km/h | 13729m | -13.1m/s | 0°C | 0% | 0hPa | 2.2V | 00:00:00 | 00:00:00 | 00:00:00 | |
| SQ6EMJ | 2026-09-03 01:14:15 | 50.83153 | 17.76580 | 121° | 75km/h | 13761m | -14.3m/s | 0°C | 0% | 0hPa | 2.2V | 00:00:00 | 00:00:00 | 00:00:00 | |
| SQ6EMJ | 2026-09-03 01:14:09 | 50.83202 | 17.76422 | 115° | 80km/h | 13826m | -11.6m/s | 0°C | 0% | 0hPa | 2.2V | 00:00:00 | 00:00:00 | 00:00:00 | |
| SQ6EMJ | 2026-09-03 01:14:04 | 50.83244 | 17.76281 | 120° | 77km/h | 13886m | -13.8m/s | 0°C | 0% | 0hPa | 2.2V | 00:00:00 | 00:00:00 | 00:00:00 | |
| SQ6EMJ | 2026-09-03 01:13:58 | 50.83297 | 17.76126 | 118° | 71km/h | 13955m | -12.5m/s | 0°C | 0% | 0hPa | 2.2V | 00:00:00 | 00:00:00 | 00:00:00 | |
| POL1PZ | 2026-09-03 01:13:57 | 50.83305 | 17.76101 | 120° | 71km/h | 13968m | -12.8m/s | 0°C | 0% | 0hPa | 2.2V | 00:00:00 | 00:00:00 | 00:00:00 | |
| SQ6EMJ | 2026-09-03 01:13:51 | 50.83345 | 17.75945 | 114° | 69km/h | 14039m | -15.9m/s | 0°C | 0% | 0hPa | 2.2V | 00:00:00 | 00:00:00 | 00:00:00 | |
| SQ6EMJ | 2026-09-03 01:13:46 | 50.83381 | 17.75813 | 112° | 82km/h | 14116m | -15.6m/s | 0°C | 0% | 0hPa | 2.2V | 00:00:00 | 00:00:00 | 00:00:00 | |
| POL1PZ | 2026-09-03 01:13:37 | 50.83460 | 17.75569 | 118° | 73km/h | 14232m | -10.2m/s | 0°C | 0% | 0hPa | 2.2V | 00:00:00 | 00:00:00 | 00:00:00 | |
| SQ6EMJ | 2026-09-03 01:13:32 | 50.83501 | 17.75441 | 117° | 64km/h | 14300m | -15.6m/s | 0°C | 0% | 0hPa | 2.2V | 00:00:00 | 00:00:00 | 00:00:00 | |
| SQ6EMJ | 2026-09-03 01:13:25 | 50.83555 | 17.75277 | 120° | 64km/h | 14407m | -13.7m/s | 0°C | 0% | 0hPa | 2.2V | 00:00:00 | 00:00:00 | 00:00:00 | |
| SQ6EMJ | 2026-09-03 01:13:20 | 50.83597 | 17.75162 | 120° | 62km/h | 14475m | -14.1m/s | 0°C | 0% | 0hPa | 2.2V | 00:00:00 | 00:00:00 | 00:00:00 | |
| POL1PZ | 2026-09-03 01:13:16 | 50.83629 | 17.75069 | 116° | 71km/h | 14530m | -12.2m/s | 0°C | 0% | 0hPa | 2.2V | 00:00:00 | 00:00:00 | 00:00:00 | |
| SQ6EMJ | 2026-09-03 01:13:13 | 50.83652 | 17.74995 | 119° | 68km/h | 14568m | -12.1m/s | 0°C | 0% | 0hPa | 2.2V | 00:00:00 | 00:00:00 | 00:00:00 | |
| SQ6EMJ | 2026-09-03 01:13:09 | 50.83699 | 17.74881 | 125° | 69km/h | 14644m | -11.6m/s | 0°C | 0% | 0hPa | 2.2V | 00:00:00 | 00:00:00 | 00:00:00 | |
| SQ6EMJ | 2026-09-03 01:13:01 | 50.83767 | 17.74728 | 126° | 62km/h | 14704m | -14.5m/s | 0°C | 0% | 0hPa | 2.2V | 00:00:00 | 00:00:00 | 00:00:00 | |
| SP3BTT-10 | 2026-09-03 01:12:58 | 50.83794 | 17.74670 | 129° | 64km/h | 14739m | -9.6m/s | 0°C | 0% | 0hPa | 2.2V | 00:00:00 | 00:00:00 | 00:00:00 | |
| POL1PZ | 2026-09-03 01:12:55 | 50.83821 | 17.74614 | 128° | 55km/h | 14775m | -11.8m/s | 0°C | 0% | 0hPa | 2.2V | 00:00:00 | 00:00:00 | 00:00:00 | |
| SQ6EMJ | 2026-09-03 01:12:49 | 50.83863 | 17.74501 | 120° | 53km/h | 14854m | -13.2m/s | 0°C | 0% | 0hPa | 2.2V | 00:00:00 | 00:00:00 | 00:00:00 | |
| SQ6EMJ | 2026-09-03 01:12:43 | 50.83901 | 17.74394 | 119° | 46km/h | 14940m | -13.8m/s | 0°C | 0% | 0hPa | 2.2V | 00:00:00 | 00:00:00 | 00:00:00 | |
| SQ6EMJ | 2026-09-03 01:12:36 | 50.83927 | 17.74284 | 112° | 35km/h | 15034m | -14.2m/s | 0°C | 0% | 0hPa | 2.2V | 00:00:00 | 00:00:00 | 00:00:00 | |
| POL1PZ | 2026-09-03 01:12:32 | 50.83936 | 17.74223 | 106° | 40km/h | 15094m | -14.7m/s | 0°C | 0% | 0hPa | 2.2V | 00:00:00 | 00:00:00 | 00:00:00 | |
| SQ6EMJ | 2026-09-03 01:12:16 | 50.83992 | 17.73984 | 111° | 38km/h | 15360m | -16.9m/s | 0°C | 0% | 0hPa | 2.2V | 00:00:00 | 00:00:00 | 00:00:00 | |
| POL1PZ | 2026-09-03 01:12:08 | 50.84011 | 17.73874 | 102° | 46km/h | 15482m | -14.4m/s | 0°C | 0% | 0hPa | 2.2V | 00:00:00 | 00:00:00 | 00:00:00 | |
| SQ6EMJ | 2026-09-03 01:12:05 | 50.84018 | 17.73824 | 105° | 42km/h | 15525m | -11.7m/s | 0°C | 0% | 0hPa | 2.2V | 00:00:00 | 00:00:00 | 00:00:00 | |
| SQ6EMJ | 2026-09-03 01:11:58 | 50.84039 | 17.73691 | 105° | 58km/h | 15627m | -14.1m/s | 0°C | 0% | 0hPa | 2.2V | 00:00:00 | 00:00:00 | 00:00:00 | |
| SQ6EMJ | 2026-09-03 01:11:52 | 50.84063 | 17.73542 | 102° | 60km/h | 15699m | -13.9m/s | 0°C | 0% | 0hPa | 2.2V | 00:00:00 | 00:00:00 | 00:00:00 | |
| SQ6EMJ | 2026-09-03 01:11:43 | 50.84098 | 17.73308 | 111° | 71km/h | 15812m | -11.9m/s | 0°C | 0% | 0hPa | 2.2V | 00:00:00 | 00:00:00 | 00:00:00 | |
| POL1PZ | 2026-09-03 01:11:42 | 50.84104 | 17.73282 | 111° | 66km/h | 15824m | -11.4m/s | 0°C | 0% | 0hPa | 2.2V | 00:00:00 | 00:00:00 | 00:00:00 | |
| SP3BTT-10 | 2026-09-03 01:11:40 | 50.84116 | 17.73233 | 114° | 55km/h | 15846m | -12.9m/s | 0°C | 0% | 0hPa | 2.2V | 00:00:00 | 00:00:00 | 00:00:00 | |
| POL1PZ | 2026-09-03 01:11:21 | 50.84252 | 17.72887 | 126° | 44km/h | 16099m | -7.5m/s | 0°C | 0% | 0hPa | 2.2V | 00:00:00 | 00:00:00 | 00:00:00 | |
| SQ6EMJ | 2026-09-03 01:11:16 | 50.84287 | 17.72822 | 133° | 46km/h | 16166m | -15.1m/s | 0°C | 0% | 0hPa | 2.2V | 00:00:00 | 00:00:00 | 00:00:00 | |
| SQ6EMJ | 2026-09-03 01:11:07 | 50.84350 | 17.72710 | 133° | 37km/h | 16267m | -14.2m/s | 0°C | 0% | 0hPa | 2.2V | 00:00:00 | 00:00:00 | 00:00:00 | |
| POL1PZ | 2026-09-03 01:11:01 | 50.84386 | 17.72641 | 136° | 27km/h | 16354m | -14.3m/s | 0°C | 0% | 0hPa | 2.2V | 00:00:00 | 00:00:00 | 00:00:00 | |
| POL1PZ | 2026-09-03 01:10:40 | 50.84460 | 17.72403 | 105° | 46km/h | 16678m | -12.6m/s | 0°C | 0% | 0hPa | 2.2V | 00:00:00 | 00:00:00 | 00:00:00 | |
| SQ6EMJ | 2026-09-03 01:10:39 | 50.84462 | 17.72386 | 102° | 51km/h | 16695m | -12.0m/s | 0°C | 0% | 0hPa | 2.2V | 00:00:00 | 00:00:00 | 00:00:00 | |
| SP3BTT-10 | 2026-09-03 01:10:32 | 50.84472 | 17.72254 | 95° | 46km/h | 16799m | -14.3m/s | 0°C | 0% | 0hPa | 2.2V | 00:00:00 | 00:00:00 | 00:00:00 | |
| SQ6EMJ | 2026-09-03 01:10:22 | 50.84498 | 17.72066 | 124° | 46km/h | 16948m | -10.5m/s | 0°C | 0% | 0hPa | 2.2V | 00:00:00 | 00:00:00 | 00:00:00 | |
| POL1PZ | 2026-09-03 01:10:20 | 50.84504 | 17.72047 | 121° | 47km/h | 16957m | -13.6m/s | 0°C | 0% | 0hPa | 2.2V | 00:00:00 | 00:00:00 | 00:00:00 | |
| SQ6EMJ | 2026-09-03 01:10:14 | 50.84542 | 17.71949 | 120° | 40km/h | 17047m | -19.0m/s | 0°C | 0% | 0hPa | 2.2V | 00:00:00 | 00:00:00 | 00:00:00 | |
| SQ6EMJ | 2026-09-03 01:10:05 | 50.84577 | 17.71830 | 108° | 42km/h | 17187m | -14.8m/s | 0°C | 0% | 0hPa | 2.2V | 00:00:00 | 00:00:00 | 00:00:00 | |
| SQ6EMJ | 2026-09-03 01:10:00 | 50.84589 | 17.71751 | 103° | 38km/h | 17259m | -13.3m/s | 0°C | 0% | 0hPa | 2.2V | 00:00:00 | 00:00:00 | 00:00:00 | |
| POL1PZ | 2026-09-03 01:09:58 | 50.84593 | 17.71720 | 105° | 38km/h | 17289m | -15.1m/s | 0°C | 0% | 0hPa | 2.2V | 00:00:00 | 00:00:00 | 00:00:00 | |
| SQ6EMJ | 2026-09-03 01:09:54 | 50.84611 | 17.71653 | 115° | 51km/h | 17346m | -14.7m/s | 0°C | 0% | 0hPa | 2.2V | 00:00:00 | 00:00:00 | 00:00:00 | |
| SQ6EMJ | 2026-09-03 01:09:48 | 50.84643 | 17.71508 | 117° | 46km/h | 17450m | -15.0m/s | 0°C | 0% | 0hPa | 2.2V | 00:00:00 | 00:00:00 | 00:00:00 | |
| SQ6EMJ | 2026-09-03 01:09:41 | 50.84673 | 17.71408 | 109° | 44km/h | 17535m | -16.4m/s | 0°C | 0% | 0hPa | 2.2V | 00:00:00 | 00:00:00 | 00:00:00 | |
| SQ6EMJ | 2026-09-03 01:09:36 | 50.84690 | 17.71334 | 118° | 29km/h | 17618m | -17.0m/s | 0°C | 0% | 0hPa | 2.2V | 00:00:00 | 00:00:00 | 00:00:00 | |
| POL1PZ | 2026-09-03 01:09:34 | 50.84695 | 17.71311 | 108° | 33km/h | 17655m | -15.7m/s | 0°C | 0% | 0hPa | 2.2V | 00:00:00 | 00:00:00 | 00:00:00 | |
| SQ6EMJ | 2026-09-03 01:09:30 | 50.84705 | 17.71252 | 109° | 37km/h | 17717m | -14.5m/s | 0°C | 0% | 0hPa | 2.2V | 00:00:00 | 00:00:00 | 00:00:00 | |
| SQ6EMJ | 2026-09-03 01:09:25 | 50.84714 | 17.71172 | 104° | 33km/h | 17800m | -14.3m/s | 0°C | 0% | 0hPa | 2.2V | 00:00:00 | 00:00:00 | 00:00:00 | |
| SQ6EMJ | 2026-09-03 01:09:19 | 50.84719 | 17.71092 | 98° | 46km/h | 17877m | -15.8m/s | 0°C | 0% | 0hPa | 2.2V | 00:00:00 | 00:00:00 | 00:00:00 | |
| POL1PZ | 2026-09-03 01:09:13 | 50.84728 | 17.70998 | 111° | 27km/h | 17987m | -18.5m/s | 0°C | 0% | 0hPa | 2.2V | 00:00:00 | 00:00:00 | 00:00:00 | |
| SQ6EMJ | 2026-09-03 01:09:03 | 50.84751 | 17.70915 | 109° | 26km/h | 18178m | -17.1m/s | 0°C | 0% | 0hPa | 2.2V | 00:00:00 | 00:00:00 | 00:00:00 | |
| SQ6EMJ | 2026-09-03 01:08:56 | 50.84763 | 17.70841 | 109° | 18km/h | 18296m | -16.7m/s | 0°C | 0% | 0hPa | 2.2V | 00:00:00 | 00:00:00 | 00:00:00 | |
| SQ6EMJ | 2026-09-03 01:08:50 | 50.84769 | 17.70797 | 99° | 18km/h | 18387m | -17.9m/s | 0°C | 0% | 0hPa | 2.2V | 00:00:00 | 00:00:00 | 00:00:00 | |
| KRY50SP | 2026-09-03 01:08:46 | 50.84772 | 17.70761 | 85° | 33km/h | 18458m | -15.8m/s | 0°C | 0% | 0hPa | 2.2V | 00:00:00 | 00:00:00 | 00:00:00 | |
| SQ6EMJ | 2026-09-03 01:08:44 | 50.84773 | 17.70736 | 105° | 29km/h | 18491m | -17.7m/s | 0°C | 0% | 0hPa | 2.2V | 00:00:00 | 00:00:00 | 00:00:00 | |
| POL1PZ | 2026-09-03 01:08:38 | 50.84780 | 17.70668 | 94° | 31km/h | 18583m | -13.4m/s | 0°C | 0% | 0hPa | 2.2V | 00:00:00 | 00:00:00 | 00:00:00 | |
| SQ6EMJ | 2026-09-03 01:08:30 | 50.84802 | 17.70544 | 110° | 33km/h | 18723m | -14.3m/s | 0°C | 0% | 0hPa | 2.2V | 00:00:00 | 00:00:00 | 00:00:00 | |
| SP3BTT-10 | 2026-09-03 01:08:26 | 50.84809 | 17.70512 | 112° | 24km/h | 18768m | -13.2m/s | 0°C | 0% | 0hPa | 2.2V | 00:00:00 | 00:00:00 | 00:00:00 | |
| SQ6EMJ | 2026-09-03 01:08:24 | 50.84816 | 17.70488 | 116° | 22km/h | 18808m | -12.3m/s | 0°C | 0% | 0hPa | 2.2V | 00:00:00 | 00:00:00 | 00:00:00 | |
| KRY50SP | 2026-09-03 01:08:21 | 50.84820 | 17.70474 | 123° | 22km/h | 18830m | -12.1m/s | 0°C | 0% | 0hPa | 2.2V | 00:00:00 | 00:00:00 | 00:00:00 | |
| POL1PZ | 2026-09-03 01:08:17 | 50.84830 | 17.70441 | 107° | 29km/h | 18883m | -18.8m/s | 0°C | 0% | 0hPa | 2.2V | 00:00:00 | 00:00:00 | 00:00:00 | |
| SQ6EMJ | 2026-09-03 01:08:10 | 50.84835 | 17.70360 | 93° | 33km/h | 18995m | -12.5m/s | 0°C | 0% | 0hPa | 2.2V | 00:00:00 | 00:00:00 | 00:00:00 | |
| KRY50SP | 2026-09-03 01:08:09 | 50.84835 | 17.70349 | 90° | 27km/h | 19009m | -14.3m/s | 0°C | 0% | 0hPa | 2.2V | 00:00:00 | 00:00:00 | 00:00:00 | |
| SQ6EMJ | 2026-09-03 01:08:05 | 50.84835 | 17.70307 | 85° | 29km/h | 19080m | -19.8m/s | 0°C | 0% | 0hPa | 2.2V | 00:00:00 | 00:00:00 | 00:00:00 | |
| SQ6EMJ | 2026-09-03 01:07:57 | 50.84832 | 17.70212 | 97° | 35km/h | 19234m | -15.3m/s | 0°C | 0% | 0hPa | 2.2V | 00:00:00 | 00:00:00 | 00:00:00 | |
| POL1PZ | 2026-09-03 01:07:55 | 50.84834 | 17.70188 | 101° | 29km/h | 19264m | -12.3m/s | 0°C | 0% | 0hPa | 2.2V | 00:00:00 | 00:00:00 | 00:00:00 | |
| SQ6EMJ | 2026-09-03 01:07:51 | 50.84840 | 17.70135 | 105° | 35km/h | 19321m | -14.1m/s | 0°C | 0% | 0hPa | 2.2V | 00:00:00 | 00:00:00 | 00:00:00 | |
| KRY50SP | 2026-09-03 01:07:49 | 50.84843 | 17.70108 | 108° | 38km/h | 19350m | -12.9m/s | 0°C | 0% | 0hPa | 2.2V | 00:00:00 | 00:00:00 | 00:00:00 | |
| SQ6EMJ | 2026-09-03 01:07:43 | 50.84853 | 17.70030 | 105° | 27km/h | 19452m | -15.2m/s | 0°C | 0% | 0hPa | 2.2V | 00:00:00 | 00:00:00 | 00:00:00 | |
| KRY50SP | 2026-09-03 01:07:41 | 50.84858 | 17.70009 | 115° | 27km/h | 19482m | -14.4m/s | 0°C | 0% | 0hPa | 2.2V | 00:00:00 | 00:00:00 | 00:00:00 | |
| POL1PZ | 2026-09-03 01:07:35 | 50.84868 | 17.69962 | 99° | 26km/h | 19578m | -17.9m/s | 0°C | 0% | 0hPa | 2.2V | 00:00:00 | 00:00:00 | 00:00:00 | |
| KRY50SP | 2026-09-03 01:07:33 | 50.84870 | 17.69943 | 85° | 20km/h | 19615m | -16.8m/s | 0°C | 0% | 0hPa | 2.2V | 00:00:00 | 00:00:00 | 00:00:00 | |
| SQ6EMJ | 2026-09-03 01:07:30 | 50.84870 | 17.69906 | 80° | 16km/h | 19680m | -13.7m/s | 0°C | 0% | 0hPa | 2.2V | 00:00:00 | 00:00:00 | 00:00:00 | |
| KRY50SP | 2026-09-03 01:07:26 | 50.84867 | 17.69887 | 67° | 16km/h | 19728m | -17.5m/s | 0°C | 0% | 0hPa | 2.2V | 00:00:00 | 00:00:00 | 00:00:00 | |
| SQ6EMJ | 2026-09-03 01:07:23 | 50.84860 | 17.69864 | 84° | 27km/h | 19818m | -16.7m/s | 0°C | 0% | 0hPa | 2.2V | 00:00:00 | 00:00:00 | 00:00:00 | |
| KRY50SP | 2026-09-03 01:07:16 | 50.84859 | 17.69797 | 89° | 24km/h | 19925m | -15.9m/s | 0°C | 0% | 0hPa | 2.2V | 00:00:00 | 00:00:00 | 00:00:00 | |
| SQ6EMJ | 2026-09-03 01:07:15 | 50.84858 | 17.69775 | 86° | 26km/h | 19963m | -16.8m/s | 0°C | 0% | 0hPa | 2.2V | 00:00:00 | 00:00:00 | 00:00:00 | |
| SQ6EMJ | 2026-09-03 01:07:06 | 50.84862 | 17.69674 | 97° | 22km/h | 20108m | -20.7m/s | 0°C | 0% | 0hPa | 2.2V | 00:00:00 | 00:00:00 | 00:00:00 | |
| KRY50SP | 2026-09-03 01:07:02 | 50.84867 | 17.69664 | 96° | 24km/h | 20183m | -17.5m/s | 0°C | 0% | 0hPa | 2.2V | 00:00:00 | 00:00:00 | 00:00:00 | |
| SQ6EMJ | 2026-09-03 01:06:58 | 50.84858 | 17.69652 | 68° | 22km/h | 20245m | -14.9m/s | 0°C | 0% | 0hPa | 2.2V | 00:00:00 | 00:00:00 | 00:00:00 | |
| SP3BTT-10 | 2026-09-03 01:06:56 | 50.84854 | 17.69634 | 86° | 24km/h | 20273m | -10.2m/s | 0°C | 0% | 0hPa | 2.2V | 00:00:00 | 00:00:00 | 00:00:00 | |
| SQ6EMJ | 2026-09-03 01:06:52 | 50.84853 | 17.69574 | 88° | 35km/h | 20322m | -12.0m/s | 0°C | 0% | 0hPa | 2.2V | 00:00:00 | 00:00:00 | 00:00:00 | |
| POL1PZ | 2026-09-03 01:06:51 | 50.84853 | 17.69558 | 82° | 31km/h | 20335m | -9.6m/s | 0°C | 0% | 0hPa | 2.2V | 00:00:00 | 00:00:00 | 00:00:00 | |
| KRY50SP | 2026-09-03 01:06:47 | 50.84854 | 17.69507 | 122° | 18km/h | 20390m | -16.5m/s | 0°C | 0% | 0hPa | 2.2V | 00:00:00 | 00:00:00 | 00:00:00 | |
| SQ6EMJ | 2026-09-03 01:06:41 | 50.84879 | 17.69417 | 116° | 44km/h | 20529m | -11.5m/s | 0°C | 0% | 0hPa | 2.2V | 00:00:00 | 00:00:00 | 00:00:00 | |
| KRY50SP | 2026-09-03 01:06:35 | 50.84887 | 17.69353 | 107° | 29km/h | 20581m | -8.8m/s | 0°C | 0% | 0hPa | 2.2V | 00:00:00 | 00:00:00 | 00:00:00 | |
| SQ6EMJ | 2026-09-03 01:06:33 | 50.84896 | 17.69333 | 157° | 29km/h | 20601m | -14.7m/s | 0°C | 0% | 0hPa | 2.2V | 00:00:00 | 00:00:00 | 00:00:00 | |
| KRY50SP | 2026-09-03 01:06:29 | 50.84919 | 17.69306 | 140° | 29km/h | 20679m | -21.4m/s | 0°C | 0% | 0hPa | 2.2V | 00:00:00 | 00:00:00 | 00:00:00 | |
| POL1PZ | 2026-09-03 01:06:28 | 50.84924 | 17.69299 | 128° | 24km/h | 20703m | -21.3m/s | 0°C | 0% | 0hPa | 2.2V | 00:00:00 | 00:00:00 | 00:00:00 | |
| SQ6EMJ | 2026-09-03 01:06:17 | 50.84956 | 17.69258 | 109° | 13km/h | 20960m | -15.1m/s | 0°C | 0% | 0hPa | 2.2V | 00:00:00 | 00:00:00 | 00:00:00 | |
| KRY50SP | 2026-09-03 01:06:14 | 50.84961 | 17.69245 | 124° | 5km/h | 21008m | -9.7m/s | 0°C | 0% | 0hPa | 2.2V | 00:00:00 | 00:00:00 | 00:00:00 | |
| SQ6EMJ | 2026-09-03 01:06:11 | 50.84961 | 17.69229 | 102° | 18km/h | 21050m | -14.6m/s | 0°C | 0% | 0hPa | 2.2V | 00:00:00 | 00:00:00 | 00:00:00 | |
| KRY50SP | 2026-09-03 01:06:06 | 50.84962 | 17.69201 | 163° | 15km/h | 21113m | -11.9m/s | 0°C | 0% | 0hPa | 2.2V | 00:00:00 | 00:00:00 | 00:00:00 | |
| POL1PZ | 2026-09-03 01:06:04 | 50.84964 | 17.69197 | 101° | 9km/h | 21141m | -17.4m/s | 0°C | 0% | 0hPa | 2.2V | 00:00:00 | 00:00:00 | 00:00:00 | |
| SQ6EMJ | 2026-09-03 01:06:03 | 50.84964 | 17.69193 | 72° | 9km/h | 21159m | -20.1m/s | 0°C | 0% | 0hPa | 2.2V | 00:00:00 | 00:00:00 | 00:00:00 | |
| SQ6EMJ | 2026-09-03 01:05:57 | 50.84967 | 17.69165 | 98° | 22km/h | 21284m | -18.0m/s | 0°C | 0% | 0hPa | 2.2V | 00:00:00 | 00:00:00 | 00:00:00 | |
| SP3BTT-10 | 2026-09-03 01:05:56 | 50.84968 | 17.69158 | 98° | 15km/h | 21306m | -17.0m/s | 0°C | 0% | 0hPa | 2.2V | 00:00:00 | 00:00:00 | 00:00:00 | |
| KRY50SP | 2026-09-03 01:05:55 | 50.84969 | 17.69151 | 107° | 22km/h | 21329m | -16.1m/s | 0°C | 0% | 0hPa | 2.2V | 00:00:00 | 00:00:00 | 00:00:00 | |
| SQ6EMJ | 2026-09-03 01:05:49 | 50.84990 | 17.69104 | 129° | 26km/h | 21437m | -14.2m/s | 0°C | 0% | 0hPa | 2.2V | 00:00:00 | 00:00:00 | 00:00:00 | |
| KRY50SP | 2026-09-03 01:05:48 | 50.84995 | 17.69098 | 139° | 29km/h | 21455m | -18.8m/s | 0°C | 0% | 0hPa | 2.2V | 00:00:00 | 00:00:00 | 00:00:00 | |
| KRY50SP | 2026-09-03 01:05:41 | 50.85016 | 17.69056 | 112° | 11km/h | 21593m | -16.5m/s | 0°C | 0% | 0hPa | 2.2V | 00:00:00 | 00:00:00 | 00:00:00 | |
| POL1PZ | 2026-09-03 01:05:40 | 50.85017 | 17.69052 | 128° | 13km/h | 21609m | -14.2m/s | 0°C | 0% | 0hPa | 2.2V | 00:00:00 | 00:00:00 | 00:00:00 | |
| KRY50SP | 2026-09-03 01:05:30 | 50.85040 | 17.69016 | 0° | 0km/h | 21747m | -13.4m/s | 0°C | 0% | 0hPa | 2.2V | 00:00:00 | 00:00:00 | 00:00:00 | |
| SQ6EMJ | 2026-09-03 01:05:26 | 50.85039 | 17.69017 | 115° | 7km/h | 21811m | -16.2m/s | 0°C | 0% | 0hPa | 2.2V | 00:00:00 | 00:00:00 | 00:00:00 | |
| KRY50SP | 2026-09-03 01:05:24 | 50.85040 | 17.69013 | 100° | 9km/h | 21844m | -10.3m/s | 0°C | 0% | 0hPa | 2.2V | 00:00:00 | 00:00:00 | 00:00:00 | |
| POL1PZ | 2026-09-03 01:05:19 | 50.85038 | 17.69015 | 1° | 5km/h | 21900m | -11.3m/s | 0°C | 0% | 0hPa | 2.2V | 00:00:00 | 00:00:00 | 00:00:00 | |
| KRY50SP | 2026-09-03 01:05:18 | 50.85036 | 17.69015 | 39° | 5km/h | 21915m | -14.4m/s | 0°C | 0% | 0hPa | 2.2V | 00:00:00 | 00:00:00 | 00:00:00 | |
| SP3BTT-10 | 2026-09-03 01:05:10 | 50.85030 | 17.68993 | 75° | 16km/h | 22067m | -20.0m/s | 0°C | 0% | 0hPa | 2.2V | 00:00:00 | 00:00:00 | 00:00:00 | |
| POL1PZ | 2026-09-03 01:04:57 | 50.85025 | 17.68905 | 72° | 20km/h | 22339m | -21.4m/s | 0°C | 0% | 0hPa | 2.2V | 00:00:00 | 00:00:00 | 00:00:00 | |
| KRY50SP | 2026-09-03 01:04:53 | 50.85020 | 17.68870 | 97° | 31km/h | 22432m | -21.9m/s | 0°C | 0% | 0hPa | 2.2V | 00:00:00 | 00:00:00 | 00:00:00 | |
| SQ6EMJ | 2026-09-03 01:04:50 | 50.85024 | 17.68840 | 99° | 22km/h | 22496m | -19.0m/s | 0°C | 0% | 0hPa | 2.2V | 00:00:00 | 00:00:00 | 00:00:00 | |
| KRY50SP | 2026-09-03 01:04:48 | 50.85026 | 17.68823 | 100° | 22km/h | 22535m | -16.8m/s | 0°C | 0% | 0hPa | 2.2V | 00:00:00 | 00:00:00 | 00:00:00 | |
| KRY50SP | 2026-09-03 01:04:43 | 50.85035 | 17.68776 | 121° | 29km/h | 22622m | -11.2m/s | 0°C | 0% | 0hPa | 2.2V | 00:00:00 | 00:00:00 | 00:00:00 | |
| KRY50SP | 2026-09-03 01:04:34 | 50.85060 | 17.68729 | 146° | 13km/h | 22789m | -20.6m/s | 0°C | 0% | 0hPa | 2.2V | 00:00:00 | 00:00:00 | 00:00:00 | |
| POL1PZ | 2026-09-03 01:04:30 | 50.85067 | 17.68716 | 107° | 16km/h | 22872m | -15.6m/s | 0°C | 0% | 0hPa | 2.2V | 00:00:00 | 00:00:00 | 00:00:00 | |
| KRY50SP | 2026-09-03 01:04:29 | 50.85068 | 17.68709 | 109° | 18km/h | 22887m | -10.3m/s | 0°C | 0% | 0hPa | 2.2V | 00:00:00 | 00:00:00 | 00:00:00 | |
| SP3BTT-10 | 2026-09-03 01:04:24 | 50.85080 | 17.68675 | 137° | 7km/h | 22971m | -19.0m/s | 0°C | 0% | 0hPa | 2.2V | 00:00:00 | 00:00:00 | 00:00:00 | |
| KRY50SP | 2026-09-03 01:04:23 | 50.85083 | 17.68670 | 123° | 18km/h | 22994m | -20.6m/s | 0°C | 0% | 0hPa | 2.2V | 00:00:00 | 00:00:00 | 00:00:00 | |
| PETON7-10 | 2026-09-03 01:04:15 | 50.85110 | 17.68638 | 187° | 11km/h | 23147m | -17.6m/s | 0°C | 0% | 0hPa | 2.2V | 00:00:00 | 00:00:00 | 00:00:00 | |
| POL1PZ | 2026-09-03 01:04:07 | 50.85136 | 17.68629 | 155° | 9km/h | 23274m | -17.8m/s | 0°C | 0% | 0hPa | 2.2V | 00:00:00 | 00:00:00 | 00:00:00 | |
| KRY50SP | 2026-09-03 01:04:03 | 50.85143 | 17.68626 | 178° | 9km/h | 23364m | -18.8m/s | 0°C | 0% | 0hPa | 2.2V | 00:00:00 | 00:00:00 | 00:00:00 | |
| PETON7-10 | 2026-09-03 01:03:58 | 50.85152 | 17.68619 | 162° | 7km/h | 23437m | -15.6m/s | 0°C | 0% | 0hPa | 2.2V | 00:00:00 | 00:00:00 | 00:00:00 | |
| PETON7-10 | 2026-09-03 01:03:42 | 50.85168 | 17.68603 | 254° | 11km/h | 23731m | -26.3m/s | 0°C | 0% | 0hPa | 2.2V | 00:00:00 | 00:00:00 | 00:00:00 | |
| SP3BTT-10 | 2026-09-03 01:03:38 | 50.85170 | 17.68599 | 157° | 9km/h | 23810m | -15.3m/s | 0°C | 0% | 0hPa | 2.2V | 00:00:00 | 00:00:00 | 00:00:00 | |
| POL1PZ | 2026-09-03 01:03:22 | 50.85190 | 17.68606 | 303° | 18km/h | 24077m | -18.7m/s | 0°C | 0% | 0hPa | 2.2V | 00:00:00 | 00:00:00 | 00:00:00 | |
| SQ6EMJ | 2026-09-03 01:03:19 | 50.85184 | 17.68622 | 293° | 13km/h | 24131m | -17.2m/s | 0°C | 0% | 0hPa | 2.2V | 00:00:00 | 00:00:00 | 00:00:00 | |
| SQ6EMJ | 2026-09-03 01:03:13 | 50.85179 | 17.68641 | 350° | 7km/h | 24261m | -15.3m/s | 0°C | 0% | 0hPa | 2.2V | 00:00:00 | 00:00:00 | 00:00:00 | |
| SP3BTT-10 | 2026-09-03 01:03:08 | 50.85169 | 17.68640 | 120° | 11km/h | 24339m | -14.7m/s | 0°C | 0% | 0hPa | 2.2V | 00:00:00 | 00:00:00 | 00:00:00 | |
| SQ6EMJ | 2026-09-03 01:03:06 | 50.85171 | 17.68639 | 211° | 7km/h | 24365m | -12.6m/s | 0°C | 0% | 0hPa | 2.2V | 00:00:00 | 00:00:00 | 00:00:00 | |
| SQ6EMJ | 2026-09-03 01:02:59 | 50.85149 | 17.68631 | 48° | 13km/h | 24484m | -16.7m/s | 0°C | 0% | 0hPa | 2.2V | 00:00:00 | 00:00:00 | 00:00:00 | |
| POL1PZ | 2026-09-03 01:02:55 | 50.85145 | 17.68614 | 87° | 20km/h | 24561m | -22.1m/s | 0°C | 0% | 0hPa | 2.2V | 00:00:00 | 00:00:00 | 00:00:00 | |
| SQ6EMJ | 2026-09-03 01:02:50 | 50.85133 | 17.68584 | 65° | 22km/h | 24658m | -16.5m/s | 0°C | 0% | 0hPa | 2.2V | 00:00:00 | 00:00:00 | 00:00:00 | |
| PETON7-10 | 2026-09-03 01:02:45 | 50.85141 | 17.68535 | 141° | 13km/h | 24729m | -11.7m/s | 0°C | 0% | 0hPa | 2.2V | 00:00:00 | 00:00:00 | 00:00:00 | |
| SQ6EMJ | 2026-09-03 01:02:38 | 50.85163 | 17.68520 | 183° | 20km/h | 24873m | -21.7m/s | 0°C | 0% | 0hPa | 2.2V | 00:00:00 | 00:00:00 | 00:00:00 | |
| PETON7-10 | 2026-09-03 01:02:26 | 50.85175 | 17.68540 | 218° | 13km/h | 25093m | -15.9m/s | 0°C | 0% | 0hPa | 2.2V | 00:00:00 | 00:00:00 | 00:00:00 | |
| SQ6EMJ | 2026-09-03 01:02:24 | 50.85177 | 17.68542 | 331° | 4km/h | 25122m | -15.7m/s | 0°C | 0% | 0hPa | 2.2V | 00:00:00 | 00:00:00 | 00:00:00 | |
| OE5DRO-10 | 2026-09-03 01:02:22 | 50.85173 | 17.68538 | 17° | 15km/h | 25156m | -19.6m/s | 0°C | 0% | 0hPa | 2.2V | 00:00:00 | 00:00:00 | 00:00:00 | |
| SP4MAZ | 2026-09-03 01:02:21 | 50.85169 | 17.68535 | 29° | 20km/h | 25176m | -20.9m/s | 0°C | 0% | 0hPa | 2.2V | 00:00:00 | 00:00:00 | 00:00:00 | |
| SQ6EMJ | 2026-09-03 01:02:13 | 50.85163 | 17.68499 | 84° | 16km/h | 25333m | -15.6m/s | 0°C | 0% | 0hPa | 2.2V | 00:00:00 | 00:00:00 | 00:00:00 | |
| PETON7-10 | 2026-09-03 01:02:11 | 50.85164 | 17.68481 | 89° | 15km/h | 25360m | -18.2m/s | 0°C | 0% | 0hPa | 2.2V | 00:00:00 | 00:00:00 | 00:00:00 | |
| SQ6EMJ | 2026-09-03 01:02:05 | 50.85179 | 17.68449 | 133° | 24km/h | 25510m | -14.5m/s | 0°C | 0% | 0hPa | 2.2V | 00:00:00 | 00:00:00 | 00:00:00 | |
| OE5DRO-10 | 2026-09-03 01:02:03 | 50.85186 | 17.68434 | 126° | 16km/h | 25545m | -16.1m/s | 0°C | 0% | 0hPa | 2.2V | 00:00:00 | 00:00:00 | 00:00:00 | |
| SQ6EMJ | 2026-09-03 01:01:59 | 50.85193 | 17.68429 | 211° | 15km/h | 25591m | -16.2m/s | 0°C | 0% | 0hPa | 2.2V | 00:00:00 | 00:00:00 | 00:00:00 | |
| PETON7-10 | 2026-09-03 01:01:56 | 50.85198 | 17.68434 | 192° | 9km/h | 25646m | -21.3m/s | 0°C | 0% | 0hPa | 2.2V | 00:00:00 | 00:00:00 | 00:00:00 | |
| SQ6EMJ | 2026-09-03 01:01:50 | 50.85204 | 17.68423 | 51° | 2km/h | 25761m | -17.2m/s | 0°C | 0% | 0hPa | 2.2V | 00:00:00 | 00:00:00 | 00:00:00 | |
| PETON7-10 | 2026-09-03 01:01:41 | 50.85208 | 17.68398 | 50° | 20km/h | 25898m | -12.8m/s | 0°C | 0% | 0hPa | 2.2V | 00:00:00 | 00:00:00 | 00:00:00 | |
| SP3BTT-10 | 2026-09-03 01:01:36 | 50.85195 | 17.68369 | 114° | 11km/h | 25963m | -16.4m/s | 0°C | 0% | 0hPa | 2.2V | 00:00:00 | 00:00:00 | 00:00:00 | |
| SQ6EMJ | 2026-09-03 01:01:31 | 50.85203 | 17.68335 | 132° | 20km/h | 26035m | -18.3m/s | 0°C | 0% | 0hPa | 2.2V | 00:00:00 | 00:00:00 | 00:00:00 | |
| OE5DRO-10 | 2026-09-03 01:01:27 | 50.85221 | 17.68279 | 149° | 16km/h | 26086m | -26.9m/s | 0°C | 0% | 0hPa | 2.2V | 00:00:00 | 00:00:00 | 00:00:00 | |
| PETON7-10 | 2026-09-03 01:01:26 | 50.85225 | 17.68285 | 135° | 16km/h | 26126m | -16.8m/s | 0°C | 0% | 0hPa | 2.2V | 00:00:00 | 00:00:00 | 00:00:00 | |
| SQ6EMJ | 2026-09-03 01:01:25 | 50.85229 | 17.68278 | 139° | 20km/h | 26140m | -14.3m/s | 0°C | 0% | 0hPa | 2.2V | 00:00:00 | 00:00:00 | 00:00:00 | |
| SQ6EMJ | 2026-09-03 01:01:19 | 50.85249 | 17.68261 | 168° | 16km/h | 26229m | -17.8m/s | 0°C | 0% | 0hPa | 2.2V | 00:00:00 | 00:00:00 | 00:00:00 | |
| SQ6EMJ | 2026-09-03 01:01:11 | 50.85268 | 17.68234 | 222° | 18km/h | 26329m | -21.8m/s | 0°C | 0% | 0hPa | 2.2V | 00:00:00 | 00:00:00 | 00:00:00 | |
| OE5DRO-10 | 2026-09-03 01:01:08 | 50.85276 | 17.68261 | 263° | 15km/h | 26430m | -25.7m/s | 0°C | 0% | 0hPa | 2.2V | 00:00:00 | 00:00:00 | 00:00:00 | |
| SQ6EMJ | 2026-09-03 01:01:02 | 50.85287 | 17.68270 | 252° | 7km/h | 26555m | -19.2m/s | 0°C | 0% | 0hPa | 2.2V | 00:00:00 | 00:00:00 | 00:00:00 | |
| PETON7-10 | 2026-09-03 01:00:53 | 50.85289 | 17.68252 | 136° | 11km/h | 26716m | -19.7m/s | 0°C | 0% | 0hPa | 2.2V | 00:00:00 | 00:00:00 | 00:00:00 | |
| SP3BTT-10 | 2026-09-03 01:00:51 | 50.85291 | 17.68254 | 198° | 11km/h | 26754m | -18.9m/s | 0°C | 0% | 0hPa | 2.2V | 00:00:00 | 00:00:00 | 00:00:00 | |
| SP4MAZ | 2026-09-03 01:00:50 | 50.85293 | 17.68255 | 156° | 9km/h | 26774m | -16.7m/s | 0°C | 0% | 0hPa | 2.2V | 00:00:00 | 00:00:00 | 00:00:00 | |
| OE5DRO-10 | 2026-09-03 01:00:48 | 50.85300 | 17.68220 | 88° | 18km/h | 26839m | -16.6m/s | 0°C | 0% | 0hPa | 2.2V | 00:00:00 | 00:00:00 | 00:00:00 | |
| SQ6EMJ | 2026-09-03 01:00:38 | 50.85320 | 17.68212 | 103° | 7km/h | 26985m | -15.7m/s | 0°C | 0% | 0hPa | 2.2V | 00:00:00 | 00:00:00 | 00:00:00 | |
| PETON7-10 | 2026-09-03 01:00:37 | 50.85320 | 17.68208 | 95° | 13km/h | 27003m | -15.4m/s | 0°C | 0% | 0hPa | 2.2V | 00:00:00 | 00:00:00 | 00:00:00 | |
| SP4MAZ | 2026-09-03 01:00:29 | 50.85345 | 17.68199 | 186° | 9km/h | 27168m | -22.3m/s | 0°C | 0% | 0hPa | 2.2V | 00:00:00 | 00:00:00 | 00:00:00 | |
| OE5DRO-10 | 2026-09-03 01:00:24 | 50.85349 | 17.68200 | 280° | 9km/h | 27343m | -25.9m/s | 0°C | 0% | 0hPa | 2.2V | 00:00:00 | 00:00:00 | 00:00:00 | |
| PETON7-10 | 2026-09-03 01:00:19 | 50.85348 | 17.68208 | 264° | 5km/h | 27397m | -28.8m/s | 0°C | 0% | 0hPa | 2.2V | 00:00:00 | 00:00:00 | 00:00:00 | |
| SQ6EMJ | 2026-09-03 01:00:08 | 50.85340 | 17.68191 | 85° | 13km/h | 27672m | -27.8m/s | 0°C | 0% | 0hPa | 2.2V | 00:00:00 | 00:00:00 | 00:00:00 | |
| SQ6EMJ | 2026-09-03 00:59:56 | 50.85358 | 17.68162 | 313° | 4km/h | 28031m | -25.9m/s | 0°C | 0% | 0hPa | 2.2V | 00:00:00 | 00:00:00 | 00:00:00 | |
| PETON7-10 | 2026-09-03 00:59:47 | 50.85358 | 17.68196 | 35° | 13km/h | 28280m | -26.9m/s | 0°C | 0% | 0hPa | 2.2V | 00:00:00 | 00:00:00 | 00:00:00 | |
| OE5DRO-10 | 2026-09-03 00:59:41 | 50.85341 | 17.68207 | 120° | 16km/h | 28501m | -27.6m/s | 0°C | 0% | 0hPa | 2.2V | 00:00:00 | 00:00:00 | 00:00:00 | |
| SP3BTT-10 | 2026-09-03 00:59:35 | 50.85344 | 17.68189 | 99° | 15km/h | 28614m | -27.8m/s | 0°C | 0% | 0hPa | 2.2V | 00:00:00 | 00:00:00 | 00:00:00 | |
| PETON7-10 | 2026-09-03 00:59:31 | 50.85347 | 17.68183 | 198° | 15km/h | 28736m | -30.6m/s | 0°C | 0% | 0hPa | 2.2V | 00:00:00 | 00:00:00 | 00:00:00 | |
| SQ6EMJ | 2026-09-03 00:59:23 | 50.85369 | 17.68193 | 26° | 5km/h | 28963m | -19.7m/s | 0°C | 0% | 0hPa | 2.2V | 00:00:00 | 00:00:00 | 00:00:00 | |
| OE5DRO-10 | 2026-09-03 00:59:19 | 50.85374 | 17.68232 | 348° | 18km/h | 29116m | -20.4m/s | 0°C | 0% | 0hPa | 2.2V | 00:00:00 | 00:00:00 | 00:00:00 | |
| PETON7-10 | 2026-09-03 00:59:16 | 50.85374 | 17.68232 | 348° | 20km/h | 29116m | -20.4m/s | 0°C | 0% | 0hPa | 2.2V | 00:00:00 | 00:00:00 | 00:00:00 | |
| PETON7-10 | 2026-09-03 00:59:01 | 50.85288 | 17.68248 | 351° | 22km/h | 29395m | -15.7m/s | 0°C | 0% | 0hPa | 2.2V | 00:00:00 | 00:00:00 | 00:00:00 | |
| OE5DRO-10 | 2026-09-03 00:58:59 | 50.85275 | 17.68226 | 44° | 24km/h | 29485m | -17.4m/s | 0°C | 0% | 0hPa | 2.2V | 00:00:00 | 00:00:00 | 00:00:00 | |
| SQ6EMJ | 2026-09-03 00:58:57 | 50.85275 | 17.68226 | 44° | 26km/h | 29485m | -17.5m/s | 0°C | 0% | 0hPa | 2.2V | 00:00:00 | 00:00:00 | 00:00:00 | |
| SP3BTT-10 | 2026-09-03 00:58:50 | 50.85252 | 17.68213 | 84° | 24km/h | 29604m | -21.5m/s | 0°C | 0% | 0hPa | 2.2V | 00:00:00 | 00:00:00 | 00:00:00 | |
| PETON7-10 | 2026-09-03 00:58:46 | 50.85253 | 17.68164 | 108° | 18km/h | 29678m | -16.6m/s | 0°C | 0% | 0hPa | 2.2V | 00:00:00 | 00:00:00 | 00:00:00 | |
| SP4MAZ | 2026-09-03 00:58:37 | 50.85243 | 17.68138 | 109° | 20km/h | 29917m | -19.2m/s | 0°C | 0% | 0hPa | 2.2V | 00:00:00 | 00:00:00 | 00:00:00 | |
| OE5DRO-10 | 2026-09-03 00:58:36 | 50.85246 | 17.68130 | 80° | 15km/h | 29964m | -17.1m/s | 0°C | 0% | 0hPa | 2.2V | 00:00:00 | 00:00:00 | 00:00:00 | |
| PETON7-10 | 2026-09-03 00:58:31 | 50.85243 | 17.68121 | 51° | 18km/h | 30019m | -19.0m/s | 0°C | 0% | 0hPa | 2.2V | 00:00:00 | 00:00:00 | 00:00:00 | |
| SP4MAZ | 2026-09-03 00:58:16 | 50.85265 | 17.68044 | 83° | 13km/h | 30396m | -21.6m/s | 0°C | 0% | 0hPa | 2.2V | 00:00:00 | 00:00:00 | 00:00:00 | |
| OE5DRO-10 | 2026-09-03 00:57:59 | 50.85328 | 17.68030 | 68° | 16km/h | 30888m | -19.0m/s | 0°C | 0% | 0hPa | 2.2V | 00:00:00 | 00:00:00 | 00:00:00 | |
| AA1-15 | 2026-09-03 00:57:40 | 50.85315 | 17.67913 | 82° | 26km/h | 31284m | -28.9m/s | -40.8°C | 0.3% | 7.5hPa | 2.2V | 00:00:00 | 00:00:00 | 00:00:00 | |
| AA1-15 | 2026-09-03 00:57:28 | 50.85309 | 17.67818 | 41° | 27km/h | 31582m | -24.4m/s | -39.5°C | 0.3% | 7hPa | 2.4V | 00:00:00 | 00:00:00 | 00:00:00 | |
| AA1-15 | 2026-09-03 00:57:16 | 50.85297 | 17.67744 | 346° | 26km/h | 31872m | -35.9m/s | -38.7°C | 0.4% | 6.6hPa | 2.4V | 00:00:00 | 00:00:00 | 00:00:00 | |
| AA1-15 | 2026-09-03 00:57:06 | 50.85291 | 17.67629 | 69° | 13km/h | 32238m | -26.9m/s | -39°C | 0.4% | 6.1hPa | 2.4V | 00:00:00 | 00:00:00 | 00:00:00 | |
| AA1-15 | 2026-09-03 00:56:55 | 50.85282 | 17.67536 | 338° | 4km/h | 32563m | -31.6m/s | -38°C | 0.4% | 5.7hPa | 2.4V | 00:00:00 | 00:00:00 | 00:00:00 | |
| AA1-15 | 2026-09-03 00:56:44 | 50.85260 | 17.67464 | 197° | 38km/h | 32829m | 1.7m/s | -37.3°C | 0.4% | 5.3hPa | 2.4V | 00:00:00 | 00:00:00 | 00:00:00 | |
| AA1-15 | 2026-09-03 00:56:33 | 50.85230 | 17.67392 | 141° | 55km/h | 32794m | 4.4m/s | -37.7°C | 0.3% | 5.4hPa | 2.4V | 00:00:00 | 00:00:00 | 00:00:00 | |
| AA1-15 | 2026-09-03 00:56:23 | 50.85244 | 17.67291 | 108° | 55km/h | 32807m | 16.9m/s | -38.2°C | 0.3% | 5.5hPa | 2.4V | 00:00:00 | 00:00:00 | 00:00:00 | |
| AA1-15 | 2026-09-03 00:56:11 | 50.85265 | 17.67271 | 263° | 37km/h | 32712m | 9.6m/s | -38.3°C | 0.3% | 5.6hPa | 2.4V | 00:00:00 | 00:00:00 | 00:00:00 | |
| AA1-15 | 2026-09-03 00:55:59 | 50.85249 | 17.67106 | 74° | 78km/h | 32571m | 5.8m/s | -38.7°C | 0.3% | 5.7hPa | 2.4V | 00:00:00 | 00:00:00 | 00:00:00 | |
| AA1-15 | 2026-09-03 00:55:45 | 50.85193 | 17.67066 | 140° | 38km/h | 32586m | 5.4m/s | -39.1°C | 0.3% | 5.8hPa | 2.4V | 00:00:00 | 00:00:00 | 00:00:00 | |
| AA1-15 | 2026-09-03 00:55:35 | 50.85191 | 17.66952 | 47° | 64km/h | 32510m | 7.2m/s | -39.3°C | 0.3% | 5.9hPa | 2.4V | 00:00:00 | 00:00:00 | 00:00:00 | |
| AA1-15 | 2026-09-03 00:55:23 | 50.85176 | 17.66847 | 351° | 4km/h | 32397m | 17.6m/s | -39.5°C | 0.3% | 6hPa | 2.4V | 00:00:00 | 00:00:00 | 00:00:00 | |
| SP3BTT-10 | 2026-09-03 00:55:23 | 50.85176 | 17.66847 | 351° | 55km/h | 32398m | 17.6m/s | 0°C | 0% | 0hPa | 0V | 00:00:00 | 00:00:00 | 00:00:00 | |
| PETON7-10 | 2026-09-03 00:55:14 | 50.85165 | 17.66733 | 259° | 53km/h | 32302m | -0.2m/s | 0°C | 0% | 0hPa | 0V | 00:00:00 | 00:00:00 | 00:00:00 | |
| DB0UT-7 | 2026-09-03 00:55:02 | 50.85209 | 17.66654 | 95° | 53km/h | 32248m | 5.1m/s | 0°C | 0% | 0hPa | 0V | 00:00:00 | 00:00:00 | 00:00:00 | |
| PETON7-10 | 2026-09-03 00:54:58 | 50.85172 | 17.66608 | 293° | 49km/h | 32227m | 2.5m/s | 0°C | 0% | 0hPa | 0V | 00:00:00 | 00:00:00 | 00:00:00 | |
| SP3BTT-10 | 2026-09-03 00:54:52 | 50.85206 | 17.66526 | 65° | 40km/h | 32201m | 9.5m/s | 0°C | 0% | 0hPa | 0V | 00:00:00 | 00:00:00 | 00:00:00 | |
| OE5DRO-10 | 2026-09-03 00:54:45 | 50.85235 | 17.66501 | 95° | 62km/h | 32159m | 10.5m/s | 0°C | 0% | 0hPa | 0V | 00:00:00 | 00:00:00 | 00:00:00 | |
| PETON7-10 | 2026-09-03 00:54:41 | 50.85197 | 17.66429 | 324° | 53km/h | 32104m | -1.3m/s | 0°C | 0% | 0hPa | 0V | 00:00:00 | 00:00:00 | 00:00:00 | |
| SP4MAZ | 2026-09-03 00:54:25 | 50.85164 | 17.66245 | 326° | 38km/h | 32070m | 6.0m/s | 0°C | 0% | 0hPa | 0V | 00:00:00 | 00:00:00 | 00:00:00 | |
| PETON7-10 | 2026-09-03 00:54:24 | 50.85163 | 17.66253 | 250° | 46km/h | 32064m | 3.5m/s | 0°C | 0% | 0hPa | 0V | 00:00:00 | 00:00:00 | 00:00:00 | |
| PETON7-10 | 2026-09-03 00:54:08 | 50.85131 | 17.66073 | 271° | 38km/h | 31899m | 2.4m/s | 0°C | 0% | 0hPa | 0V | 00:00:00 | 00:00:00 | 00:00:00 | |
| PETON7-10 | 2026-09-03 00:53:53 | 50.85152 | 17.65914 | 358° | 46km/h | 31798m | 2.3m/s | 0°C | 0% | 0hPa | 0V | 00:00:00 | 00:00:00 | 00:00:00 | |
| SP3BTT-10 | 2026-09-03 00:53:49 | 50.85161 | 17.65932 | 164° | 46km/h | 31779m | 10.3m/s | 0°C | 0% | 0hPa | 0V | 00:00:00 | 00:00:00 | 00:00:00 | |
| SQ6EMJ | 2026-09-03 00:53:48 | 50.85165 | 17.65922 | 63° | 35km/h | 31768m | 7.0m/s | 0°C | 0% | 0hPa | 0V | 00:00:00 | 00:00:00 | 00:00:00 | |
| OE5DRO-10 | 2026-09-03 00:53:41 | 50.85128 | 17.65917 | 135° | 44km/h | 31684m | 3.5m/s | 0°C | 0% | 0hPa | 0V | 00:00:00 | 00:00:00 | 00:00:00 | |
| PETON7-10 | 2026-09-03 00:53:38 | 50.85121 | 17.65881 | 49° | 40km/h | 31707m | 2.8m/s | 0°C | 0% | 0hPa | 0V | 00:00:00 | 00:00:00 | 00:00:00 | |
| PETON7-10 | 2026-09-03 00:53:23 | 50.85126 | 17.65722 | 125° | 53km/h | 31646m | 14.2m/s | 0°C | 0% | 0hPa | 0V | 00:00:00 | 00:00:00 | 00:00:00 | |
| OK1SLM-15 | 2026-09-03 00:53:18 | 50.85126 | 17.65735 | 210° | 42km/h | 31578m | 9.9m/s | 0°C | 0% | 0hPa | 0V | 00:00:00 | 00:00:00 | 00:00:00 | |
| PETON7-10 | 2026-09-03 00:53:04 | 50.85119 | 17.65567 | 18° | 38km/h | 31474m | 7.0m/s | 0°C | 0% | 0hPa | 0V | 00:00:00 | 00:00:00 | 00:00:00 | |
| PETON7-10 | 2026-09-03 00:52:48 | 50.85030 | 17.65382 | 278° | 58km/h | 31469m | 7.8m/s | 0°C | 0% | 0hPa | 0V | 00:00:00 | 00:00:00 | 00:00:00 | |
| SP3BTT-10 | 2026-09-03 00:52:47 | 50.85030 | 17.65404 | 240° | 38km/h | 31464m | 13.9m/s | 0°C | 0% | 0hPa | 0V | 00:00:00 | 00:00:00 | 00:00:00 | |
| PETON7-10 | 2026-09-03 00:52:32 | 50.85036 | 17.65299 | 258° | 51km/h | 31361m | 17.6m/s | 0°C | 0% | 0hPa | 0V | 00:00:00 | 00:00:00 | 00:00:00 | |
| SQ6EMJ | 2026-09-03 00:52:29 | 50.85069 | 17.65351 | 153° | 106km/h | 31312m | 12.4m/s | 0°C | 0% | 0hPa | 0V | 00:00:00 | 00:00:00 | 00:00:00 | |
| OE5DRO-10 | 2026-09-03 00:52:26 | 50.85100 | 17.65276 | 57° | 44km/h | 31263m | 20.7m/s | 0°C | 0% | 0hPa | 0V | 00:00:00 | 00:00:00 | 00:00:00 | |
| SQ6EMJ | 2026-09-03 00:52:19 | 50.85099 | 17.65285 | 55° | 86km/h | 31197m | 20.6m/s | 0°C | 0% | 0hPa | 0V | 00:00:00 | 00:00:00 | 00:00:00 | |
| PETON7-10 | 2026-09-03 00:52:13 | 50.85074 | 17.65254 | 149° | 40km/h | 31131m | 6.3m/s | 0°C | 0% | 0hPa | 0V | 00:00:00 | 00:00:00 | 00:00:00 | |
| OE5DRO-10 | 2026-09-03 00:52:00 | 50.85038 | 17.65153 | 350° | 18km/h | 31049m | 1.7m/s | 0°C | 0% | 0hPa | 0V | 00:00:00 | 00:00:00 | 00:00:00 | |
| DB0UT-7 | 2026-09-03 00:51:57 | 50.85016 | 17.65168 | 280° | 22km/h | 31036m | 6.6m/s | 0°C | 0% | 0hPa | 0V | 00:00:00 | 00:00:00 | 00:00:00 | |
| PETON7-10 | 2026-09-03 00:51:56 | 50.85017 | 17.65175 | 220° | 18km/h | 31030m | 7.1m/s | 0°C | 0% | 0hPa | 0V | 00:00:00 | 00:00:00 | 00:00:00 | |
| SQ6EMJ | 2026-09-03 00:51:54 | 50.85026 | 17.65178 | 112° | 11km/h | 31006m | 6.0m/s | 0°C | 0% | 0hPa | 0V | 00:00:00 | 00:00:00 | 00:00:00 | |
| SP4MAZ | 2026-09-03 00:51:49 | 50.85036 | 17.65166 | 148° | 16km/h | 30975m | 12.4m/s | 0°C | 0% | 0hPa | 0V | 00:00:00 | 00:00:00 | 00:00:00 | |
| PETON7-10 | 2026-09-03 00:51:41 | 50.85025 | 17.65160 | 201° | 18km/h | 30918m | 3.9m/s | 0°C | 0% | 0hPa | 0V | 00:00:00 | 00:00:00 | 00:00:00 | |
| SP3BTT-10 | 2026-09-03 00:51:33 | 50.85022 | 17.65159 | 171° | 29km/h | 30880m | 2.4m/s | 0°C | 0% | 0hPa | 0V | 00:00:00 | 00:00:00 | 00:00:00 | |
| SP4MAZ | 2026-09-03 00:51:29 | 50.85026 | 17.65164 | 265° | 18km/h | 30879m | 5.9m/s | 0°C | 0% | 0hPa | 0V | 00:00:00 | 00:00:00 | 00:00:00 | |
| PETON7-10 | 2026-09-03 00:51:26 | 50.85012 | 17.65184 | 96° | 20km/h | 30859m | 22.1m/s | 0°C | 0% | 0hPa | 0V | 00:00:00 | 00:00:00 | 00:00:00 | |
| OE5DRO-10 | 2026-09-03 00:51:22 | 50.85026 | 17.65158 | 166° | 20km/h | 30793m | 17.4m/s | 0°C | 0% | 0hPa | 0V | 00:00:00 | 00:00:00 | 00:00:00 | |
| OE5MMP-10 | 2026-09-03 00:51:17 | 50.85038 | 17.65159 | 165° | 16km/h | 30771m | 6.9m/s | 0°C | 0% | 0hPa | 0V | 00:00:00 | 00:00:00 | 00:00:00 | |
| SQ6EMJ | 2026-09-03 00:51:15 | 50.85040 | 17.65148 | 77° | 11km/h | 30756m | 6.4m/s | 0°C | 0% | 0hPa | 0V | 00:00:00 | 00:00:00 | 00:00:00 | |
| PETON7-10 | 2026-09-03 00:51:10 | 50.85047 | 17.65135 | 210° | 16km/h | 30727m | 4.1m/s | 0°C | 0% | 0hPa | 0V | 00:00:00 | 00:00:00 | 00:00:00 | |
| OE5MMP-10 | 2026-09-03 00:51:07 | 50.85048 | 17.65142 | 110° | 5km/h | 30710m | 9.0m/s | 0°C | 0% | 0hPa | 0V | 00:00:00 | 00:00:00 | 00:00:00 | |
| OE5DRO-10 | 2026-09-03 00:51:01 | 50.85061 | 17.65152 | 135° | 20km/h | 30674m | 9.8m/s | 0°C | 0% | 0hPa | 0V | 00:00:00 | 00:00:00 | 00:00:00 | |
| SQ6EMJ | 2026-09-03 00:50:58 | 50.85062 | 17.65152 | 136° | 9km/h | 30674m | 9.8m/s | 0°C | 0% | 0hPa | 0V | 00:00:00 | 00:00:00 | 00:00:00 | |
| PETON7-10 | 2026-09-03 00:50:55 | 50.85088 | 17.65153 | 164° | 24km/h | 30651m | 10.4m/s | 0°C | 0% | 0hPa | 0V | 00:00:00 | 00:00:00 | 00:00:00 | |
| OE5MMP-10 | 2026-09-03 00:50:54 | 50.85089 | 17.65149 | 75° | 31km/h | 30644m | 16.7m/s | 0°C | 0% | 0hPa | 0V | 00:00:00 | 00:00:00 | 00:00:00 | |
| SQ6EMJ | 2026-09-03 00:50:53 | 50.85086 | 17.65137 | 220° | 11km/h | 30630m | 8.4m/s | 0°C | 0% | 0hPa | 0V | 00:00:00 | 00:00:00 | 00:00:00 | |
| SP3BTT-10 | 2026-09-03 00:50:48 | 50.85116 | 17.65149 | 143° | 13km/h | 30600m | 4.0m/s | 0°C | 0% | 0hPa | 0V | 00:00:00 | 00:00:00 | 00:00:00 | |
| SQ6EMJ | 2026-09-03 00:50:47 | 50.85121 | 17.65143 | 123° | 26km/h | 30594m | 9.1m/s | 0°C | 0% | 0hPa | 0V | 00:00:00 | 00:00:00 | 00:00:00 | |
| OE5MMP-10 | 2026-09-03 00:50:44 | 50.85123 | 17.65116 | 83° | 18km/h | 30575m | 4.5m/s | 0°C | 0% | 0hPa | 0V | 00:00:00 | 00:00:00 | 00:00:00 | |
| PETON7-10 | 2026-09-03 00:50:40 | 50.85147 | 17.65132 | 194° | 18km/h | 30556m | 5.3m/s | 0°C | 0% | 0hPa | 0V | 00:00:00 | 00:00:00 | 00:00:00 | |
| SQ6EMJ | 2026-09-03 00:50:38 | 50.85163 | 17.65132 | 143° | 9km/h | 30547m | 2.3m/s | 0°C | 0% | 0hPa | 0V | 00:00:00 | 00:00:00 | 00:00:00 | |
| SQ6EMJ | 2026-09-03 00:50:32 | 50.85167 | 17.65129 | 192° | 24km/h | 30517m | 4.9m/s | 0°C | 0% | 0hPa | 0V | 00:00:00 | 00:00:00 | 00:00:00 | |
| PETON7-10 | 2026-09-03 00:50:25 | 50.85192 | 17.65101 | 212° | 15km/h | 30466m | 6.9m/s | 0°C | 0% | 0hPa | 0V | 00:00:00 | 00:00:00 | 00:00:00 | |
| SQ6EMJ | 2026-09-03 00:50:22 | 50.85195 | 17.65100 | 94° | 20km/h | 30443m | 3.6m/s | 0°C | 0% | 0hPa | 0V | 00:00:00 | 00:00:00 | 00:00:00 | |
| SP3BTT-10 | 2026-09-03 00:50:18 | 50.85203 | 17.65080 | 184° | 16km/h | 30417m | 4.4m/s | 0°C | 0% | 0hPa | 0V | 00:00:00 | 00:00:00 | 00:00:00 | |
| SQ6EMJ | 2026-09-03 00:50:17 | 50.85208 | 17.65079 | 163° | 24km/h | 30412m | 6.2m/s | 0°C | 0% | 0hPa | 0V | 00:00:00 | 00:00:00 | 00:00:00 | |
| SQ6EMJ | 2026-09-03 00:50:12 | 50.85210 | 17.65078 | 273° | 2km/h | 30375m | 3.0m/s | 0°C | 0% | 0hPa | 0V | 00:00:00 | 00:00:00 | 00:00:00 | |
| PETON7-10 | 2026-09-03 00:50:10 | 50.85213 | 17.65086 | 129° | 29km/h | 30369m | 6.0m/s | 0°C | 0% | 0hPa | 0V | 00:00:00 | 00:00:00 | 00:00:00 | |
| SQ6EMJ | 2026-09-03 00:50:06 | 50.85226 | 17.65068 | 143° | 35km/h | 30351m | 7.6m/s | 0°C | 0% | 0hPa | 0V | 00:00:00 | 00:00:00 | 00:00:00 | |
| SQ6EMJ | 2026-09-03 00:50:01 | 50.85243 | 17.65042 | 82° | 35km/h | 30327m | 4.7m/s | 0°C | 0% | 0hPa | 0V | 00:00:00 | 00:00:00 | 00:00:00 | |
| OE5DRO-10 | 2026-09-03 00:49:58 | 50.85268 | 17.65008 | 70° | 15km/h | 30285m | 10.9m/s | 0°C | 0% | 0hPa | 0V | 00:00:00 | 00:00:00 | 00:00:00 | |
| PETON7-10 | 2026-09-03 00:49:55 | 50.85268 | 17.65008 | 70° | 16km/h | 30285m | 10.9m/s | 0°C | 0% | 0hPa | 0V | 00:00:00 | 00:00:00 | 00:00:00 | |
| SQ6EMJ | 2026-09-03 00:49:50 | 50.85270 | 17.64964 | 134° | 27km/h | 30246m | 9.5m/s | 0°C | 0% | 0hPa | 0V | 00:00:00 | 00:00:00 | 00:00:00 | |
| SQ6EMJ | 2026-09-03 00:49:44 | 50.85281 | 17.64943 | 197° | 4km/h | 30213m | 5.2m/s | 0°C | 0% | 0hPa | 0V | 00:00:00 | 00:00:00 | 00:00:00 | |
| SP4MAZ | 2026-09-03 00:49:41 | 50.85283 | 17.64925 | 81° | 27km/h | 30195m | 6.6m/s | 0°C | 0% | 0hPa | 0V | 00:00:00 | 00:00:00 | 00:00:00 | |
| SQ6EMJ | 2026-09-03 00:49:40 | 50.85279 | 17.64910 | 89° | 11km/h | 30186m | 4.8m/s | 0°C | 0% | 0hPa | 0V | 00:00:00 | 00:00:00 | 00:00:00 | |
| PETON7-10 | 2026-09-03 00:49:39 | 50.85279 | 17.64910 | 88° | 18km/h | 30186m | 4.8m/s | 0°C | 0% | 0hPa | 0V | 00:00:00 | 00:00:00 | 00:00:00 | |
| OE5DRO-10 | 2026-09-03 00:49:37 | 50.85292 | 17.64907 | 80° | 18km/h | 30155m | 8.1m/s | 0°C | 0% | 0hPa | 0V | 00:00:00 | 00:00:00 | 00:00:00 | |
| SQ6EMJ | 2026-09-03 00:49:32 | 50.85286 | 17.64887 | 67° | 31km/h | 30138m | 1.1m/s | 0°C | 0% | 0hPa | 0V | 00:00:00 | 00:00:00 | 00:00:00 | |
| SQ6EMJ | 2026-09-03 00:49:26 | 50.85288 | 17.64875 | 86° | 20km/h | 30108m | 8.0m/s | 0°C | 0% | 0hPa | 0V | 00:00:00 | 00:00:00 | 00:00:00 | |
| PETON7-10 | 2026-09-03 00:49:23 | 50.85283 | 17.64848 | 72° | 22km/h | 30083m | 5.5m/s | 0°C | 0% | 0hPa | 0V | 00:00:00 | 00:00:00 | 00:00:00 | |
| SQ6EMJ | 2026-09-03 00:49:21 | 50.85284 | 17.64836 | 162° | 16km/h | 30069m | 2.6m/s | 0°C | 0% | 0hPa | 0V | 00:00:00 | 00:00:00 | 00:00:00 | |
| SP3BTT-10 | 2026-09-03 00:49:16 | 50.85288 | 17.64814 | 83° | 22km/h | 30039m | 4.8m/s | 0°C | 0% | 0hPa | 0V | 00:00:00 | 00:00:00 | 00:00:00 | |
| SQ6EMJ | 2026-09-03 00:49:15 | 50.85289 | 17.64801 | 109° | 33km/h | 30034m | 4.8m/s | 0°C | 0% | 0hPa | 0V | 00:00:00 | 00:00:00 | 00:00:00 | |
| PETON7-10 | 2026-09-03 00:49:08 | 50.85298 | 17.64748 | 64° | 22km/h | 29998m | 4.6m/s | 0°C | 0% | 0hPa | 0V | 00:00:00 | 00:00:00 | 00:00:00 | |
| SQ6EMJ | 2026-09-03 00:49:01 | 50.85311 | 17.64699 | 53° | 13km/h | 29947m | 4.6m/s | 0°C | 0% | 0hPa | 0V | 00:00:00 | 00:00:00 | 00:00:00 | |
| OE5DRO-10 | 2026-09-03 00:49:00 | 50.85297 | 17.64685 | 136° | 13km/h | 29928m | 7.7m/s | 0°C | 0% | 0hPa | 0V | 00:00:00 | 00:00:00 | 00:00:00 | |
| SQ6EMJ | 2026-09-03 00:48:55 | 50.85303 | 17.64680 | 133° | 22km/h | 29917m | 6.0m/s | 0°C | 0% | 0hPa | 0V | 00:00:00 | 00:00:00 | 00:00:00 | |
| PETON7-10 | 2026-09-03 00:48:53 | 50.85307 | 17.64663 | 81° | 13km/h | 29907m | 3.4m/s | 0°C | 0% | 0hPa | 0V | 00:00:00 | 00:00:00 | 00:00:00 | |
| SQ6EMJ | 2026-09-03 00:48:51 | 50.85304 | 17.64653 | 160° | 4km/h | 29892m | 7.1m/s | 0°C | 0% | 0hPa | 0V | 00:00:00 | 00:00:00 | 00:00:00 | |
| SQ6EMJ | 2026-09-03 00:48:43 | 50.85301 | 17.64618 | 258° | 7km/h | 29844m | 6.1m/s | 0°C | 0% | 0hPa | 0V | 00:00:00 | 00:00:00 | 00:00:00 | |
| SQ6EMJ | 2026-09-03 00:48:38 | 50.85298 | 17.64610 | 69° | 22km/h | 29804m | 4.2m/s | 0°C | 0% | 0hPa | 0V | 00:00:00 | 00:00:00 | 00:00:00 | |
| PETON7-10 | 2026-09-03 00:48:37 | 50.85296 | 17.64603 | 80° | 15km/h | 29799m | 4.0m/s | 0°C | 0% | 0hPa | 0V | 00:00:00 | 00:00:00 | 00:00:00 | |
| SQ6EMJ | 2026-09-03 00:48:32 | 50.85297 | 17.64601 | 31° | 11km/h | 29766m | 5.9m/s | 0°C | 0% | 0hPa | 0V | 00:00:00 | 00:00:00 | 00:00:00 | |
| SQ6EMJ | 2026-09-03 00:48:26 | 50.85291 | 17.64580 | 95° | 22km/h | 29728m | 7.7m/s | 0°C | 0% | 0hPa | 0V | 00:00:00 | 00:00:00 | 00:00:00 | |
| PETON7-10 | 2026-09-03 00:48:22 | 50.85292 | 17.64550 | 112° | 15km/h | 29698m | 9.0m/s | 0°C | 0% | 0hPa | 0V | 00:00:00 | 00:00:00 | 00:00:00 | |
| SQ6EMJ | 2026-09-03 00:48:21 | 50.85292 | 17.64549 | 316° | 4km/h | 29690m | 5.8m/s | 0°C | 0% | 0hPa | 0V | 00:00:00 | 00:00:00 | 00:00:00 | |
| OE5DRO-10 | 2026-09-03 00:48:20 | 50.85286 | 17.64539 | 55° | 18km/h | 29669m | 7.3m/s | 0°C | 0% | 0hPa | 0V | 00:00:00 | 00:00:00 | 00:00:00 | |
| SP3BTT-10 | 2026-09-03 00:48:16 | 50.85283 | 17.64517 | 75° | 20km/h | 29656m | 6.5m/s | 0°C | 0% | 0hPa | 0V | 00:00:00 | 00:00:00 | 00:00:00 | |
| SQ6EMJ | 2026-09-03 00:48:15 | 50.85283 | 17.64512 | 127° | 7km/h | 29649m | 7.0m/s | 0°C | 0% | 0hPa | 0V | 00:00:00 | 00:00:00 | 00:00:00 | |
| SP4MAZ | 2026-09-03 00:48:11 | 50.85280 | 17.64507 | 32° | 27km/h | 29620m | 7.6m/s | 0°C | 0% | 0hPa | 0V | 00:00:00 | 00:00:00 | 00:00:00 | |
| SQ6EMJ | 2026-09-03 00:48:10 | 50.85275 | 17.64501 | 54° | 22km/h | 29611m | 7.9m/s | 0°C | 0% | 0hPa | 0V | 00:00:00 | 00:00:00 | 00:00:00 | |
| PETON7-10 | 2026-09-03 00:48:07 | 50.85266 | 17.64483 | 43° | 18km/h | 29593m | 5.2m/s | 0°C | 0% | 0hPa | 0V | 00:00:00 | 00:00:00 | 00:00:00 | |
| SQ6EMJ | 2026-09-03 00:48:03 | 50.85249 | 17.64470 | 345° | 18km/h | 29574m | 5.4m/s | 0°C | 0% | 0hPa | 0V | 00:00:00 | 00:00:00 | 00:00:00 | |
| OE5DRO-10 | 2026-09-03 00:48:01 | 50.85235 | 17.64449 | 54° | 22km/h | 29540m | 8.4m/s | 0°C | 0% | 0hPa | 0V | 00:00:00 | 00:00:00 | 00:00:00 | |
| SQ6EMJ | 2026-09-03 00:47:56 | 50.85221 | 17.64427 | 36° | 33km/h | 29528m | 4.6m/s | 0°C | 0% | 0hPa | 0V | 00:00:00 | 00:00:00 | 00:00:00 | |
| PETON7-10 | 2026-09-03 00:47:52 | 50.85206 | 17.64421 | 346° | 22km/h | 29497m | 4.9m/s | 0°C | 0% | 0hPa | 0V | 00:00:00 | 00:00:00 | 00:00:00 | |
| SP4MAZ | 2026-09-03 00:47:51 | 50.85201 | 17.64419 | 23° | 24km/h | 29492m | 5.2m/s | 0°C | 0% | 0hPa | 0V | 00:00:00 | 00:00:00 | 00:00:00 | |
| SQ6EMJ | 2026-09-03 00:47:49 | 50.85189 | 17.64406 | 37° | 33km/h | 29482m | 8.0m/s | 0°C | 0% | 0hPa | 0V | 00:00:00 | 00:00:00 | 00:00:00 | |
| SQ6EMJ | 2026-09-03 00:47:43 | 50.85159 | 17.64372 | 325° | 13km/h | 29445m | 5.4m/s | 0°C | 0% | 0hPa | 0V | 00:00:00 | 00:00:00 | 00:00:00 | |
| OE5DRO-10 | 2026-09-03 00:47:42 | 50.85152 | 17.64381 | 11° | 27km/h | 29430m | 4.3m/s | 0°C | 0% | 0hPa | 0V | 00:00:00 | 00:00:00 | 00:00:00 | |
| PETON7-10 | 2026-09-03 00:47:37 | 50.85131 | 17.64359 | 41° | 27km/h | 29412m | 1.2m/s | 0°C | 0% | 0hPa | 0V | 00:00:00 | 00:00:00 | 00:00:00 | |
| SP3BTT-10 | 2026-09-03 00:47:32 | 50.85115 | 17.64361 | 294° | 29km/h | 29386m | 4.5m/s | 0°C | 0% | 0hPa | 0V | 00:00:00 | 00:00:00 | 00:00:00 | |
| SP4MAZ | 2026-09-03 00:47:31 | 50.85112 | 17.64367 | 331° | 27km/h | 29380m | 5.7m/s | 0°C | 0% | 0hPa | 0V | 00:00:00 | 00:00:00 | 00:00:00 | |
| SQ6EMJ | 2026-09-03 00:47:26 | 50.85073 | 17.64341 | 1° | 13km/h | 29354m | 4.3m/s | 0°C | 0% | 0hPa | 0V | 00:00:00 | 00:00:00 | 00:00:00 | |
| PETON7-10 | 2026-09-03 00:47:22 | 50.85059 | 17.64360 | 344° | 27km/h | 29352m | 6.1m/s | 0°C | 0% | 0hPa | 0V | 00:00:00 | 00:00:00 | 00:00:00 | |
| SQ6EMJ | 2026-09-03 00:47:19 | 50.85032 | 17.64369 | 28° | 47km/h | 29363m | 15.9m/s | 0°C | 0% | 0hPa | 0V | 00:00:00 | 00:00:00 | 00:00:00 | |
| SQ6EMJ | 2026-09-03 00:47:12 | 50.84999 | 17.64342 | 2° | 33km/h | 29252m | 5.8m/s | 0°C | 0% | 0hPa | 0V | 00:00:00 | 00:00:00 | 00:00:00 | |
| PETON7-10 | 2026-09-03 00:47:07 | 50.84974 | 17.64364 | 314° | 20km/h | 29220m | 6.2m/s | 0°C | 0% | 0hPa | 0V | 00:00:00 | 00:00:00 | 00:00:00 | |
| SQ6EMJ | 2026-09-03 00:47:06 | 50.84971 | 17.64369 | 322° | 13km/h | 29213m | 5.8m/s | 0°C | 0% | 0hPa | 0V | 00:00:00 | 00:00:00 | 00:00:00 | |
| OE5DRO-10 | 2026-09-03 00:47:04 | 50.84968 | 17.64382 | 336° | 26km/h | 29181m | 6.3m/s | 0°C | 0% | 0hPa | 0V | 00:00:00 | 00:00:00 | 00:00:00 | |
| SQ6EMJ | 2026-09-03 00:47:00 | 50.84958 | 17.64380 | 356° | 31km/h | 29162m | 8.4m/s | 0°C | 0% | 0hPa | 0V | 00:00:00 | 00:00:00 | 00:00:00 | |
| SQ6EMJ | 2026-09-03 00:46:54 | 50.84948 | 17.64395 | 244° | 20km/h | 29099m | 4.9m/s | 0°C | 0% | 0hPa | 0V | 00:00:00 | 00:00:00 | 00:00:00 | |
| PETON7-10 | 2026-09-03 00:46:53 | 50.84946 | 17.64399 | 321° | 24km/h | 29074m | 4.6m/s | 0°C | 0% | 0hPa | 0V | 00:00:00 | 00:00:00 | 00:00:00 | |
| SQ6EMJ | 2026-09-03 00:46:49 | 50.84933 | 17.64409 | 278° | 31km/h | 29065m | -4.0m/s | 0°C | 0% | 0hPa | 0V | 00:00:00 | 00:00:00 | 00:00:00 | |
| OE5DRO-10 | 2026-09-03 00:46:45 | 50.84945 | 17.64474 | 297° | 18km/h | 29055m | 4.8m/s | 0°C | 0% | 0hPa | 0V | 00:00:00 | 00:00:00 | 00:00:00 | |
| SQ6EMJ | 2026-09-03 00:46:42 | 50.84943 | 17.64477 | 302° | 15km/h | 29049m | 5.2m/s | 0°C | 0% | 0hPa | 0V | 00:00:00 | 00:00:00 | 00:00:00 | |
| PETON7-10 | 2026-09-03 00:46:37 | 50.84942 | 17.64507 | 272° | 24km/h | 29024m | 3.8m/s | 0°C | 0% | 0hPa | 0V | 00:00:00 | 00:00:00 | 00:00:00 | |
| SQ6EMJ | 2026-09-03 00:46:30 | 50.84949 | 17.64537 | 351° | 29km/h | 28983m | 2.2m/s | 0°C | 0% | 0hPa | 0V | 00:00:00 | 00:00:00 | 00:00:00 | |
| OE5DRO-10 | 2026-09-03 00:46:27 | 50.84961 | 17.64560 | 198° | 22km/h | 28953m | 1.9m/s | 0°C | 0% | 0hPa | 0V | 00:00:00 | 00:00:00 | 00:00:00 | |
| SQ6EMJ | 2026-09-03 00:46:25 | 50.84970 | 17.64566 | 217° | 27km/h | 28951m | 4.6m/s | 0°C | 0% | 0hPa | 0V | 00:00:00 | 00:00:00 | 00:00:00 | |
| PETON7-10 | 2026-09-03 00:46:21 | 50.84970 | 17.64574 | 340° | 15km/h | 28929m | 4.9m/s | 0°C | 0% | 0hPa | 0V | 00:00:00 | 00:00:00 | 00:00:00 | |
| SQ6EMJ | 2026-09-03 00:46:18 | 50.84966 | 17.64593 | 219° | 31km/h | 28911m | 4.4m/s | 0°C | 0% | 0hPa | 0V | 00:00:00 | 00:00:00 | 00:00:00 | |
| SP3BTT-10 | 2026-09-03 00:46:15 | 50.84987 | 17.64610 | 192° | 16km/h | 28897m | 4.4m/s | 0°C | 0% | 0hPa | 0V | 00:00:00 | 00:00:00 | 00:00:00 | |
| SQ6EMJ | 2026-09-03 00:46:11 | 50.85003 | 17.64617 | 212° | 11km/h | 28881m | 7.1m/s | 0°C | 0% | 0hPa | 0V | 00:00:00 | 00:00:00 | 00:00:00 | |
| OE5DRO-10 | 2026-09-03 00:46:08 | 50.85005 | 17.64632 | 215° | 26km/h | 28837m | 5.2m/s | 0°C | 0% | 0hPa | 0V | 00:00:00 | 00:00:00 | 00:00:00 | |
| PETON7-10 | 2026-09-03 00:46:05 | 50.85005 | 17.64632 | 215° | 31km/h | 28837m | 5.2m/s | 0°C | 0% | 0hPa | 0V | 00:00:00 | 00:00:00 | 00:00:00 | |
| SQ6EMJ | 2026-09-03 00:46:04 | 50.85012 | 17.64637 | 202° | 35km/h | 28830m | 8.1m/s | 0°C | 0% | 0hPa | 0V | 00:00:00 | 00:00:00 | 00:00:00 | |
| SQ6EMJ | 2026-09-03 00:45:57 | 50.85029 | 17.64642 | 316° | 26km/h | 28779m | 3.2m/s | 0°C | 0% | 0hPa | 0V | 00:00:00 | 00:00:00 | 00:00:00 | |
| SQ6EMJ | 2026-09-03 00:45:52 | 50.85058 | 17.64638 | 141° | 31km/h | 28724m | 5.7m/s | 0°C | 0% | 0hPa | 0V | 00:00:00 | 00:00:00 | 00:00:00 | |
| PETON7-10 | 2026-09-03 00:45:51 | 50.85061 | 17.64619 | 288° | 18km/h | 28703m | -3.3m/s | 0°C | 0% | 0hPa | 0V | 00:00:00 | 00:00:00 | 00:00:00 | |
| SQ6EMJ | 2026-09-03 00:45:47 | 50.85060 | 17.64656 | 266° | 31km/h | 28719m | -1.4m/s | 0°C | 0% | 0hPa | 0V | 00:00:00 | 00:00:00 | 00:00:00 | |
| SQ6EMJ | 2026-09-03 00:45:41 | 50.85070 | 17.64653 | 199° | 20km/h | 28704m | 6.2m/s | 0°C | 0% | 0hPa | 0V | 00:00:00 | 00:00:00 | 00:00:00 | |
| SQ6EMJ | 2026-09-03 00:45:36 | 50.85071 | 17.64656 | 118° | 18km/h | 28672m | 3.3m/s | 0°C | 0% | 0hPa | 0V | 00:00:00 | 00:00:00 | 00:00:00 | |
| PETON7-10 | 2026-09-03 00:45:35 | 50.85073 | 17.64650 | 128° | 16km/h | 28668m | 4.3m/s | 0°C | 0% | 0hPa | 0V | 00:00:00 | 00:00:00 | 00:00:00 | |
| SQ6EMJ | 2026-09-03 00:45:30 | 50.85090 | 17.64632 | 42° | 9km/h | 28642m | 6.3m/s | 0°C | 0% | 0hPa | 0V | 00:00:00 | 00:00:00 | 00:00:00 | |
| OE5DRO-10 | 2026-09-03 00:45:27 | 50.85095 | 17.64612 | 126° | 16km/h | 28615m | 5.9m/s | 0°C | 0% | 0hPa | 0V | 00:00:00 | 00:00:00 | 00:00:00 | |
| SQ6EMJ | 2026-09-03 00:45:24 | 50.85099 | 17.64603 | 114° | 27km/h | 28610m | 6.1m/s | 0°C | 0% | 0hPa | 0V | 00:00:00 | 00:00:00 | 00:00:00 | |
| PETON7-10 | 2026-09-03 00:45:20 | 50.85106 | 17.64594 | 210° | 15km/h | 28587m | 4.6m/s | 0°C | 0% | 0hPa | 0V | 00:00:00 | 00:00:00 | 00:00:00 | |
| SQ6EMJ | 2026-09-03 00:45:18 | 50.85110 | 17.64588 | 82° | 29km/h | 28571m | 11.5m/s | 0°C | 0% | 0hPa | 0V | 00:00:00 | 00:00:00 | 00:00:00 | |
| SP3BTT-10 | 2026-09-03 00:45:14 | 50.85110 | 17.64555 | 160° | 13km/h | 28546m | 5.6m/s | 0°C | 0% | 0hPa | 0V | 00:00:00 | 00:00:00 | 00:00:00 | |
| SQ6EMJ | 2026-09-03 00:45:11 | 50.85114 | 17.64561 | 304° | 13km/h | 28527m | 8.8m/s | 0°C | 0% | 0hPa | 0V | 00:00:00 | 00:00:00 | 00:00:00 | |
| SQ6EMJ | 2026-09-03 00:45:07 | 50.85107 | 17.64551 | 155° | 13km/h | 28493m | 5.0m/s | 0°C | 0% | 0hPa | 0V | 00:00:00 | 00:00:00 | 00:00:00 | |
| PETON7-10 | 2026-09-03 00:45:05 | 50.85109 | 17.64547 | 120° | 11km/h | 28488m | 6.9m/s | 0°C | 0% | 0hPa | 0V | 00:00:00 | 00:00:00 | 00:00:00 | |
| SQ6EMJ | 2026-09-03 00:44:59 | 50.85100 | 17.64523 | 118° | 9km/h | 28441m | 7.9m/s | 0°C | 0% | 0hPa | 0V | 00:00:00 | 00:00:00 | 00:00:00 | |
| SQ6EMJ | 2026-09-03 00:44:54 | 50.85093 | 17.64517 | 35° | 11km/h | 28397m | 5.5m/s | 0°C | 0% | 0hPa | 0V | 00:00:00 | 00:00:00 | 00:00:00 | |
| PETON7-10 | 2026-09-03 00:44:48 | 50.85088 | 17.64493 | 8° | 15km/h | 28343m | 2.0m/s | 0°C | 0% | 0hPa | 0V | 00:00:00 | 00:00:00 | 00:00:00 | |
| SQ6EMJ | 2026-09-03 00:44:46 | 50.85082 | 17.64495 | 326° | 24km/h | 28336m | -3.7m/s | 0°C | 0% | 0hPa | 0V | 00:00:00 | 00:00:00 | 00:00:00 | |
| SP3BTT-10 | 2026-09-03 00:44:44 | 50.85079 | 17.64503 | 277° | 15km/h | 28333m | -2.1m/s | 0°C | 0% | 0hPa | 0V | 00:00:00 | 00:00:00 | 00:00:00 | |
| SQ6EMJ | 2026-09-03 00:44:35 | 50.85065 | 17.64525 | 7° | 15km/h | 28304m | 6.1m/s | 0°C | 0% | 0hPa | 0V | 00:00:00 | 00:00:00 | 00:00:00 | |
| PETON7-10 | 2026-09-03 00:44:33 | 50.85059 | 17.64530 | 306° | 15km/h | 28292m | 4.8m/s | 0°C | 0% | 0hPa | 0V | 00:00:00 | 00:00:00 | 00:00:00 | |
| SQ6EMJ | 2026-09-03 00:44:29 | 50.85062 | 17.64538 | 129° | 9km/h | 28266m | 2.7m/s | 0°C | 0% | 0hPa | 0V | 00:00:00 | 00:00:00 | 00:00:00 | |
| SP4MAZ | 2026-09-03 00:44:26 | 50.85057 | 17.64528 | 14° | 11km/h | 28256m | 0.3m/s | 0°C | 0% | 0hPa | 0V | 00:00:00 | 00:00:00 | 00:00:00 | |
| SQ6EMJ | 2026-09-03 00:44:24 | 50.85057 | 17.64528 | 240° | 15km/h | 28242m | 5.2m/s | 0°C | 0% | 0hPa | 0V | 00:00:00 | 00:00:00 | 00:00:00 | |
| PETON7-10 | 2026-09-03 00:44:18 | 50.85056 | 17.64569 | 311° | 16km/h | 28212m | -0.4m/s | 0°C | 0% | 0hPa | 0V | 00:00:00 | 00:00:00 | 00:00:00 | |
| SQ6EMJ | 2026-09-03 00:44:13 | 50.85064 | 17.64610 | 276° | 26km/h | 28192m | 3.0m/s | 0°C | 0% | 0hPa | 0V | 00:00:00 | 00:00:00 | 00:00:00 | |
| OE5DRO-10 | 2026-09-03 00:44:09 | 50.85073 | 17.64627 | 272° | 16km/h | 28161m | 6.5m/s | 0°C | 0% | 0hPa | 0V | 00:00:00 | 00:00:00 | 00:00:00 | |
| SQ6EMJ | 2026-09-03 00:44:07 | 50.85073 | 17.64627 | 273° | 13km/h | 28161m | 6.6m/s | 0°C | 0% | 0hPa | 0V | 00:00:00 | 00:00:00 | 00:00:00 | |
| PETON7-10 | 2026-09-03 00:44:02 | 50.85081 | 17.64654 | 162° | 16km/h | 28142m | 10.4m/s | 0°C | 0% | 0hPa | 0V | 00:00:00 | 00:00:00 | 00:00:00 | |
| SQ6EMJ | 2026-09-03 00:44:01 | 50.85084 | 17.64651 | 86° | 31km/h | 28135m | 17.1m/s | 0°C | 0% | 0hPa | 0V | 00:00:00 | 00:00:00 | 00:00:00 | |
| SQ6EMJ | 2026-09-03 00:43:56 | 50.85095 | 17.64647 | 202° | 20km/h | 28088m | 6.2m/s | 0°C | 0% | 0hPa | 0V | 00:00:00 | 00:00:00 | 00:00:00 | |
| SQ6EMJ | 2026-09-03 00:43:49 | 50.85106 | 17.64635 | 134° | 22km/h | 28047m | 4.3m/s | 0°C | 0% | 0hPa | 0V | 00:00:00 | 00:00:00 | 00:00:00 | |
| PETON7-10 | 2026-09-03 00:43:47 | 50.85114 | 17.64627 | 179° | 13km/h | 28035m | 6.1m/s | 0°C | 0% | 0hPa | 0V | 00:00:00 | 00:00:00 | 00:00:00 | |
| SP3BTT-10 | 2026-09-03 00:43:44 | 50.85114 | 17.64635 | 254° | 18km/h | 28013m | 3.6m/s | 0°C | 0% | 0hPa | 0V | 00:00:00 | 00:00:00 | 00:00:00 | |
| SQ6EMJ | 2026-09-03 00:43:40 | 50.85129 | 17.64625 | 171° | 16km/h | 27987m | 7.0m/s | 0°C | 0% | 0hPa | 0V | 00:00:00 | 00:00:00 | 00:00:00 | |
| PETON7-10 | 2026-09-03 00:43:32 | 50.85145 | 17.64605 | 126° | 15km/h | 27941m | 4.6m/s | 0°C | 0% | 0hPa | 0V | 00:00:00 | 00:00:00 | 00:00:00 | |
| OE5DRO-10 | 2026-09-03 00:43:30 | 50.85156 | 17.64586 | 132° | 18km/h | 27918m | 5.1m/s | 0°C | 0% | 0hPa | 0V | 00:00:00 | 00:00:00 | 00:00:00 | |
| SQ6EMJ | 2026-09-03 00:43:24 | 50.85165 | 17.64564 | 293° | 9km/h | 27897m | 4.2m/s | 0°C | 0% | 0hPa | 0V | 00:00:00 | 00:00:00 | 00:00:00 | |
| SQ6EMJ | 2026-09-03 00:43:18 | 50.85183 | 17.64536 | 114° | 22km/h | 27863m | 6.6m/s | 0°C | 0% | 0hPa | 0V | 00:00:00 | 00:00:00 | 00:00:00 | |
| PETON7-10 | 2026-09-03 00:43:15 | 50.85183 | 17.64531 | 279° | 18km/h | 27841m | 2.8m/s | 0°C | 0% | 0hPa | 0V | 00:00:00 | 00:00:00 | 00:00:00 | |
| OE5DRO-10 | 2026-09-03 00:43:10 | 50.85190 | 17.64483 | 94° | 20km/h | 27796m | 7.0m/s | 0°C | 0% | 0hPa | 0V | 00:00:00 | 00:00:00 | 00:00:00 | |
| SQ6EMJ | 2026-09-03 00:43:07 | 50.85190 | 17.64483 | 94° | 16km/h | 27796m | 7.1m/s | 0°C | 0% | 0hPa | 0V | 00:00:00 | 00:00:00 | 00:00:00 | |
| PETON7-10 | 2026-09-03 00:43:00 | 50.85192 | 17.64434 | 96° | 20km/h | 27749m | 7.0m/s | 0°C | 0% | 0hPa | 0V | 00:00:00 | 00:00:00 | 00:00:00 | |
| OE5DRO-10 | 2026-09-03 00:42:51 | 50.85175 | 17.64343 | 10° | 15km/h | 27653m | 7.2m/s | 0°C | 0% | 0hPa | 0V | 00:00:00 | 00:00:00 | 00:00:00 | |
| PETON7-10 | 2026-09-03 00:42:45 | 50.85166 | 17.64325 | 85° | 16km/h | 27610m | 5.7m/s | 0°C | 0% | 0hPa | 0V | 00:00:00 | 00:00:00 | 00:00:00 | |
| SP3BTT-10 | 2026-09-03 00:42:44 | 50.85165 | 17.64316 | 85° | 11km/h | 27602m | 5.0m/s | 0°C | 0% | 0hPa | 0V | 00:00:00 | 00:00:00 | 00:00:00 | |
| SP4MAZ | 2026-09-03 00:42:36 | 50.85155 | 17.64303 | 117° | 18km/h | 27577m | -5.4m/s | 0°C | 0% | 0hPa | 0V | 00:00:00 | 00:00:00 | 00:00:00 | |
| PETON7-10 | 2026-09-03 00:42:30 | 50.85145 | 17.64290 | 179° | 5km/h | 27569m | 3.8m/s | 0°C | 0% | 0hPa | 0V | 00:00:00 | 00:00:00 | 00:00:00 | |
| SP3BTT-10 | 2026-09-03 00:42:15 | 50.85145 | 17.64285 | 331° | 18km/h | 27489m | 3.2m/s | 0°C | 0% | 0hPa | 0V | 00:00:00 | 00:00:00 | 00:00:00 | |
| OE5DRO-10 | 2026-09-03 00:42:12 | 50.85155 | 17.64301 | 261° | 16km/h | 27451m | 5.9m/s | 0°C | 0% | 0hPa | 0V | 00:00:00 | 00:00:00 | 00:00:00 | |
| SQ6EMJ | 2026-09-03 00:42:04 | 50.85152 | 17.64299 | 300° | 15km/h | 27416m | 7.2m/s | 0°C | 0% | 0hPa | 0V | 00:00:00 | 00:00:00 | 00:00:00 | |
| PETON7-10 | 2026-09-03 00:42:00 | 50.85148 | 17.64327 | 198° | 20km/h | 27391m | 6.4m/s | 0°C | 0% | 0hPa | 0V | 00:00:00 | 00:00:00 | 00:00:00 | |
| SQ6EMJ | 2026-09-03 00:41:54 | 50.85159 | 17.64345 | 321° | 26km/h | 27350m | 4.5m/s | 0°C | 0% | 0hPa | 0V | 00:00:00 | 00:00:00 | 00:00:00 | |
| OE5DRO-10 | 2026-09-03 00:41:52 | 50.85175 | 17.64351 | 181° | 16km/h | 27311m | 6.6m/s | 0°C | 0% | 0hPa | 0V | 00:00:00 | 00:00:00 | 00:00:00 | |
| PETON7-10 | 2026-09-03 00:41:44 | 50.85171 | 17.64363 | 266° | 16km/h | 27251m | 2.9m/s | 0°C | 0% | 0hPa | 0V | 00:00:00 | 00:00:00 | 00:00:00 | |
| SQ6EMJ | 2026-09-03 00:41:42 | 50.85177 | 17.64375 | 204° | 26km/h | 27243m | 5.0m/s | 0°C | 0% | 0hPa | 0V | 00:00:00 | 00:00:00 | 00:00:00 | |
| SQ6EMJ | 2026-09-03 00:41:35 | 50.85198 | 17.64399 | 205° | 18km/h | 27222m | 4.0m/s | 0°C | 0% | 0hPa | 0V | 00:00:00 | 00:00:00 | 00:00:00 | |
| OE5DRO-10 | 2026-09-03 00:41:33 | 50.85203 | 17.64410 | 182° | 15km/h | 27215m | 5.9m/s | 0°C | 0% | 0hPa | 0V | 00:00:00 | 00:00:00 | 00:00:00 | |
| SQ6EMJ | 2026-09-03 00:41:30 | 50.85203 | 17.64410 | 183° | 5km/h | 27215m | 6.0m/s | 0°C | 0% | 0hPa | 0V | 00:00:00 | 00:00:00 | 00:00:00 | |
| PETON7-10 | 2026-09-03 00:41:29 | 50.85204 | 17.64409 | 176° | 18km/h | 27210m | 5.8m/s | 0°C | 0% | 0hPa | 0V | 00:00:00 | 00:00:00 | 00:00:00 | |
| SQ6EMJ | 2026-09-03 00:41:24 | 50.85227 | 17.64427 | 247° | 9km/h | 27184m | 7.0m/s | 0°C | 0% | 0hPa | 0V | 00:00:00 | 00:00:00 | 00:00:00 | |
| SP4MAZ | 2026-09-03 00:41:22 | 50.85229 | 17.64427 | 108° | 15km/h | 27164m | 7.9m/s | 0°C | 0% | 0hPa | 0V | 00:00:00 | 00:00:00 | 00:00:00 | |
| SQ6EMJ | 2026-09-03 00:41:18 | 50.85235 | 17.64407 | 127° | 26km/h | 27133m | 2.2m/s | 0°C | 0% | 0hPa | 0V | 00:00:00 | 00:00:00 | 00:00:00 | |
| PETON7-10 | 2026-09-03 00:41:13 | 50.85257 | 17.64409 | 100° | 16km/h | 27105m | 7.7m/s | 0°C | 0% | 0hPa | 0V | 00:00:00 | 00:00:00 | 00:00:00 | |
| SQ6EMJ | 2026-09-03 00:41:11 | 50.85255 | 17.64398 | 81° | 9km/h | 27092m | 3.5m/s | 0°C | 0% | 0hPa | 0V | 00:00:00 | 00:00:00 | 00:00:00 | |
| SQ6EMJ | 2026-09-03 00:41:06 | 50.85277 | 17.64387 | 187° | 11km/h | 27063m | 5.9m/s | 0°C | 0% | 0hPa | 0V | 00:00:00 | 00:00:00 | 00:00:00 | |
| SP4MAZ | 2026-09-03 00:41:01 | 50.85287 | 17.64356 | 139° | 20km/h | 27031m | 4.5m/s | 0°C | 0% | 0hPa | 0V | 00:00:00 | 00:00:00 | 00:00:00 | |
| SQ6EMJ | 2026-09-03 00:41:00 | 50.85291 | 17.64353 | 162° | 13km/h | 27026m | 6.4m/s | 0°C | 0% | 0hPa | 0V | 00:00:00 | 00:00:00 | 00:00:00 | |
| PETON7-10 | 2026-09-03 00:40:58 | 50.85296 | 17.64352 | 169° | 18km/h | 27014m | 6.5m/s | 0°C | 0% | 0hPa | 0V | 00:00:00 | 00:00:00 | 00:00:00 | |
| SQ6EMJ | 2026-09-03 00:40:55 | 50.85308 | 17.64331 | 115° | 26km/h | 26992m | 3.4m/s | 0°C | 0% | 0hPa | 0V | 00:00:00 | 00:00:00 | 00:00:00 | |
| OE5DRO-10 | 2026-09-03 00:40:53 | 50.85309 | 17.64312 | 142° | 18km/h | 26966m | 6.8m/s | 0°C | 0% | 0hPa | 0V | 00:00:00 | 00:00:00 | 00:00:00 | |
| SQ6EMJ | 2026-09-03 00:40:49 | 50.85314 | 17.64306 | 151° | 27km/h | 26959m | 5.9m/s | 0°C | 0% | 0hPa | 0V | 00:00:00 | 00:00:00 | 00:00:00 | |
| SQ6EMJ | 2026-09-03 00:40:43 | 50.85341 | 17.64280 | 106° | 15km/h | 26921m | 4.6m/s | 0°C | 0% | 0hPa | 0V | 00:00:00 | 00:00:00 | 00:00:00 | |
| PETON7-10 | 2026-09-03 00:40:42 | 50.85342 | 17.64270 | 114° | 20km/h | 26915m | 2.4m/s | 0°C | 0% | 0hPa | 0V | 00:00:00 | 00:00:00 | 00:00:00 | |
| SQ6EMJ | 2026-09-03 00:40:38 | 50.85358 | 17.64255 | 219° | 22km/h | 26896m | 3.1m/s | 0°C | 0% | 0hPa | 0V | 00:00:00 | 00:00:00 | 00:00:00 | |
| SQ6EMJ | 2026-09-03 00:40:33 | 50.85373 | 17.64223 | 89° | 26km/h | 26860m | 4.8m/s | 0°C | 0% | 0hPa | 0V | 00:00:00 | 00:00:00 | 00:00:00 | |
| PETON7-10 | 2026-09-03 00:40:27 | 50.85386 | 17.64198 | 160° | 15km/h | 26815m | -5.5m/s | 0°C | 0% | 0hPa | 0V | 00:00:00 | 00:00:00 | 00:00:00 | |
| OE5DRO-10 | 2026-09-03 00:40:22 | 50.85406 | 17.64160 | 161° | 13km/h | 26797m | -0.9m/s | 0°C | 0% | 0hPa | 0V | 00:00:00 | 00:00:00 | 00:00:00 | |
| SQ6EMJ | 2026-09-03 00:40:18 | 50.85411 | 17.64150 | 158° | 9km/h | 26781m | 1.7m/s | 0°C | 0% | 0hPa | 0V | 00:00:00 | 00:00:00 | 00:00:00 | |
| SP3BTT-10 | 2026-09-03 00:40:13 | 50.85416 | 17.64131 | 98° | 18km/h | 26757m | 5.5m/s | 0°C | 0% | 0hPa | 0V | 00:00:00 | 00:00:00 | 00:00:00 | |
| PETON7-10 | 2026-09-03 00:40:12 | 50.85416 | 17.64127 | 106° | 11km/h | 26750m | 7.3m/s | 0°C | 0% | 0hPa | 0V | 00:00:00 | 00:00:00 | 00:00:00 | |
| SQ6EMJ | 2026-09-03 00:40:10 | 50.85416 | 17.64123 | 124° | 9km/h | 26736m | 7.2m/s | 0°C | 0% | 0hPa | 0V | 00:00:00 | 00:00:00 | 00:00:00 | |
| SQ6EMJ | 2026-09-03 00:40:05 | 50.85425 | 17.64096 | 110° | 4km/h | 26699m | 5.6m/s | 0°C | 0% | 0hPa | 0V | 00:00:00 | 00:00:00 | 00:00:00 | |
| OE5DRO-10 | 2026-09-03 00:40:01 | 50.85429 | 17.64075 | 66° | 16km/h | 26663m | 3.6m/s | 0°C | 0% | 0hPa | 0V | 00:00:00 | 00:00:00 | 00:00:00 | |
| SQ6EMJ | 2026-09-03 00:39:59 | 50.85429 | 17.64075 | 66° | 9km/h | 26663m | 3.7m/s | 0°C | 0% | 0hPa | 0V | 00:00:00 | 00:00:00 | 00:00:00 | |
| PETON7-10 | 2026-09-03 00:39:57 | 50.85431 | 17.64066 | 125° | 18km/h | 26654m | 6.8m/s | 0°C | 0% | 0hPa | 0V | 00:00:00 | 00:00:00 | 00:00:00 | |
| SQ6EMJ | 2026-09-03 00:39:50 | 50.85440 | 17.64050 | 67° | 22km/h | 26620m | 6.7m/s | 0°C | 0% | 0hPa | 0V | 00:00:00 | 00:00:00 | 00:00:00 | |
| PETON7-10 | 2026-09-03 00:39:42 | 50.85449 | 17.64018 | 151° | 15km/h | 26573m | 5.2m/s | 0°C | 0% | 0hPa | 0V | 00:00:00 | 00:00:00 | 00:00:00 | |
| SQ6EMJ | 2026-09-03 00:39:39 | 50.85446 | 17.64009 | 45° | 13km/h | 26556m | 5.1m/s | 0°C | 0% | 0hPa | 0V | 00:00:00 | 00:00:00 | 00:00:00 | |
| PG1ADW-2 | 2026-09-03 00:39:38 | 50.85445 | 17.64004 | 83° | 18km/h | 26553m | 4.9m/s | 0°C | 0% | 0hPa | 0V | 00:00:00 | 00:00:00 | 00:00:00 | |
| SQ6EMJ | 2026-09-03 00:39:33 | 50.85458 | 17.63993 | 268° | 15km/h | 26521m | 3.8m/s | 0°C | 0% | 0hPa | 0V | 00:00:00 | 00:00:00 | 00:00:00 | |
| SP4MAZ | 2026-09-03 00:39:30 | 50.85452 | 17.63997 | 97° | 13km/h | 26507m | 9.1m/s | 0°C | 0% | 0hPa | 0V | 00:00:00 | 00:00:00 | 00:00:00 | |
| SQ6EMJ | 2026-09-03 00:39:28 | 50.85456 | 17.63983 | 127° | 16km/h | 26491m | 7.2m/s | 0°C | 0% | 0hPa | 0V | 00:00:00 | 00:00:00 | 00:00:00 | |
| PETON7-10 | 2026-09-03 00:39:26 | 50.85463 | 17.63977 | 183° | 20km/h | 26478m | 4.7m/s | 0°C | 0% | 0hPa | 0V | 00:00:00 | 00:00:00 | 00:00:00 | |
| OE5DRO-10 | 2026-09-03 00:39:23 | 50.85466 | 17.63974 | 48° | 16km/h | 26441m | 3.2m/s | 0°C | 0% | 0hPa | 0V | 00:00:00 | 00:00:00 | 00:00:00 | |
| SQ6EMJ | 2026-09-03 00:39:20 | 50.85466 | 17.63974 | 49° | 16km/h | 26441m | 3.3m/s | 0°C | 0% | 0hPa | 0V | 00:00:00 | 00:00:00 | 00:00:00 | |
| SP3BTT-10 | 2026-09-03 00:39:12 | 50.85490 | 17.63966 | 353° | 20km/h | 26397m | 5.9m/s | 0°C | 0% | 0hPa | 0V | 00:00:00 | 00:00:00 | 00:00:00 | |
| PETON7-10 | 2026-09-03 00:39:10 | 50.85486 | 17.63953 | 103° | 16km/h | 26382m | 2.8m/s | 0°C | 0% | 0hPa | 0V | 00:00:00 | 00:00:00 | 00:00:00 | |
| SQ6EMJ | 2026-09-03 00:39:02 | 50.85520 | 17.63948 | 130° | 16km/h | 26347m | 4.4m/s | 0°C | 0% | 0hPa | 0V | 00:00:00 | 00:00:00 | 00:00:00 | |
| OE5DRO-10 | 2026-09-03 00:39:00 | 50.85527 | 17.63941 | 124° | 24km/h | 26323m | 5.3m/s | 0°C | 0% | 0hPa | 0V | 00:00:00 | 00:00:00 | 00:00:00 | |
| SQ6EMJ | 2026-09-03 00:38:57 | 50.85527 | 17.63941 | 124° | 5km/h | 26323m | 5.3m/s | 0°C | 0% | 0hPa | 0V | 00:00:00 | 00:00:00 | 00:00:00 | |
| PETON7-10 | 2026-09-03 00:38:55 | 50.85531 | 17.63933 | 145° | 27km/h | 26310m | 2.9m/s | 0°C | 0% | 0hPa | 0V | 00:00:00 | 00:00:00 | 00:00:00 | |
| SQ6EMJ | 2026-09-03 00:38:49 | 50.85566 | 17.63901 | 106° | 27km/h | 26271m | 4.0m/s | 0°C | 0% | 0hPa | 0V | 00:00:00 | 00:00:00 | 00:00:00 | |
| SQ6EMJ | 2026-09-03 00:38:43 | 50.85588 | 17.63882 | 139° | 31km/h | 26238m | 6.9m/s | 0°C | 0% | 0hPa | 0V | 00:00:00 | 00:00:00 | 00:00:00 | |
| PETON7-10 | 2026-09-03 00:38:40 | 50.85610 | 17.63847 | 140° | 24km/h | 26220m | 2.9m/s | 0°C | 0% | 0hPa | 0V | 00:00:00 | 00:00:00 | 00:00:00 | |
| SQ6EMJ | 2026-09-03 00:38:36 | 50.85619 | 17.63816 | 108° | 16km/h | 26200m | 2.5m/s | 0°C | 0% | 0hPa | 0V | 00:00:00 | 00:00:00 | 00:00:00 | |
| SQ6EMJ | 2026-09-03 00:38:30 | 50.85660 | 17.63770 | 112° | 16km/h | 26171m | 3.3m/s | 0°C | 0% | 0hPa | 0V | 00:00:00 | 00:00:00 | 00:00:00 | |
| PETON7-10 | 2026-09-03 00:38:25 | 50.85672 | 17.63744 | 126° | 22km/h | 26155m | 5.6m/s | 0°C | 0% | 0hPa | 0V | 00:00:00 | 00:00:00 | 00:00:00 | |
| SQ6EMJ | 2026-09-03 00:38:24 | 50.85684 | 17.63719 | 124° | 46km/h | 26157m | 5.9m/s | 0°C | 0% | 0hPa | 0V | 00:00:00 | 00:00:00 | 00:00:00 | |
| SQ6EMJ | 2026-09-03 00:38:16 | 50.85701 | 17.63668 | 96° | 18km/h | 26119m | 8.1m/s | 0°C | 0% | 0hPa | 0V | 00:00:00 | 00:00:00 | 00:00:00 | |
| SP3BTT-10 | 2026-09-03 00:38:12 | 50.85725 | 17.63626 | 106° | 18km/h | 26104m | 13.3m/s | 0°C | 0% | 0hPa | 0V | 00:00:00 | 00:00:00 | 00:00:00 | |
| PETON7-10 | 2026-09-03 00:38:10 | 50.85729 | 17.63604 | 83° | 20km/h | 26079m | 17.0m/s | 0°C | 0% | 0hPa | 0V | 00:00:00 | 00:00:00 | 00:00:00 | |
| SQ6EMJ | 2026-09-03 00:38:07 | 50.85728 | 17.63585 | 198° | 7km/h | 26037m | 8.6m/s | 0°C | 0% | 0hPa | 0V | 00:00:00 | 00:00:00 | 00:00:00 | |
| SQ6EMJ | 2026-09-03 00:38:00 | 50.85743 | 17.63540 | 87° | 29km/h | 25998m | 6.1m/s | 0°C | 0% | 0hPa | 0V | 00:00:00 | 00:00:00 | 00:00:00 | |
| PETON7-10 | 2026-09-03 00:37:55 | 50.85755 | 17.63527 | 57° | 15km/h | 25968m | 5.4m/s | 0°C | 0% | 0hPa | 0V | 00:00:00 | 00:00:00 | 00:00:00 | |
| PG1ADW-2 | 2026-09-03 00:37:52 | 50.85748 | 17.63495 | 139° | 22km/h | 25934m | 1.8m/s | 0°C | 0% | 0hPa | 0V | 00:00:00 | 00:00:00 | 00:00:00 | |
| SQ6EMJ | 2026-09-03 00:37:50 | 50.85755 | 17.63482 | 24° | 5km/h | 25939m | 4.5m/s | 0°C | 0% | 0hPa | 0V | 00:00:00 | 00:00:00 | 00:00:00 | |
| OK1SLM-15 | 2026-09-03 00:37:48 | 50.85749 | 17.63477 | 48° | 16km/h | 25931m | 5.4m/s | 0°C | 0% | 0hPa | 0V | 00:00:00 | 00:00:00 | 00:00:00 | |
| SQ6EMJ | 2026-09-03 00:37:45 | 50.85747 | 17.63469 | 163° | 7km/h | 25914m | 7.6m/s | 0°C | 0% | 0hPa | 0V | 00:00:00 | 00:00:00 | 00:00:00 | |
| OK1SLM-15 | 2026-09-03 00:37:42 | 50.85748 | 17.63459 | 52° | 16km/h | 25895m | 7.6m/s | 0°C | 0% | 0hPa | 0V | 00:00:00 | 00:00:00 | 00:00:00 | |
| PETON7-10 | 2026-09-03 00:37:40 | 50.85738 | 17.63447 | 27° | 16km/h | 25883m | 4.4m/s | 0°C | 0% | 0hPa | 0V | 00:00:00 | 00:00:00 | 00:00:00 | |
| SQ6EMJ | 2026-09-03 00:37:39 | 50.85735 | 17.63442 | 27° | 11km/h | 25875m | 6.2m/s | 0°C | 0% | 0hPa | 0V | 00:00:00 | 00:00:00 | 00:00:00 | |
| OK1SLM-15 | 2026-09-03 00:37:37 | 50.85736 | 17.63438 | 165° | 13km/h | 25860m | 5.0m/s | 0°C | 0% | 0hPa | 0V | 00:00:00 | 00:00:00 | 00:00:00 | |
| SQ6EMJ | 2026-09-03 00:37:34 | 50.85732 | 17.63422 | 352° | 26km/h | 25818m | 4.1m/s | 0°C | 0% | 0hPa | 0V | 00:00:00 | 00:00:00 | 00:00:00 | |
| SP3BTT-10 | 2026-09-03 00:37:27 | 50.85737 | 17.63424 | 213° | 18km/h | 25767m | -5.9m/s | 0°C | 0% | 0hPa | 0V | 00:00:00 | 00:00:00 | 00:00:00 | |
| PETON7-10 | 2026-09-03 00:37:24 | 50.85732 | 17.63416 | 293° | 22km/h | 25746m | -6.9m/s | 0°C | 0% | 0hPa | 0V | 00:00:00 | 00:00:00 | 00:00:00 | |
| SQ6EMJ | 2026-09-03 00:37:22 | 50.85731 | 17.63429 | 270° | 22km/h | 25755m | -4.7m/s | 0°C | 0% | 0hPa | 0V | 00:00:00 | 00:00:00 | 00:00:00 | |
| SQ6EMJ | 2026-09-03 00:37:16 | 50.85753 | 17.63438 | 114° | 18km/h | 25759m | 4.5m/s | 0°C | 0% | 0hPa | 0V | 00:00:00 | 00:00:00 | 00:00:00 | |
| SQ6EMJ | 2026-09-03 00:37:10 | 50.85753 | 17.63445 | 186° | 46km/h | 25722m | 5.2m/s | 0°C | 0% | 0hPa | 0V | 00:00:00 | 00:00:00 | 00:00:00 | |
| PETON7-10 | 2026-09-03 00:37:09 | 50.85764 | 17.63445 | 166° | 22km/h | 25720m | 8.6m/s | 0°C | 0% | 0hPa | 0V | 00:00:00 | 00:00:00 | 00:00:00 | |
| SQ6EMJ | 2026-09-03 00:37:05 | 50.85769 | 17.63419 | 14° | 18km/h | 25685m | 5.1m/s | 0°C | 0% | 0hPa | 0V | 00:00:00 | 00:00:00 | 00:00:00 | |
| SQ6EMJ | 2026-09-03 00:37:00 | 50.85782 | 17.63431 | 164° | 26km/h | 25649m | 5.6m/s | 0°C | 0% | 0hPa | 0V | 00:00:00 | 00:00:00 | 00:00:00 | |
| SP3BTT-10 | 2026-09-03 00:36:58 | 50.85796 | 17.63417 | 177° | 13km/h | 25635m | -0.6m/s | 0°C | 0% | 0hPa | 0V | 00:00:00 | 00:00:00 | 00:00:00 | |
| PETON7-10 | 2026-09-03 00:36:54 | 50.85795 | 17.63411 | 124° | 29km/h | 25623m | 5.0m/s | 0°C | 0% | 0hPa | 0V | 00:00:00 | 00:00:00 | 00:00:00 | |
| SQ6EMJ | 2026-09-03 00:36:46 | 50.85830 | 17.63395 | 26° | 24km/h | 25577m | 0.9m/s | 0°C | 0% | 0hPa | 0V | 00:00:00 | 00:00:00 | 00:00:00 | |
| PETON7-10 | 2026-09-03 00:36:39 | 50.85860 | 17.63390 | 101° | 24km/h | 25537m | 5.5m/s | 0°C | 0% | 0hPa | 0V | 00:00:00 | 00:00:00 | 00:00:00 | |
| SQ6EMJ | 2026-09-03 00:36:37 | 50.85853 | 17.63371 | 13° | 22km/h | 25527m | 2.0m/s | 0°C | 0% | 0hPa | 0V | 00:00:00 | 00:00:00 | 00:00:00 | |
| SQ6EMJ | 2026-09-03 00:36:30 | 50.85888 | 17.63348 | 86° | 18km/h | 25503m | 4.9m/s | 0°C | 0% | 0hPa | 0V | 00:00:00 | 00:00:00 | 00:00:00 | |
| PETON7-10 | 2026-09-03 00:36:24 | 50.85890 | 17.63332 | 112° | 16km/h | 25471m | 12.7m/s | 0°C | 0% | 0hPa | 0V | 00:00:00 | 00:00:00 | 00:00:00 | |
| SQ6EMJ | 2026-09-03 00:36:18 | 50.85909 | 17.63301 | 132° | 7km/h | 25419m | 6.7m/s | 0°C | 0% | 0hPa | 0V | 00:00:00 | 00:00:00 | 00:00:00 | |
| SQ6EMJ | 2026-09-03 00:36:13 | 50.85907 | 17.63266 | 124° | 11km/h | 25387m | 5.7m/s | 0°C | 0% | 0hPa | 0V | 00:00:00 | 00:00:00 | 00:00:00 | |
| SP3BTT-10 | 2026-09-03 00:36:11 | 50.85913 | 17.63262 | 161° | 11km/h | 25376m | 4.7m/s | 0°C | 0% | 0hPa | 0V | 00:00:00 | 00:00:00 | 00:00:00 | |
| PETON7-10 | 2026-09-03 00:36:10 | 50.85917 | 17.63254 | 108° | 15km/h | 25363m | 4.5m/s | 0°C | 0% | 0hPa | 0V | 00:00:00 | 00:00:00 | 00:00:00 | |
| SQ6EMJ | 2026-09-03 00:36:07 | 50.85919 | 17.63240 | 98° | 15km/h | 25355m | 4.2m/s | 0°C | 0% | 0hPa | 0V | 00:00:00 | 00:00:00 | 00:00:00 | |
| PG1ADW-2 | 2026-09-03 00:36:06 | 50.85920 | 17.63234 | 104° | 16km/h | 25351m | 3.2m/s | 0°C | 0% | 0hPa | 0V | 00:00:00 | 00:00:00 | 00:00:00 | |
| SQ6EMJ | 2026-09-03 00:36:01 | 50.85912 | 17.63212 | 72° | 9km/h | 25327m | 4.2m/s | 0°C | 0% | 0hPa | 0V | 00:00:00 | 00:00:00 | 00:00:00 | |
| OE5DRO-10 | 2026-09-03 00:35:59 | 50.85925 | 17.63189 | 110° | 13km/h | 25294m | 5.4m/s | 0°C | 0% | 0hPa | 0V | 00:00:00 | 00:00:00 | 00:00:00 | |
| SQ6EMJ | 2026-09-03 00:35:57 | 50.85925 | 17.63189 | 110° | 24km/h | 25294m | 5.4m/s | 0°C | 0% | 0hPa | 0V | 00:00:00 | 00:00:00 | 00:00:00 | |
| PETON7-10 | 2026-09-03 00:35:54 | 50.85927 | 17.63172 | 48° | 13km/h | 25284m | 6.8m/s | 0°C | 0% | 0hPa | 0V | 00:00:00 | 00:00:00 | 00:00:00 | |
| SQ6EMJ | 2026-09-03 00:35:50 | 50.85918 | 17.63174 | 57° | 11km/h | 25259m | 7.1m/s | 0°C | 0% | 0hPa | 0V | 00:00:00 | 00:00:00 | 00:00:00 | |
| SP4MAZ | 2026-09-03 00:35:46 | 50.85920 | 17.63150 | 145° | 13km/h | 25237m | 3.7m/s | 0°C | 0% | 0hPa | 0V | 00:00:00 | 00:00:00 | 00:00:00 | |
| PG1ADW-2 | 2026-09-03 00:35:44 | 50.85923 | 17.63145 | 77° | 11km/h | 25226m | 5.4m/s | 0°C | 0% | 0hPa | 0V | 00:00:00 | 00:00:00 | 00:00:00 | |
| PETON7-10 | 2026-09-03 00:35:39 | 50.85916 | 17.63138 | 137° | 11km/h | 25203m | 5.7m/s | 0°C | 0% | 0hPa | 0V | 00:00:00 | 00:00:00 | 00:00:00 | |
| SQ6EMJ | 2026-09-03 00:35:32 | 50.85915 | 17.63113 | 31° | 9km/h | 25171m | 8.6m/s | 0°C | 0% | 0hPa | 0V | 00:00:00 | 00:00:00 | 00:00:00 | |
| SQ6EMJ | 2026-09-03 00:35:26 | 50.85907 | 17.63098 | 50° | 16km/h | 25127m | 8.7m/s | 0°C | 0% | 0hPa | 0V | 00:00:00 | 00:00:00 | 00:00:00 | |
| SP3BTT-10 | 2026-09-03 00:35:25 | 50.85904 | 17.63092 | 42° | 22km/h | 25118m | 5.5m/s | 0°C | 0% | 0hPa | 0V | 00:00:00 | 00:00:00 | 00:00:00 | |
| PG1ADW-2 | 2026-09-03 00:35:22 | 50.85895 | 17.63090 | 270° | 11km/h | 25102m | 5.2m/s | 0°C | 0% | 0hPa | 0V | 00:00:00 | 00:00:00 | 00:00:00 | |
| SQ6EMJ | 2026-09-03 00:35:20 | 50.85895 | 17.63096 | 139° | 5km/h | 25092m | 7.7m/s | 0°C | 0% | 0hPa | 0V | 00:00:00 | 00:00:00 | 00:00:00 | |
| SQ6EMJ | 2026-09-03 00:35:14 | 50.85891 | 17.63093 | 343° | 20km/h | 25055m | 4.0m/s | 0°C | 0% | 0hPa | 0V | 00:00:00 | 00:00:00 | 00:00:00 | |
| PETON7-10 | 2026-09-03 00:35:09 | 50.85892 | 17.63115 | 218° | 13km/h | 25033m | 4.2m/s | 0°C | 0% | 0hPa | 0V | 00:00:00 | 00:00:00 | 00:00:00 | |
| SQ6EMJ | 2026-09-03 00:35:07 | 50.85896 | 17.63116 | 94° | 5km/h | 25020m | 8.9m/s | 0°C | 0% | 0hPa | 0V | 00:00:00 | 00:00:00 | 00:00:00 | |
| PG1ADW-2 | 2026-09-03 00:35:01 | 50.85894 | 17.63119 | 201° | 16km/h | 24983m | 6.0m/s | 0°C | 0% | 0hPa | 0V | 00:00:00 | 00:00:00 | 00:00:00 | |
| SQ6EMJ | 2026-09-03 00:34:56 | 50.85902 | 17.63122 | 274° | 13km/h | 24975m | 3.4m/s | 0°C | 0% | 0hPa | 0V | 00:00:00 | 00:00:00 | 00:00:00 | |
| SP4MAZ | 2026-09-03 00:34:55 | 50.85902 | 17.63125 | 246° | 7km/h | 24973m | 5.0m/s | 0°C | 0% | 0hPa | 0V | 00:00:00 | 00:00:00 | 00:00:00 | |
| PETON7-10 | 2026-09-03 00:34:54 | 50.85905 | 17.63120 | 177° | 18km/h | 24967m | 5.7m/s | 0°C | 0% | 0hPa | 0V | 00:00:00 | 00:00:00 | 00:00:00 | |
| SQ6EMJ | 2026-09-03 00:34:48 | 50.85925 | 17.63138 | 237° | 26km/h | 24924m | 9.0m/s | 0°C | 0% | 0hPa | 0V | 00:00:00 | 00:00:00 | 00:00:00 | |
| PG1ADW-2 | 2026-09-03 00:34:42 | 50.85961 | 17.63130 | 170° | 22km/h | 24882m | 7.7m/s | 0°C | 0% | 0hPa | 0V | 00:00:00 | 00:00:00 | 00:00:00 | |
| SP3BTT-10 | 2026-09-03 00:34:40 | 50.85966 | 17.63126 | 228° | 11km/h | 24874m | 7.2m/s | 0°C | 0% | 0hPa | 0V | 00:00:00 | 00:00:00 | 00:00:00 | |
| PETON7-10 | 2026-09-03 00:34:39 | 50.85969 | 17.63127 | 184° | 20km/h | 24867m | 5.6m/s | 0°C | 0% | 0hPa | 0V | 00:00:00 | 00:00:00 | 00:00:00 | |
| SQ6EMJ | 2026-09-03 00:34:35 | 50.85980 | 17.63123 | 130° | 33km/h | 24844m | 5.8m/s | 0°C | 0% | 0hPa | 0V | 00:00:00 | 00:00:00 | 00:00:00 | |
| SQ6EMJ | 2026-09-03 00:34:26 | 50.86014 | 17.63079 | 103° | 29km/h | 24792m | 3.8m/s | 0°C | 0% | 0hPa | 0V | 00:00:00 | 00:00:00 | 00:00:00 | |
| PETON7-10 | 2026-09-03 00:34:22 | 50.86027 | 17.63053 | 195° | 16km/h | 24773m | 5.8m/s | 0°C | 0% | 0hPa | 0V | 00:00:00 | 00:00:00 | 00:00:00 | |
| SQ6EMJ | 2026-09-03 00:34:20 | 50.86029 | 17.63053 | 94° | 7km/h | 24762m | 4.7m/s | 0°C | 0% | 0hPa | 0V | 00:00:00 | 00:00:00 | 00:00:00 | |
| PG1ADW-2 | 2026-09-03 00:34:16 | 50.86032 | 17.63027 | 99° | 15km/h | 24742m | 4.0m/s | 0°C | 0% | 0hPa | 0V | 00:00:00 | 00:00:00 | 00:00:00 | |
| SQ6EMJ | 2026-09-03 00:34:14 | 50.86029 | 17.63011 | 71° | 22km/h | 24734m | 3.5m/s | 0°C | 0% | 0hPa | 0V | 00:00:00 | 00:00:00 | 00:00:00 | |
| OE5DRO-10 | 2026-09-03 00:34:13 | 50.86033 | 17.62987 | 105° | 13km/h | 24708m | 7.4m/s | 0°C | 0% | 0hPa | 0V | 00:00:00 | 00:00:00 | 00:00:00 | |
| SQ6EMJ | 2026-09-03 00:34:09 | 50.86032 | 17.62982 | 60° | 16km/h | 24702m | 6.1m/s | 0°C | 0% | 0hPa | 0V | 00:00:00 | 00:00:00 | 00:00:00 | |
| PETON7-10 | 2026-09-03 00:34:08 | 50.86030 | 17.62976 | 57° | 15km/h | 24696m | 4.4m/s | 0°C | 0% | 0hPa | 0V | 00:00:00 | 00:00:00 | 00:00:00 | |
| SQ6EMJ | 2026-09-03 00:33:57 | 50.86027 | 17.62941 | 75° | 13km/h | 24646m | 7.2m/s | 0°C | 0% | 0hPa | 0V | 00:00:00 | 00:00:00 | 00:00:00 | |
| PG1ADW-2 | 2026-09-03 00:33:56 | 50.86025 | 17.62936 | 47° | 16km/h | 24637m | 8.9m/s | 0°C | 0% | 0hPa | 0V | 00:00:00 | 00:00:00 | 00:00:00 | |
| PETON7-10 | 2026-09-03 00:33:52 | 50.86020 | 17.62919 | 101° | 13km/h | 24614m | 5.9m/s | 0°C | 0% | 0hPa | 0V | 00:00:00 | 00:00:00 | 00:00:00 | |
| SQ6EMJ | 2026-09-03 00:33:51 | 50.86021 | 17.62917 | 72° | 4km/h | 24607m | 7.0m/s | 0°C | 0% | 0hPa | 0V | 00:00:00 | 00:00:00 | 00:00:00 | |
| SP4MAZ | 2026-09-03 00:33:46 | 50.86007 | 17.62910 | 46° | 15km/h | 24575m | 8.1m/s | 0°C | 0% | 0hPa | 0V | 00:00:00 | 00:00:00 | 00:00:00 | |
| SQ6EMJ | 2026-09-03 00:33:42 | 50.85990 | 17.62880 | 38° | 18km/h | 24544m | 4.4m/s | 0°C | 0% | 0hPa | 0V | 00:00:00 | 00:00:00 | 00:00:00 | |
| PETON7-10 | 2026-09-03 00:33:37 | 50.85980 | 17.62870 | 357° | 11km/h | 24509m | 6.1m/s | 0°C | 0% | 0hPa | 0V | 00:00:00 | 00:00:00 | 00:00:00 | |
| PG1ADW-2 | 2026-09-03 00:33:31 | 50.85971 | 17.62858 | 150° | 11km/h | 24466m | 3.6m/s | 0°C | 0% | 0hPa | 0V | 00:00:00 | 00:00:00 | 00:00:00 | |
| PETON7-10 | 2026-09-03 00:33:22 | 50.85961 | 17.62867 | 222° | 9km/h | 24421m | 2.7m/s | 0°C | 0% | 0hPa | 0V | 00:00:00 | 00:00:00 | 00:00:00 | |
| SQ6EMJ | 2026-09-03 00:33:16 | 50.85957 | 17.62881 | 31° | 9km/h | 24389m | 3.7m/s | 0°C | 0% | 0hPa | 0V | 00:00:00 | 00:00:00 | 00:00:00 | |
| SQ6EMJ | 2026-09-03 00:33:11 | 50.85960 | 17.62885 | 291° | 9km/h | 24371m | 3.8m/s | 0°C | 0% | 0hPa | 0V | 00:00:00 | 00:00:00 | 00:00:00 | |
| PG1ADW-2 | 2026-09-03 00:33:09 | 50.85960 | 17.62894 | 280° | 15km/h | 24362m | 4.0m/s | 0°C | 0% | 0hPa | 0V | 00:00:00 | 00:00:00 | 00:00:00 | |
| PETON7-10 | 2026-09-03 00:33:05 | 50.85953 | 17.62888 | 53° | 18km/h | 24340m | 4.8m/s | 0°C | 0% | 0hPa | 0V | 00:00:00 | 00:00:00 | 00:00:00 | |
| SQ6EMJ | 2026-09-03 00:32:59 | 50.85947 | 17.62916 | 321° | 20km/h | 24304m | 4.7m/s | 0°C | 0% | 0hPa | 0V | 00:00:00 | 00:00:00 | 00:00:00 | |
| SP4MAZ | 2026-09-03 00:32:55 | 50.85938 | 17.62912 | 94° | 9km/h | 24282m | 5.2m/s | 0°C | 0% | 0hPa | 0V | 00:00:00 | 00:00:00 | 00:00:00 | |
| SQ6EMJ | 2026-09-03 00:32:54 | 50.85938 | 17.62912 | 318° | 4km/h | 24277m | 6.0m/s | 0°C | 0% | 0hPa | 0V | 00:00:00 | 00:00:00 | 00:00:00 | |
| PETON7-10 | 2026-09-03 00:32:50 | 50.85943 | 17.62942 | 248° | 15km/h | 24256m | 4.1m/s | 0°C | 0% | 0hPa | 0V | 00:00:00 | 00:00:00 | 00:00:00 | |
| PG1ADW-2 | 2026-09-03 00:32:48 | 50.85942 | 17.62954 | 315° | 13km/h | 24246m | 8.9m/s | 0°C | 0% | 0hPa | 0V | 00:00:00 | 00:00:00 | 00:00:00 | |
| SQ6EMJ | 2026-09-03 00:32:42 | 50.85946 | 17.62962 | 256° | 27km/h | 24217m | 1.0m/s | 0°C | 0% | 0hPa | 0V | 00:00:00 | 00:00:00 | 00:00:00 | |
| SQ6EMJ | 2026-09-03 00:32:36 | 50.85939 | 17.62996 | 261° | 13km/h | 24186m | 7.6m/s | 0°C | 0% | 0hPa | 0V | 00:00:00 | 00:00:00 | 00:00:00 | |
| PETON7-10 | 2026-09-03 00:32:34 | 50.85937 | 17.63013 | 282° | 18km/h | 24167m | 5.7m/s | 0°C | 0% | 0hPa | 0V | 00:00:00 | 00:00:00 | 00:00:00 | |
| OE5DRO-10 | 2026-09-03 00:32:31 | 50.85939 | 17.63057 | 291° | 11km/h | 24128m | 4.9m/s | 0°C | 0% | 0hPa | 0V | 00:00:00 | 00:00:00 | 00:00:00 | |
| SQ6EMJ | 2026-09-03 00:32:25 | 50.85935 | 17.63074 | 259° | 15km/h | 24118m | 7.1m/s | 0°C | 0% | 0hPa | 0V | 00:00:00 | 00:00:00 | 00:00:00 | |
| PG1ADW-2 | 2026-09-03 00:32:21 | 50.85942 | 17.63098 | 268° | 11km/h | 24094m | 5.1m/s | 0°C | 0% | 0hPa | 0V | 00:00:00 | 00:00:00 | 00:00:00 | |
| SQ6EMJ | 2026-09-03 00:32:19 | 50.85946 | 17.63117 | 211° | 15km/h | 24075m | 4.6m/s | 0°C | 0% | 0hPa | 0V | 00:00:00 | 00:00:00 | 00:00:00 | |
| SQ6EMJ | 2026-09-03 00:32:13 | 50.85946 | 17.63142 | 263° | 9km/h | 24052m | 6.8m/s | 0°C | 0% | 0hPa | 0V | 00:00:00 | 00:00:00 | 00:00:00 | |
| SP3BTT-10 | 2026-09-03 00:32:09 | 50.85955 | 17.63145 | 180° | 9km/h | 24033m | 7.1m/s | 0°C | 0% | 0hPa | 0V | 00:00:00 | 00:00:00 | 00:00:00 | |
| SQ6EMJ | 2026-09-03 00:32:07 | 50.85956 | 17.63149 | 288° | 13km/h | 24019m | 6.4m/s | 0°C | 0% | 0hPa | 0V | 00:00:00 | 00:00:00 | 00:00:00 | |
| PETON7-10 | 2026-09-03 00:32:04 | 50.85957 | 17.63154 | 170° | 13km/h | 23998m | 8.4m/s | 0°C | 0% | 0hPa | 0V | 00:00:00 | 00:00:00 | 00:00:00 | |
| SP4MAZ | 2026-09-03 00:32:03 | 50.85959 | 17.63153 | 189° | 9km/h | 23993m | 4.7m/s | 0°C | 0% | 0hPa | 0V | 00:00:00 | 00:00:00 | 00:00:00 | |
| SQ6EMJ | 2026-09-03 00:32:02 | 50.85962 | 17.63155 | 203° | 13km/h | 23990m | 5.6m/s | 0°C | 0% | 0hPa | 0V | 00:00:00 | 00:00:00 | 00:00:00 | |
| PG1ADW-2 | 2026-09-03 00:31:59 | 50.85973 | 17.63156 | 177° | 9km/h | 23973m | 4.6m/s | 0°C | 0% | 0hPa | 0V | 00:00:00 | 00:00:00 | 00:00:00 | |
| SQ6EMJ | 2026-09-03 00:31:56 | 50.85977 | 17.63158 | 338° | 13km/h | 23958m | 3.8m/s | 0°C | 0% | 0hPa | 0V | 00:00:00 | 00:00:00 | 00:00:00 | |
| SQ6EMJ | 2026-09-03 00:31:50 | 50.85987 | 17.63141 | 177° | 15km/h | 23926m | 6.1m/s | 0°C | 0% | 0hPa | 0V | 00:00:00 | 00:00:00 | 00:00:00 | |
| PETON7-10 | 2026-09-03 00:31:49 | 50.85990 | 17.63141 | 200° | 9km/h | 23915m | 3.7m/s | 0°C | 0% | 0hPa | 0V | 00:00:00 | 00:00:00 | 00:00:00 | |
| SQ6EMJ | 2026-09-03 00:31:45 | 50.85992 | 17.63137 | 141° | 9km/h | 23894m | 3.7m/s | 0°C | 0% | 0hPa | 0V | 00:00:00 | 00:00:00 | 00:00:00 | |
| SP4MAZ | 2026-09-03 00:31:42 | 50.85997 | 17.63135 | 156° | 9km/h | 23887m | 4.9m/s | 0°C | 0% | 0hPa | 0V | 00:00:00 | 00:00:00 | 00:00:00 | |
| SQ6EMJ | 2026-09-03 00:31:39 | 50.86003 | 17.63126 | 166° | 7km/h | 23878m | 4.2m/s | 0°C | 0% | 0hPa | 0V | 00:00:00 | 00:00:00 | 00:00:00 | |
| PG1ADW-2 | 2026-09-03 00:31:35 | 50.86009 | 17.63136 | 143° | 9km/h | 23851m | 6.4m/s | 0°C | 0% | 0hPa | 0V | 00:00:00 | 00:00:00 | 00:00:00 | |
| SQ6EMJ | 2026-09-03 00:31:34 | 50.86015 | 17.63129 | 144° | 15km/h | 23835m | 7.5m/s | 0°C | 0% | 0hPa | 0V | 00:00:00 | 00:00:00 | 00:00:00 | |
| SQ6EMJ | 2026-09-03 00:31:26 | 50.86024 | 17.63117 | 296° | 11km/h | 23774m | 1.7m/s | 0°C | 0% | 0hPa | 0V | 00:00:00 | 00:00:00 | 00:00:00 | |
| SP3BTT-10 | 2026-09-03 00:31:24 | 50.86022 | 17.63126 | 252° | 9km/h | 23769m | 4.1m/s | 0°C | 0% | 0hPa | 0V | 00:00:00 | 00:00:00 | 00:00:00 | |
| SQ6EMJ | 2026-09-03 00:31:20 | 50.86032 | 17.63130 | 222° | 9km/h | 23742m | 4.7m/s | 0°C | 0% | 0hPa | 0V | 00:00:00 | 00:00:00 | 00:00:00 | |
| PETON7-10 | 2026-09-03 00:31:19 | 50.86033 | 17.63132 | 232° | 11km/h | 23733m | 3.5m/s | 0°C | 0% | 0hPa | 0V | 00:00:00 | 00:00:00 | 00:00:00 | |
| SQ6EMJ | 2026-09-03 00:31:15 | 50.86031 | 17.63141 | 275° | 13km/h | 23708m | 3.7m/s | 0°C | 0% | 0hPa | 0V | 00:00:00 | 00:00:00 | 00:00:00 | |
| SQ6EMJ | 2026-09-03 00:31:09 | 50.86049 | 17.63149 | 221° | 11km/h | 23677m | 0.4m/s | 0°C | 0% | 0hPa | 0V | 00:00:00 | 00:00:00 | 00:00:00 | |
| SQ6EMJ | 2026-09-03 00:31:04 | 50.86050 | 17.63162 | 177° | 11km/h | 23664m | 4.8m/s | 0°C | 0% | 0hPa | 0V | 00:00:00 | 00:00:00 | 00:00:00 | |
| PETON7-10 | 2026-09-03 00:31:02 | 50.86056 | 17.63164 | 196° | 13km/h | 23651m | 5.7m/s | 0°C | 0% | 0hPa | 0V | 00:00:00 | 00:00:00 | 00:00:00 | |
| SQ6EMJ | 2026-09-03 00:30:58 | 50.86065 | 17.63164 | 343° | 5km/h | 23623m | 5.7m/s | 0°C | 0% | 0hPa | 0V | 00:00:00 | 00:00:00 | 00:00:00 | |
| SP3BTT-10 | 2026-09-03 00:30:54 | 50.86061 | 17.63167 | 158° | 13km/h | 23599m | 6.5m/s | 0°C | 0% | 0hPa | 0V | 00:00:00 | 00:00:00 | 00:00:00 | |
| SQ6EMJ | 2026-09-03 00:30:52 | 50.86069 | 17.63160 | 168° | 22km/h | 23580m | 4.6m/s | 0°C | 0% | 0hPa | 0V | 00:00:00 | 00:00:00 | 00:00:00 | |
| PETON7-10 | 2026-09-03 00:30:47 | 50.86075 | 17.63152 | 85° | 9km/h | 23564m | 0.4m/s | 0°C | 0% | 0hPa | 0V | 00:00:00 | 00:00:00 | 00:00:00 | |
| SQ6EMJ | 2026-09-03 00:30:45 | 50.86074 | 17.63155 | 186° | 4km/h | 23557m | 3.7m/s | 0°C | 0% | 0hPa | 0V | 00:00:00 | 00:00:00 | 00:00:00 | |
| SQ6EMJ | 2026-09-03 00:30:35 | 50.86084 | 17.63129 | 186° | 13km/h | 23500m | 5.0m/s | 0°C | 0% | 0hPa | 0V | 00:00:00 | 00:00:00 | 00:00:00 | |
| SQ6EMJ | 2026-09-03 00:30:30 | 50.86105 | 17.63108 | 141° | 16km/h | 23472m | 2.6m/s | 0°C | 0% | 0hPa | 0V | 00:00:00 | 00:00:00 | 00:00:00 | |
| SP4MAZ | 2026-09-03 00:30:29 | 50.86107 | 17.63106 | 162° | 5km/h | 23468m | 4.6m/s | 0°C | 0% | 0hPa | 0V | 00:00:00 | 00:00:00 | 00:00:00 | |
| SQ6EMJ | 2026-09-03 00:30:24 | 50.86107 | 17.63113 | 147° | 16km/h | 23448m | 3.8m/s | 0°C | 0% | 0hPa | 0V | 00:00:00 | 00:00:00 | 00:00:00 | |
| PETON7-10 | 2026-09-03 00:30:17 | 50.86116 | 17.63091 | 179° | 13km/h | 23414m | 4.7m/s | 0°C | 0% | 0hPa | 0V | 00:00:00 | 00:00:00 | 00:00:00 | |
| PG1ADW-2 | 2026-09-03 00:30:15 | 50.86125 | 17.63088 | 171° | 13km/h | 23404m | 3.1m/s | 0°C | 0% | 0hPa | 0V | 00:00:00 | 00:00:00 | 00:00:00 | |
| SQ6EMJ | 2026-09-03 00:30:11 | 50.86134 | 17.63075 | 108° | 20km/h | 23379m | 8.1m/s | 0°C | 0% | 0hPa | 0V | 00:00:00 | 00:00:00 | 00:00:00 | |
| SP3BTT-10 | 2026-09-03 00:30:08 | 50.86138 | 17.63060 | 150° | 16km/h | 23361m | 4.9m/s | 0°C | 0% | 0hPa | 0V | 00:00:00 | 00:00:00 | 00:00:00 | |
| SQ6EMJ | 2026-09-03 00:30:05 | 50.86145 | 17.63059 | 170° | 16km/h | 23344m | 6.2m/s | 0°C | 0% | 0hPa | 0V | 00:00:00 | 00:00:00 | 00:00:00 | |
| SQ6EMJ | 2026-09-03 00:30:00 | 50.86154 | 17.63045 | 68° | 15km/h | 23318m | 7.3m/s | 0°C | 0% | 0hPa | 0V | 00:00:00 | 00:00:00 | 00:00:00 | |
| PG1ADW-2 | 2026-09-03 00:29:53 | 50.86162 | 17.63028 | 153° | 13km/h | 23280m | 5.0m/s | 0°C | 0% | 0hPa | 0V | 00:00:00 | 00:00:00 | 00:00:00 | |
| SQ6EMJ | 2026-09-03 00:29:50 | 50.86171 | 17.63010 | 96° | 4km/h | 23265m | 6.4m/s | 0°C | 0% | 0hPa | 0V | 00:00:00 | 00:00:00 | 00:00:00 | |
| PETON7-10 | 2026-09-03 00:29:47 | 50.86173 | 17.63012 | 147° | 16km/h | 23251m | 5.0m/s | 0°C | 0% | 0hPa | 0V | 00:00:00 | 00:00:00 | 00:00:00 | |
| SQ6EMJ | 2026-09-03 00:29:43 | 50.86182 | 17.62999 | 175° | 13km/h | 23231m | 3.3m/s | 0°C | 0% | 0hPa | 0V | 00:00:00 | 00:00:00 | 00:00:00 | |
| SQ6EMJ | 2026-09-03 00:29:36 | 50.86203 | 17.62984 | 162° | 13km/h | 23190m | 2.4m/s | 0°C | 0% | 0hPa | 0V | 00:00:00 | 00:00:00 | 00:00:00 | |
| OE5DRO-10 | 2026-09-03 00:29:33 | 50.86228 | 17.62963 | 169° | 18km/h | 23172m | 5.5m/s | 0°C | 0% | 0hPa | 0V | 00:00:00 | 00:00:00 | 00:00:00 | |
| PETON7-10 | 2026-09-03 00:29:31 | 50.86228 | 17.62963 | 169° | 20km/h | 23172m | 5.5m/s | 0°C | 0% | 0hPa | 0V | 00:00:00 | 00:00:00 | 00:00:00 | |
| PG1ADW-2 | 2026-09-03 00:29:29 | 50.86237 | 17.62961 | 149° | 16km/h | 23163m | 6.4m/s | 0°C | 0% | 0hPa | 0V | 00:00:00 | 00:00:00 | 00:00:00 | |
| SQ6EMJ | 2026-09-03 00:29:28 | 50.86239 | 17.62958 | 123° | 13km/h | 23156m | 6.2m/s | 0°C | 0% | 0hPa | 0V | 00:00:00 | 00:00:00 | 00:00:00 | |
| SP3BTT-10 | 2026-09-03 00:29:23 | 50.86267 | 17.62938 | 176° | 16km/h | 23131m | 3.2m/s | 0°C | 0% | 0hPa | 0V | 00:00:00 | 00:00:00 | 00:00:00 | |
| SQ6EMJ | 2026-09-03 00:29:21 | 50.86260 | 17.62927 | 130° | 29km/h | 23120m | 6.2m/s | 0°C | 0% | 0hPa | 0V | 00:00:00 | 00:00:00 | 00:00:00 | |
| PETON7-10 | 2026-09-03 00:29:16 | 50.86263 | 17.62892 | 75° | 18km/h | 23093m | 3.4m/s | 0°C | 0% | 0hPa | 0V | 00:00:00 | 00:00:00 | 00:00:00 | |
| OE5DRO-10 | 2026-09-03 00:29:14 | 50.86269 | 17.62865 | 117° | 18km/h | 23078m | 4.6m/s | 0°C | 0% | 0hPa | 0V | 00:00:00 | 00:00:00 | 00:00:00 | |
| PG1ADW-2 | 2026-09-03 00:29:09 | 50.86276 | 17.62849 | 116° | 15km/h | 23059m | 6.5m/s | 0°C | 0% | 0hPa | 0V | 00:00:00 | 00:00:00 | 00:00:00 | |
| PETON7-10 | 2026-09-03 00:29:01 | 50.86292 | 17.62799 | 122° | 20km/h | 23015m | 3.5m/s | 0°C | 0% | 0hPa | 0V | 00:00:00 | 00:00:00 | 00:00:00 | |
| PETON7-10 | 2026-09-03 00:28:48 | 50.86309 | 17.62704 | 88° | 15km/h | 22946m | 5.6m/s | 0°C | 0% | 0hPa | 0V | 00:00:00 | 00:00:00 | 00:00:00 | |
| SP3BTT-10 | 2026-09-03 00:28:38 | 50.86315 | 17.62666 | 78° | 18km/h | 22893m | 3.0m/s | 0°C | 0% | 0hPa | 0V | 00:00:00 | 00:00:00 | 00:00:00 | |
| SP4MAZ | 2026-09-03 00:28:36 | 50.86314 | 17.62659 | 118° | 4km/h | 22883m | 4.3m/s | 0°C | 0% | 0hPa | 0V | 00:00:00 | 00:00:00 | 00:00:00 | |
| PETON7-10 | 2026-09-03 00:28:31 | 50.86320 | 17.62633 | 105° | 9km/h | 22855m | 5.3m/s | 0°C | 0% | 0hPa | 0V | 00:00:00 | 00:00:00 | 00:00:00 | |
| SQ6EMJ | 2026-09-03 00:28:28 | 50.86320 | 17.62628 | 61° | 9km/h | 22827m | 4.7m/s | 0°C | 0% | 0hPa | 0V | 00:00:00 | 00:00:00 | 00:00:00 | |
| OE5DRO-10 | 2026-09-03 00:28:23 | 50.86332 | 17.62604 | 70° | 16km/h | 22798m | 5.9m/s | 0°C | 0% | 0hPa | 0V | 00:00:00 | 00:00:00 | 00:00:00 | |
| SQ6EMJ | 2026-09-03 00:28:18 | 50.86330 | 17.62602 | 251° | 11km/h | 22783m | -0.2m/s | 0°C | 0% | 0hPa | 0V | 00:00:00 | 00:00:00 | 00:00:00 | |
| PETON7-10 | 2026-09-03 00:28:16 | 50.86331 | 17.62604 | 131° | 16km/h | 22779m | 5.3m/s | 0°C | 0% | 0hPa | 0V | 00:00:00 | 00:00:00 | 00:00:00 | |
| SQ6EMJ | 2026-09-03 00:28:05 | 50.86355 | 17.62573 | 143° | 20km/h | 22718m | 4.9m/s | 0°C | 0% | 0hPa | 0V | 00:00:00 | 00:00:00 | 00:00:00 | |
| PETON7-10 | 2026-09-03 00:28:00 | 50.86369 | 17.62544 | 153° | 18km/h | 22694m | 4.5m/s | 0°C | 0% | 0hPa | 0V | 00:00:00 | 00:00:00 | 00:00:00 | |
| PG1ADW-2 | 2026-09-03 00:27:56 | 50.86373 | 17.62526 | 131° | 24km/h | 22672m | 6.2m/s | 0°C | 0% | 0hPa | 0V | 00:00:00 | 00:00:00 | 00:00:00 | |
| PETON7-10 | 2026-09-03 00:27:44 | 50.86393 | 17.62445 | 122° | 20km/h | 22602m | 6.7m/s | 0°C | 0% | 0hPa | 0V | 00:00:00 | 00:00:00 | 00:00:00 | |
| SP3BTT-10 | 2026-09-03 00:27:37 | 50.86401 | 17.62389 | 112° | 18km/h | 22546m | 1.7m/s | 0°C | 0% | 0hPa | 0V | 00:00:00 | 00:00:00 | 00:00:00 | |
| PG1ADW-2 | 2026-09-03 00:27:36 | 50.86402 | 17.62382 | 98° | 20km/h | 22542m | 0.0m/s | 0°C | 0% | 0hPa | 0V | 00:00:00 | 00:00:00 | 00:00:00 | |
| SQ6EMJ | 2026-09-03 00:27:33 | 50.86399 | 17.62355 | 94° | 15km/h | 22556m | 2.9m/s | 0°C | 0% | 0hPa | 0V | 00:00:00 | 00:00:00 | 00:00:00 | |
| PETON7-10 | 2026-09-03 00:27:29 | 50.86397 | 17.62333 | 72° | 22km/h | 22534m | 4.0m/s | 0°C | 0% | 0hPa | 0V | 00:00:00 | 00:00:00 | 00:00:00 | |
| OE5DRO-10 | 2026-09-03 00:27:27 | 50.86392 | 17.62291 | 46° | 24km/h | 22506m | 4.9m/s | 0°C | 0% | 0hPa | 0V | 00:00:00 | 00:00:00 | 00:00:00 | |
| PG1ADW-2 | 2026-09-03 00:27:15 | 50.86387 | 17.62218 | 61° | 22km/h | 22447m | 7.4m/s | 0°C | 0% | 0hPa | 0V | 00:00:00 | 00:00:00 | 00:00:00 | |
| PETON7-10 | 2026-09-03 00:27:13 | 50.86381 | 17.62208 | 42° | 22km/h | 22429m | 4.4m/s | 0°C | 0% | 0hPa | 0V | 00:00:00 | 00:00:00 | 00:00:00 | |
| OE5DRO-10 | 2026-09-03 00:27:08 | 50.86370 | 17.62143 | 64° | 18km/h | 22374m | 4.9m/s | 0°C | 0% | 0hPa | 0V | 00:00:00 | 00:00:00 | 00:00:00 | |
| SP4MAZ | 2026-09-03 00:27:04 | 50.86369 | 17.62134 | 58° | 7km/h | 22362m | 0.2m/s | 0°C | 0% | 0hPa | 0V | 00:00:00 | 00:00:00 | 00:00:00 | |
| PETON7-10 | 2026-09-03 00:26:58 | 50.86351 | 17.62102 | 76° | 20km/h | 22360m | 3.3m/s | 0°C | 0% | 0hPa | 0V | 00:00:00 | 00:00:00 | 00:00:00 | |
| PG1ADW-2 | 2026-09-03 00:26:51 | 50.86329 | 17.62061 | 61° | 20km/h | 22324m | 6.0m/s | 0°C | 0% | 0hPa | 0V | 00:00:00 | 00:00:00 | 00:00:00 | |
| OE5DRO-10 | 2026-09-03 00:26:46 | 50.86321 | 17.62014 | 55° | 15km/h | 22284m | 4.5m/s | 0°C | 0% | 0hPa | 0V | 00:00:00 | 00:00:00 | 00:00:00 | |
| PETON7-10 | 2026-09-03 00:26:43 | 50.86318 | 17.62008 | 41° | 16km/h | 22278m | 4.9m/s | 0°C | 0% | 0hPa | 0V | 00:00:00 | 00:00:00 | 00:00:00 | |
| SP3BTT-10 | 2026-09-03 00:26:37 | 50.86311 | 17.61968 | 158° | 9km/h | 22245m | 6.0m/s | 0°C | 0% | 0hPa | 0V | 00:00:00 | 00:00:00 | 00:00:00 | |
| PETON7-10 | 2026-09-03 00:26:28 | 50.86318 | 17.61917 | 88° | 9km/h | 22205m | 6.0m/s | 0°C | 0% | 0hPa | 0V | 00:00:00 | 00:00:00 | 00:00:00 | |
| OE5DRO-10 | 2026-09-03 00:26:27 | 50.86317 | 17.61911 | 53° | 16km/h | 22195m | 6.6m/s | 0°C | 0% | 0hPa | 0V | 00:00:00 | 00:00:00 | 00:00:00 | |
| PG1ADW-2 | 2026-09-03 00:26:26 | 50.86317 | 17.61911 | 53° | 11km/h | 22195m | 6.6m/s | 0°C | 0% | 0hPa | 0V | 00:00:00 | 00:00:00 | 00:00:00 | |
| PETON7-10 | 2026-09-03 00:26:12 | 50.86314 | 17.61871 | 86° | 13km/h | 22111m | 7.2m/s | 0°C | 0% | 0hPa | 0V | 00:00:00 | 00:00:00 | 00:00:00 | |
| PG1ADW-2 | 2026-09-03 00:26:06 | 50.86322 | 17.61837 | 237° | 11km/h | 22053m | 2.9m/s | 0°C | 0% | 0hPa | 0V | 00:00:00 | 00:00:00 | 00:00:00 | |
| OE5DRO-10 | 2026-09-03 00:26:05 | 50.86317 | 17.61829 | 57° | 11km/h | 22049m | 3.9m/s | 0°C | 0% | 0hPa | 0V | 00:00:00 | 00:00:00 | 00:00:00 | |
| PETON7-10 | 2026-09-03 00:25:56 | 50.86314 | 17.61827 | 241° | 11km/h | 22029m | 5.1m/s | 0°C | 0% | 0hPa | 0V | 00:00:00 | 00:00:00 | 00:00:00 | |
| PG1ADW-2 | 2026-09-03 00:25:45 | 50.86307 | 17.61803 | 73° | 9km/h | 21972m | 5.2m/s | 0°C | 0% | 0hPa | 0V | 00:00:00 | 00:00:00 | 00:00:00 | |
| PETON7-10 | 2026-09-03 00:25:40 | 50.86303 | 17.61805 | 286° | 7km/h | 21947m | 6.1m/s | 0°C | 0% | 0hPa | 0V | 00:00:00 | 00:00:00 | 00:00:00 | |
| OE5DRO-10 | 2026-09-03 00:25:39 | 50.86304 | 17.61806 | 16° | 7km/h | 21920m | 5.5m/s | 0°C | 0% | 0hPa | 0V | 00:00:00 | 00:00:00 | 00:00:00 | |
| PETON7-10 | 2026-09-03 00:25:25 | 50.86303 | 17.61819 | 311° | 9km/h | 21858m | 3.7m/s | 0°C | 0% | 0hPa | 0V | 00:00:00 | 00:00:00 | 00:00:00 | |
| SP3BTT-10 | 2026-09-03 00:25:22 | 50.86304 | 17.61830 | 244° | 15km/h | 21849m | 3.8m/s | 0°C | 0% | 0hPa | 0V | 00:00:00 | 00:00:00 | 00:00:00 | |
| OE5DRO-10 | 2026-09-03 00:25:20 | 50.86309 | 17.61829 | 117° | 11km/h | 21824m | 6.4m/s | 0°C | 0% | 0hPa | 0V | 00:00:00 | 00:00:00 | 00:00:00 | |
| PETON7-10 | 2026-09-03 00:25:10 | 50.86316 | 17.61832 | 173° | 13km/h | 21783m | 4.6m/s | 0°C | 0% | 0hPa | 0V | 00:00:00 | 00:00:00 | 00:00:00 | |
| OE5DRO-10 | 2026-09-03 00:24:57 | 50.86332 | 17.61791 | 125° | 15km/h | 21695m | 6.8m/s | 0°C | 0% | 0hPa | 0V | 00:00:00 | 00:00:00 | 00:00:00 | |
| PETON7-10 | 2026-09-03 00:24:54 | 50.86332 | 17.61791 | 125° | 15km/h | 21695m | 6.8m/s | 0°C | 0% | 0hPa | 0V | 00:00:00 | 00:00:00 | 00:00:00 | |
| PG1ADW-2 | 2026-09-03 00:24:43 | 50.86358 | 17.61737 | 121° | 22km/h | 21632m | 7.0m/s | 0°C | 0% | 0hPa | 0V | 00:00:00 | 00:00:00 | 00:00:00 | |
| PETON7-10 | 2026-09-03 00:24:38 | 50.86366 | 17.61716 | 114° | 18km/h | 21609m | 4.3m/s | 0°C | 0% | 0hPa | 0V | 00:00:00 | 00:00:00 | 00:00:00 | |
| SP3BTT-10 | 2026-09-03 00:24:36 | 50.86368 | 17.61704 | 114° | 15km/h | 21600m | 4.4m/s | 0°C | 0% | 0hPa | 0V | 00:00:00 | 00:00:00 | 00:00:00 | |
| PETON7-10 | 2026-09-03 00:24:23 | 50.86404 | 17.61631 | 140° | 27km/h | 21540m | 5.2m/s | 0°C | 0% | 0hPa | 0V | 00:00:00 | 00:00:00 | 00:00:00 | |
| OE5DRO-10 | 2026-09-03 00:24:17 | 50.86433 | 17.61562 | 113° | 26km/h | 21523m | 13.5m/s | 0°C | 0% | 0hPa | 0V | 00:00:00 | 00:00:00 | 00:00:00 | |
| PG1ADW-2 | 2026-09-03 00:24:13 | 50.86436 | 17.61553 | 109° | 26km/h | 21516m | 18.6m/s | 0°C | 0% | 0hPa | 0V | 00:00:00 | 00:00:00 | 00:00:00 | |
| SQ6EMJ | 2026-09-03 00:24:12 | 50.86439 | 17.61540 | 113° | 33km/h | 21494m | 13.5m/s | 0°C | 0% | 0hPa | 0V | 00:00:00 | 00:00:00 | 00:00:00 | |
| PETON7-10 | 2026-09-03 00:24:07 | 50.86453 | 17.61492 | 131° | 24km/h | 21434m | 5.1m/s | 0°C | 0% | 0hPa | 0V | 00:00:00 | 00:00:00 | 00:00:00 | |
| SQ6EMJ | 2026-09-03 00:24:05 | 50.86460 | 17.61473 | 112° | 26km/h | 21423m | 5.9m/s | 0°C | 0% | 0hPa | 0V | 00:00:00 | 00:00:00 | 00:00:00 | |
| OE5DRO-10 | 2026-09-03 00:23:57 | 50.86482 | 17.61379 | 97° | 24km/h | 21368m | 6.2m/s | 0°C | 0% | 0hPa | 0V | 00:00:00 | 00:00:00 | 00:00:00 | |
| PETON7-10 | 2026-09-03 00:23:52 | 50.86482 | 17.61359 | 85° | 20km/h | 21359m | 4.1m/s | 0°C | 0% | 0hPa | 0V | 00:00:00 | 00:00:00 | 00:00:00 | |
| SQ6EMJ | 2026-09-03 00:23:48 | 50.86491 | 17.61327 | 109° | 16km/h | 21335m | 6.3m/s | 0°C | 0% | 0hPa | 0V | 00:00:00 | 00:00:00 | 00:00:00 | |
| SQ6EMJ | 2026-09-03 00:23:43 | 50.86494 | 17.61282 | 77° | 24km/h | 21300m | 5.7m/s | 0°C | 0% | 0hPa | 0V | 00:00:00 | 00:00:00 | 00:00:00 | |
| PETON7-10 | 2026-09-03 00:23:36 | 50.86491 | 17.61238 | 74° | 15km/h | 21270m | 5.4m/s | 0°C | 0% | 0hPa | 0V | 00:00:00 | 00:00:00 | 00:00:00 | |
| SQ6EMJ | 2026-09-03 00:23:35 | 50.86490 | 17.61223 | 85° | 20km/h | 21259m | 4.3m/s | 0°C | 0% | 0hPa | 0V | 00:00:00 | 00:00:00 | 00:00:00 | |
| SQ6EMJ | 2026-09-03 00:23:22 | 50.86474 | 17.61164 | 125° | 11km/h | 21189m | 6.1m/s | 0°C | 0% | 0hPa | 0V | 00:00:00 | 00:00:00 | 00:00:00 | |
| PETON7-10 | 2026-09-03 00:23:21 | 50.86475 | 17.61160 | 110° | 15km/h | 21184m | 5.4m/s | 0°C | 0% | 0hPa | 0V | 00:00:00 | 00:00:00 | 00:00:00 | |
| SP4MAZ | 2026-09-03 00:23:15 | 50.86472 | 17.61145 | 78° | 13km/h | 21158m | 5.8m/s | 0°C | 0% | 0hPa | 0V | 00:00:00 | 00:00:00 | 00:00:00 | |
| SQ6EMJ | 2026-09-03 00:23:07 | 50.86482 | 17.61090 | 58° | 20km/h | 21120m | 3.3m/s | 0°C | 0% | 0hPa | 0V | 00:00:00 | 00:00:00 | 00:00:00 | |
| PETON7-10 | 2026-09-03 00:23:06 | 50.86482 | 17.61090 | 58° | 15km/h | 21120m | 3.2m/s | 0°C | 0% | 0hPa | 0V | 00:00:00 | 00:00:00 | 00:00:00 | |
| SQ6EMJ | 2026-09-03 00:23:02 | 50.86488 | 17.61058 | 129° | 20km/h | 21104m | 10.6m/s | 0°C | 0% | 0hPa | 0V | 00:00:00 | 00:00:00 | 00:00:00 | |
| SP4MAZ | 2026-09-03 00:22:55 | 50.86493 | 17.61029 | 81° | 18km/h | 21049m | 5.8m/s | 0°C | 0% | 0hPa | 0V | 00:00:00 | 00:00:00 | 00:00:00 | |
| SQ6EMJ | 2026-09-03 00:22:53 | 50.86495 | 17.61014 | 105° | 15km/h | 21039m | 5.6m/s | 0°C | 0% | 0hPa | 0V | 00:00:00 | 00:00:00 | 00:00:00 | |
| OE5DRO-10 | 2026-09-03 00:22:51 | 50.86504 | 17.60995 | 100° | 16km/h | 21018m | 3.9m/s | 0°C | 0% | 0hPa | 0V | 00:00:00 | 00:00:00 | 00:00:00 | |
| SQ6EMJ | 2026-09-03 00:22:48 | 50.86505 | 17.60987 | 98° | 18km/h | 21013m | 4.3m/s | 0°C | 0% | 0hPa | 0V | 00:00:00 | 00:00:00 | 00:00:00 | |
| SQ6EMJ | 2026-09-03 00:22:41 | 50.86515 | 17.60944 | 174° | 7km/h | 20980m | 3.3m/s | 0°C | 0% | 0hPa | 0V | 00:00:00 | 00:00:00 | 00:00:00 | |
| PETON7-10 | 2026-09-03 00:22:36 | 50.86530 | 17.60921 | 121° | 18km/h | 20952m | 5.5m/s | 0°C | 0% | 0hPa | 0V | 00:00:00 | 00:00:00 | 00:00:00 | |
| OE5DRO-10 | 2026-09-03 00:22:31 | 50.86537 | 17.60902 | 185° | 18km/h | 20930m | 3.7m/s | 0°C | 0% | 0hPa | 0V | 00:00:00 | 00:00:00 | 00:00:00 | |
| SQ6EMJ | 2026-09-03 00:22:30 | 50.86540 | 17.60902 | 177° | 13km/h | 20927m | 5.5m/s | 0°C | 0% | 0hPa | 0V | 00:00:00 | 00:00:00 | 00:00:00 | |
| SQ6EMJ | 2026-09-03 00:22:24 | 50.86564 | 17.60877 | 149° | 20km/h | 20893m | 5.5m/s | 0°C | 0% | 0hPa | 0V | 00:00:00 | 00:00:00 | 00:00:00 | |
| PETON7-10 | 2026-09-03 00:22:20 | 50.86575 | 17.60858 | 170° | 16km/h | 20874m | 6.9m/s | 0°C | 0% | 0hPa | 0V | 00:00:00 | 00:00:00 | 00:00:00 | |
| SQ6EMJ | 2026-09-03 00:22:18 | 50.86583 | 17.60855 | 158° | 15km/h | 20864m | 4.4m/s | 0°C | 0% | 0hPa | 0V | 00:00:00 | 00:00:00 | 00:00:00 | |
| SQ6EMJ | 2026-09-03 00:22:13 | 50.86604 | 17.60826 | 135° | 20km/h | 20831m | 6.1m/s | 0°C | 0% | 0hPa | 0V | 00:00:00 | 00:00:00 | 00:00:00 | |
| OE5DRO-10 | 2026-09-03 00:22:09 | 50.86618 | 17.60809 | 153° | 20km/h | 20812m | 4.5m/s | 0°C | 0% | 0hPa | 0V | 00:00:00 | 00:00:00 | 00:00:00 | |
| SQ6EMJ | 2026-09-03 00:22:07 | 50.86621 | 17.60806 | 124° | 16km/h | 20807m | 5.8m/s | 0°C | 0% | 0hPa | 0V | 00:00:00 | 00:00:00 | 00:00:00 | |
| SP3BTT-10 | 2026-09-03 00:22:06 | 50.86622 | 17.60800 | 115° | 31km/h | 20801m | 5.4m/s | 0°C | 0% | 0hPa | 0V | 00:00:00 | 00:00:00 | 00:00:00 | |
| PETON7-10 | 2026-09-03 00:22:05 | 50.86623 | 17.60793 | 101° | 18km/h | 20797m | 4.9m/s | 0°C | 0% | 0hPa | 0V | 00:00:00 | 00:00:00 | 00:00:00 | |
| SQ6EMJ | 2026-09-03 00:22:01 | 50.86632 | 17.60776 | 139° | 22km/h | 20774m | 7.1m/s | 0°C | 0% | 0hPa | 0V | 00:00:00 | 00:00:00 | 00:00:00 | |
| SQ6EMJ | 2026-09-03 00:21:56 | 50.86646 | 17.60745 | 105° | 18km/h | 20753m | 8.1m/s | 0°C | 0% | 0hPa | 0V | 00:00:00 | 00:00:00 | 00:00:00 | |
| PETON7-10 | 2026-09-03 00:21:50 | 50.86653 | 17.60703 | 118° | 26km/h | 20718m | 6.2m/s | 0°C | 0% | 0hPa | 0V | 00:00:00 | 00:00:00 | 00:00:00 | |
| SQ6EMJ | 2026-09-03 00:21:45 | 50.86665 | 17.60661 | 107° | 27km/h | 20696m | 5.9m/s | 0°C | 0% | 0hPa | 0V | 00:00:00 | 00:00:00 | 00:00:00 | |
| SQ6EMJ | 2026-09-03 00:21:39 | 50.86688 | 17.60608 | 132° | 27km/h | 20670m | 5.6m/s | 0°C | 0% | 0hPa | 0V | 00:00:00 | 00:00:00 | 00:00:00 | |
| PETON7-10 | 2026-09-03 00:21:34 | 50.86706 | 17.60569 | 122° | 37km/h | 20647m | 7.0m/s | 0°C | 0% | 0hPa | 0V | 00:00:00 | 00:00:00 | 00:00:00 | |
| SQ6EMJ | 2026-09-03 00:21:33 | 50.86712 | 17.60557 | 126° | 40km/h | 20641m | 4.7m/s | 0°C | 0% | 0hPa | 0V | 00:00:00 | 00:00:00 | 00:00:00 | |
| SQ6EMJ | 2026-09-03 00:21:27 | 50.86743 | 17.60495 | 118° | 37km/h | 20608m | 6.7m/s | 0°C | 0% | 0hPa | 0V | 00:00:00 | 00:00:00 | 00:00:00 | |
| SQ6EMJ | 2026-09-03 00:21:21 | 50.86771 | 17.60416 | 136° | 38km/h | 20572m | 4.2m/s | 0°C | 0% | 0hPa | 0V | 00:00:00 | 00:00:00 | 00:00:00 | |
| SP3BTT-10 | 2026-09-03 00:21:20 | 50.86777 | 17.60405 | 133° | 27km/h | 20567m | 4.0m/s | 0°C | 0% | 0hPa | 0V | 00:00:00 | 00:00:00 | 00:00:00 | |
| PETON7-10 | 2026-09-03 00:21:19 | 50.86782 | 17.60395 | 122° | 38km/h | 20563m | 4.1m/s | 0°C | 0% | 0hPa | 0V | 00:00:00 | 00:00:00 | 00:00:00 | |
| SQ6EMJ | 2026-09-03 00:21:08 | 50.86821 | 17.60243 | 108° | 33km/h | 20522m | 4.8m/s | 0°C | 0% | 0hPa | 0V | 00:00:00 | 00:00:00 | 00:00:00 | |
| PETON7-10 | 2026-09-03 00:21:04 | 50.86828 | 17.60183 | 102° | 29km/h | 20505m | 7.8m/s | 0°C | 0% | 0hPa | 0V | 00:00:00 | 00:00:00 | 00:00:00 | |
| SQ6EMJ | 2026-09-03 00:21:02 | 50.86833 | 17.60160 | 108° | 35km/h | 20493m | 7.0m/s | 0°C | 0% | 0hPa | 0V | 00:00:00 | 00:00:00 | 00:00:00 | |
| SP4MAZ | 2026-09-03 00:21:01 | 50.86835 | 17.60147 | 104° | 35km/h | 20488m | 6.4m/s | 0°C | 0% | 0hPa | 0V | 00:00:00 | 00:00:00 | 00:00:00 | |
| OE5DRO-10 | 2026-09-03 00:21:00 | 50.86837 | 17.60133 | 108° | 27km/h | 20480m | 3.2m/s | 0°C | 0% | 0hPa | 0V | 00:00:00 | 00:00:00 | 00:00:00 | |
| SQ6EMJ | 2026-09-03 00:20:57 | 50.86845 | 17.60099 | 101° | 27km/h | 20465m | 5.3m/s | 0°C | 0% | 0hPa | 0V | 00:00:00 | 00:00:00 | 00:00:00 | |
| SQ6EMJ | 2026-09-03 00:20:51 | 50.86853 | 17.60030 | 118° | 24km/h | 20432m | 5.5m/s | 0°C | 0% | 0hPa | 0V | 00:00:00 | 00:00:00 | 00:00:00 | |
| PETON7-10 | 2026-09-03 00:20:49 | 50.86855 | 17.60010 | 94° | 24km/h | 20419m | 4.9m/s | 0°C | 0% | 0hPa | 0V | 00:00:00 | 00:00:00 | 00:00:00 | |
| SQ6EMJ | 2026-09-03 00:20:46 | 50.86855 | 17.59973 | 91° | 35km/h | 20400m | 4.2m/s | 0°C | 0% | 0hPa | 0V | 00:00:00 | 00:00:00 | 00:00:00 | |
| OE5DRO-10 | 2026-09-03 00:20:40 | 50.86851 | 17.59932 | 104° | 24km/h | 20375m | 6.9m/s | 0°C | 0% | 0hPa | 0V | 00:00:00 | 00:00:00 | 00:00:00 | |
| SQ6EMJ | 2026-09-03 00:20:39 | 50.86853 | 17.59923 | 104° | 29km/h | 20370m | 6.2m/s | 0°C | 0% | 0hPa | 0V | 00:00:00 | 00:00:00 | 00:00:00 | |
| SP3BTT-10 | 2026-09-03 00:20:35 | 50.86849 | 17.59878 | 63° | 18km/h | 20353m | 3.6m/s | 0°C | 0% | 0hPa | 0V | 00:00:00 | 00:00:00 | 00:00:00 | |
| PETON7-10 | 2026-09-03 00:20:34 | 50.86847 | 17.59868 | 79° | 18km/h | 20346m | 4.7m/s | 0°C | 0% | 0hPa | 0V | 00:00:00 | 00:00:00 | 00:00:00 | |
| SQ6EMJ | 2026-09-03 00:20:33 | 50.86845 | 17.59857 | 73° | 24km/h | 20340m | 2.4m/s | 0°C | 0% | 0hPa | 0V | 00:00:00 | 00:00:00 | 00:00:00 | |
| SQ6EMJ | 2026-09-03 00:20:27 | 50.86838 | 17.59814 | 90° | 24km/h | 20306m | 7.4m/s | 0°C | 0% | 0hPa | 0V | 00:00:00 | 00:00:00 | 00:00:00 | |
| SQ6EMJ | 2026-09-03 00:20:22 | 50.86835 | 17.59782 | 85° | 20km/h | 20280m | 3.2m/s | 0°C | 0% | 0hPa | 0V | 00:00:00 | 00:00:00 | 00:00:00 | |
| OE5DRO-10 | 2026-09-03 00:20:21 | 50.86835 | 17.59773 | 81° | 18km/h | 20277m | 2.6m/s | 0°C | 0% | 0hPa | 0V | 00:00:00 | 00:00:00 | 00:00:00 | |
| PETON7-10 | 2026-09-03 00:20:18 | 50.86828 | 17.59763 | 22° | 16km/h | 20264m | 4.7m/s | 0°C | 0% | 0hPa | 0V | 00:00:00 | 00:00:00 | 00:00:00 | |
| SQ6EMJ | 2026-09-03 00:20:10 | 50.86807 | 17.59719 | 31° | 15km/h | 20223m | 6.5m/s | 0°C | 0% | 0hPa | 0V | 00:00:00 | 00:00:00 | 00:00:00 | |
| SQ6EMJ | 2026-09-03 00:20:05 | 50.86808 | 17.59694 | 88° | 26km/h | 20196m | 3.9m/s | 0°C | 0% | 0hPa | 0V | 00:00:00 | 00:00:00 | 00:00:00 | |
| PETON7-10 | 2026-09-03 00:20:02 | 50.86801 | 17.59672 | 45° | 13km/h | 20182m | 0.5m/s | 0°C | 0% | 0hPa | 0V | 00:00:00 | 00:00:00 | 00:00:00 | |
| SQ6EMJ | 2026-09-03 00:19:59 | 50.86797 | 17.59658 | 104° | 15km/h | 20169m | 4.1m/s | 0°C | 0% | 0hPa | 0V | 00:00:00 | 00:00:00 | 00:00:00 | |
| SQ6EMJ | 2026-09-03 00:19:54 | 50.86795 | 17.59642 | 78° | 26km/h | 20145m | 4.8m/s | 0°C | 0% | 0hPa | 0V | 00:00:00 | 00:00:00 | 00:00:00 | |
| SQ6EMJ | 2026-09-03 00:19:49 | 50.86795 | 17.59596 | 113° | 11km/h | 20123m | 6.4m/s | 0°C | 0% | 0hPa | 0V | 00:00:00 | 00:00:00 | 00:00:00 | |
| PETON7-10 | 2026-09-03 00:19:45 | 50.86800 | 17.59581 | 44° | 15km/h | 20101m | 6.3m/s | 0°C | 0% | 0hPa | 0V | 00:00:00 | 00:00:00 | 00:00:00 | |
| SQ6EMJ | 2026-09-03 00:19:44 | 50.86799 | 17.59577 | 58° | 18km/h | 20094m | 5.7m/s | 0°C | 0% | 0hPa | 0V | 00:00:00 | 00:00:00 | 00:00:00 | |
| OE5DRO-10 | 2026-09-03 00:19:39 | 50.86793 | 17.59556 | 132° | 15km/h | 20072m | 4.7m/s | 0°C | 0% | 0hPa | 0V | 00:00:00 | 00:00:00 | 00:00:00 | |
| SQ6EMJ | 2026-09-03 00:19:38 | 50.86795 | 17.59551 | 129° | 22km/h | 20067m | 5.0m/s | 0°C | 0% | 0hPa | 0V | 00:00:00 | 00:00:00 | 00:00:00 | |
| SQ6EMJ | 2026-09-03 00:19:32 | 50.86792 | 17.59510 | 79° | 13km/h | 20038m | 6.4m/s | 0°C | 0% | 0hPa | 0V | 00:00:00 | 00:00:00 | 00:00:00 | |
| PETON7-10 | 2026-09-03 00:19:27 | 50.86793 | 17.59480 | 65° | 13km/h | 20009m | 5.2m/s | 0°C | 0% | 0hPa | 0V | 00:00:00 | 00:00:00 | 00:00:00 | |
| SQ6EMJ | 2026-09-03 00:19:26 | 50.86791 | 17.59474 | 64° | 20km/h | 20003m | 7.0m/s | 0°C | 0% | 0hPa | 0V | 00:00:00 | 00:00:00 | 00:00:00 | |
| SP3BTT-10 | 2026-09-03 00:19:20 | 50.86788 | 17.59433 | 92° | 22km/h | 19973m | 3.8m/s | 0°C | 0% | 0hPa | 0V | 00:00:00 | 00:00:00 | 00:00:00 | |
| SQ6EMJ | 2026-09-03 00:19:15 | 50.86788 | 17.59383 | 60° | 13km/h | 19940m | 3.3m/s | 0°C | 0% | 0hPa | 0V | 00:00:00 | 00:00:00 | 00:00:00 | |
| PETON7-10 | 2026-09-03 00:19:10 | 50.86785 | 17.59357 | 77° | 20km/h | 19915m | 3.1m/s | 0°C | 0% | 0hPa | 0V | 00:00:00 | 00:00:00 | 00:00:00 | |
| SQ6EMJ | 2026-09-03 00:19:03 | 50.86784 | 17.59316 | 82° | 16km/h | 19890m | 3.0m/s | 0°C | 0% | 0hPa | 0V | 00:00:00 | 00:00:00 | 00:00:00 | |
| OE5DRO-10 | 2026-09-03 00:19:01 | 50.86779 | 17.59296 | 65° | 22km/h | 19885m | 4.9m/s | 0°C | 0% | 0hPa | 0V | 00:00:00 | 00:00:00 | 00:00:00 | |
| SQ6EMJ | 2026-09-03 00:18:55 | 50.86782 | 17.59252 | 113° | 22km/h | 19845m | 4.3m/s | 0°C | 0% | 0hPa | 0V | 00:00:00 | 00:00:00 | 00:00:00 | |
| PETON7-10 | 2026-09-03 00:18:54 | 50.86784 | 17.59244 | 101° | 18km/h | 19839m | 5.7m/s | 0°C | 0% | 0hPa | 0V | 00:00:00 | 00:00:00 | 00:00:00 | |
| SQ6EMJ | 2026-09-03 00:18:50 | 50.86780 | 17.59206 | 70° | 29km/h | 19820m | 2.2m/s | 0°C | 0% | 0hPa | 0V | 00:00:00 | 00:00:00 | 00:00:00 | |
| SQ6EMJ | 2026-09-03 00:18:43 | 50.86775 | 17.59153 | 113° | 26km/h | 19783m | 5.4m/s | 0°C | 0% | 0hPa | 0V | 00:00:00 | 00:00:00 | 00:00:00 | |
| PETON7-10 | 2026-09-03 00:18:39 | 50.86777 | 17.59127 | 60° | 18km/h | 19766m | 4.5m/s | 0°C | 0% | 0hPa | 0V | 00:00:00 | 00:00:00 | 00:00:00 | |
| SQ6EMJ | 2026-09-03 00:18:38 | 50.86769 | 17.59112 | 40° | 22km/h | 19760m | 3.2m/s | 0°C | 0% | 0hPa | 0V | 00:00:00 | 00:00:00 | 00:00:00 | |
| OE5DRO-10 | 2026-09-03 00:18:36 | 50.86767 | 17.59107 | 63° | 20km/h | 19758m | 7.2m/s | 0°C | 0% | 0hPa | 0V | 00:00:00 | 00:00:00 | 00:00:00 | |
| SP3BTT-10 | 2026-09-03 00:18:35 | 50.86767 | 17.59104 | 173° | 29km/h | 19750m | 6.6m/s | 0°C | 0% | 0hPa | 0V | 00:00:00 | 00:00:00 | 00:00:00 | |
| SQ6EMJ | 2026-09-03 00:18:32 | 50.86774 | 17.59086 | 110° | 24km/h | 19732m | 4.6m/s | 0°C | 0% | 0hPa | 0V | 00:00:00 | 00:00:00 | 00:00:00 | |
| PETON7-10 | 2026-09-03 00:18:24 | 50.86768 | 17.59035 | 96° | 18km/h | 19695m | 5.8m/s | 0°C | 0% | 0hPa | 0V | 00:00:00 | 00:00:00 | 00:00:00 | |
| SQ6EMJ | 2026-09-03 00:18:21 | 50.86777 | 17.59029 | 156° | 26km/h | 19675m | 5.3m/s | 0°C | 0% | 0hPa | 0V | 00:00:00 | 00:00:00 | 00:00:00 | |
| SQ6EMJ | 2026-09-03 00:18:15 | 50.86777 | 17.58992 | 68° | 22km/h | 19648m | 3.3m/s | 0°C | 0% | 0hPa | 0V | 00:00:00 | 00:00:00 | 00:00:00 | |
| PETON7-10 | 2026-09-03 00:18:09 | 50.86792 | 17.58958 | 120° | 18km/h | 19627m | 5.2m/s | 0°C | 0% | 0hPa | 0V | 00:00:00 | 00:00:00 | 00:00:00 | |
| SQ6EMJ | 2026-09-03 00:18:04 | 50.86796 | 17.58922 | 113° | 15km/h | 19598m | 5.3m/s | 0°C | 0% | 0hPa | 0V | 00:00:00 | 00:00:00 | 00:00:00 | |
| SQ6EMJ | 2026-09-03 00:17:59 | 50.86812 | 17.58894 | 130° | 16km/h | 19564m | 5.4m/s | 0°C | 0% | 0hPa | 0V | 00:00:00 | 00:00:00 | 00:00:00 | |
| PETON7-10 | 2026-09-03 00:17:54 | 50.86825 | 17.58856 | 114° | 29km/h | 19538m | 2.2m/s | 0°C | 0% | 0hPa | 0V | 00:00:00 | 00:00:00 | 00:00:00 | |
| SQ6EMJ | 2026-09-03 00:17:53 | 50.86827 | 17.58848 | 124° | 24km/h | 19533m | 7.4m/s | 0°C | 0% | 0hPa | 0V | 00:00:00 | 00:00:00 | 00:00:00 | |
| OE5DRO-10 | 2026-09-03 00:17:50 | 50.86845 | 17.58819 | 126° | 33km/h | 19511m | 4.8m/s | 0°C | 0% | 0hPa | 0V | 00:00:00 | 00:00:00 | 00:00:00 | |
| SQ6EMJ | 2026-09-03 00:17:48 | 50.86848 | 17.58811 | 114° | 24km/h | 19506m | 5.1m/s | 0°C | 0% | 0hPa | 0V | 00:00:00 | 00:00:00 | 00:00:00 | |
| SQ6EMJ | 2026-09-03 00:17:42 | 50.86866 | 17.58744 | 113° | 37km/h | 19476m | 5.2m/s | 0°C | 0% | 0hPa | 0V | 00:00:00 | 00:00:00 | 00:00:00 | |
| PETON7-10 | 2026-09-03 00:17:39 | 50.86877 | 17.58711 | 129° | 31km/h | 19461m | 4.7m/s | 0°C | 0% | 0hPa | 0V | 00:00:00 | 00:00:00 | 00:00:00 | |
| SQ6EMJ | 2026-09-03 00:17:36 | 50.86883 | 17.58679 | 100° | 35km/h | 19444m | 3.9m/s | 0°C | 0% | 0hPa | 0V | 00:00:00 | 00:00:00 | 00:00:00 | |
| SQ6EMJ | 2026-09-03 00:17:31 | 50.86896 | 17.58610 | 92° | 33km/h | 19416m | 5.7m/s | 0°C | 0% | 0hPa | 0V | 00:00:00 | 00:00:00 | 00:00:00 | |
| OE5DRO-10 | 2026-09-03 00:17:29 | 50.86892 | 17.58569 | 88° | 33km/h | 19399m | 4.8m/s | 0°C | 0% | 0hPa | 0V | 00:00:00 | 00:00:00 | 00:00:00 | |
| SQ6EMJ | 2026-09-03 00:17:26 | 50.86895 | 17.58544 | 109° | 38km/h | 19388m | 5.4m/s | 0°C | 0% | 0hPa | 0V | 00:00:00 | 00:00:00 | 00:00:00 | |
| PETON7-10 | 2026-09-03 00:17:24 | 50.86899 | 17.58530 | 113° | 35km/h | 19383m | 2.2m/s | 0°C | 0% | 0hPa | 0V | 00:00:00 | 00:00:00 | 00:00:00 | |
| SP3BTT-10 | 2026-09-03 00:17:18 | 50.86910 | 17.58454 | 82° | 26km/h | 19354m | 5.1m/s | 0°C | 0% | 0hPa | 0V | 00:00:00 | 00:00:00 | 00:00:00 | |
| SQ6EMJ | 2026-09-03 00:17:17 | 50.86910 | 17.58438 | 94° | 38km/h | 19349m | 6.4m/s | 0°C | 0% | 0hPa | 0V | 00:00:00 | 00:00:00 | 00:00:00 | |
| SQ6EMJ | 2026-09-03 00:17:12 | 50.86926 | 17.58367 | 121° | 31km/h | 19322m | 6.3m/s | 0°C | 0% | 0hPa | 0V | 00:00:00 | 00:00:00 | 00:00:00 | |
| PETON7-10 | 2026-09-03 00:17:09 | 50.86932 | 17.58337 | 89° | 35km/h | 19309m | 5.9m/s | 0°C | 0% | 0hPa | 0V | 00:00:00 | 00:00:00 | 00:00:00 | |
| SQ6EMJ | 2026-09-03 00:17:04 | 50.86938 | 17.58263 | 106° | 29km/h | 19286m | 4.9m/s | 0°C | 0% | 0hPa | 0V | 00:00:00 | 00:00:00 | 00:00:00 | |
| SQ6EMJ | 2026-09-03 00:17:00 | 50.86944 | 17.58202 | 74° | 29km/h | 19260m | 5.2m/s | 0°C | 0% | 0hPa | 0V | 00:00:00 | 00:00:00 | 00:00:00 | |
| PETON7-10 | 2026-09-03 00:16:54 | 50.86951 | 17.58135 | 122° | 31km/h | 19244m | 3.7m/s | 0°C | 0% | 0hPa | 0V | 00:00:00 | 00:00:00 | 00:00:00 | |
| SQ6EMJ | 2026-09-03 00:16:53 | 50.86954 | 17.58126 | 121° | 24km/h | 19242m | 5.2m/s | 0°C | 0% | 0hPa | 0V | 00:00:00 | 00:00:00 | 00:00:00 | |
| SQ6EMJ | 2026-09-03 00:16:47 | 50.86953 | 17.58064 | 90° | 29km/h | 19209m | 7.3m/s | 0°C | 0% | 0hPa | 0V | 00:00:00 | 00:00:00 | 00:00:00 | |
| SQ6EMJ | 2026-09-03 00:16:41 | 50.86951 | 17.57990 | 70° | 16km/h | 19172m | 5.4m/s | 0°C | 0% | 0hPa | 0V | 00:00:00 | 00:00:00 | 00:00:00 | |
| PETON7-10 | 2026-09-03 00:16:38 | 50.86947 | 17.57963 | 91° | 24km/h | 19155m | 2.8m/s | 0°C | 0% | 0hPa | 0V | 00:00:00 | 00:00:00 | 00:00:00 | |
| SQ6EMJ | 2026-09-03 00:16:36 | 50.86950 | 17.57939 | 116° | 26km/h | 19148m | 3.1m/s | 0°C | 0% | 0hPa | 0V | 00:00:00 | 00:00:00 | 00:00:00 | |
| SQ6EMJ | 2026-09-03 00:16:30 | 50.86950 | 17.57888 | 78° | 16km/h | 19123m | 5.4m/s | 0°C | 0% | 0hPa | 0V | 00:00:00 | 00:00:00 | 00:00:00 | |
| SQ6EMJ | 2026-09-03 00:16:25 | 50.86955 | 17.57845 | 95° | 26km/h | 19098m | 4.5m/s | 0°C | 0% | 0hPa | 0V | 00:00:00 | 00:00:00 | 00:00:00 | |
| PETON7-10 | 2026-09-03 00:16:23 | 50.86956 | 17.57827 | 90° | 22km/h | 19091m | 3.4m/s | 0°C | 0% | 0hPa | 0V | 00:00:00 | 00:00:00 | 00:00:00 | |
| SQ6EMJ | 2026-09-03 00:16:19 | 50.86952 | 17.57791 | 85° | 18km/h | 19065m | 6.2m/s | 0°C | 0% | 0hPa | 0V | 00:00:00 | 00:00:00 | 00:00:00 | |
| SQ6EMJ | 2026-09-03 00:16:13 | 50.86952 | 17.57748 | 90° | 18km/h | 19037m | 3.0m/s | 0°C | 0% | 0hPa | 0V | 00:00:00 | 00:00:00 | 00:00:00 | |
| PETON7-10 | 2026-09-03 00:16:08 | 50.86952 | 17.57701 | 109° | 20km/h | 19008m | 6.1m/s | 0°C | 0% | 0hPa | 0V | 00:00:00 | 00:00:00 | 00:00:00 | |
| SP3BTT-10 | 2026-09-03 00:16:03 | 50.86953 | 17.57660 | 95° | 27km/h | 18985m | 5.0m/s | 0°C | 0% | 0hPa | 0V | 00:00:00 | 00:00:00 | 00:00:00 | |
| SQ6EMJ | 2026-09-03 00:16:02 | 50.86954 | 17.57654 | 116° | 15km/h | 18981m | 5.6m/s | 0°C | 0% | 0hPa | 0V | 00:00:00 | 00:00:00 | 00:00:00 | |
| SQ6EMJ | 2026-09-03 00:15:57 | 50.86960 | 17.57616 | 120° | 22km/h | 18956m | 5.9m/s | 0°C | 0% | 0hPa | 0V | 00:00:00 | 00:00:00 | 00:00:00 | |
| PETON7-10 | 2026-09-03 00:15:52 | 50.86973 | 17.57572 | 115° | 22km/h | 18934m | 4.4m/s | 0°C | 0% | 0hPa | 0V | 00:00:00 | 00:00:00 | 00:00:00 | |
| SQ6EMJ | 2026-09-03 00:15:46 | 50.86989 | 17.57530 | 126° | 37km/h | 18904m | 5.1m/s | 0°C | 0% | 0hPa | 0V | 00:00:00 | 00:00:00 | 00:00:00 | |
| SQ6EMJ | 2026-09-03 00:15:40 | 50.87005 | 17.57482 | 160° | 13km/h | 18882m | 3.8m/s | 0°C | 0% | 0hPa | 0V | 00:00:00 | 00:00:00 | 00:00:00 | |
| PETON7-10 | 2026-09-03 00:15:37 | 50.87012 | 17.57459 | 117° | 29km/h | 18866m | 5.5m/s | 0°C | 0% | 0hPa | 0V | 00:00:00 | 00:00:00 | 00:00:00 | |
| SQ6EMJ | 2026-09-03 00:15:35 | 50.87020 | 17.57435 | 114° | 35km/h | 18855m | 2.0m/s | 0°C | 0% | 0hPa | 0V | 00:00:00 | 00:00:00 | 00:00:00 | |
| SQ6EMJ | 2026-09-03 00:15:29 | 50.87038 | 17.57393 | 135° | 29km/h | 18828m | 4.7m/s | 0°C | 0% | 0hPa | 0V | 00:00:00 | 00:00:00 | 00:00:00 | |
| SQ6EMJ | 2026-09-03 00:15:23 | 50.87057 | 17.57317 | 108° | 24km/h | 18797m | 4.9m/s | 0°C | 0% | 0hPa | 0V | 00:00:00 | 00:00:00 | 00:00:00 | |
| PETON7-10 | 2026-09-03 00:15:22 | 50.87058 | 17.57308 | 101° | 33km/h | 18792m | 5.9m/s | 0°C | 0% | 0hPa | 0V | 00:00:00 | 00:00:00 | 00:00:00 | |
| SQ6EMJ | 2026-09-03 00:15:18 | 50.87066 | 17.57269 | 115° | 46km/h | 18773m | 4.9m/s | 0°C | 0% | 0hPa | 0V | 00:00:00 | 00:00:00 | 00:00:00 | |
| SP3BTT-10 | 2026-09-03 00:15:17 | 50.87070 | 17.57251 | 114° | 29km/h | 18768m | 6.6m/s | 0°C | 0% | 0hPa | 0V | 00:00:00 | 00:00:00 | 00:00:00 | |
| SQ6EMJ | 2026-09-03 00:15:12 | 50.87074 | 17.57178 | 105° | 27km/h | 18741m | 3.6m/s | 0°C | 0% | 0hPa | 0V | 00:00:00 | 00:00:00 | 00:00:00 | |
| PETON7-10 | 2026-09-03 00:15:07 | 50.87088 | 17.57110 | 120° | 29km/h | 18721m | 4.1m/s | 0°C | 0% | 0hPa | 0V | 00:00:00 | 00:00:00 | 00:00:00 | |
| OK1SLM-15 | 2026-09-03 00:15:06 | 50.87091 | 17.57099 | 101° | 31km/h | 18717m | 5.6m/s | 0°C | 0% | 0hPa | 0V | 00:00:00 | 00:00:00 | 00:00:00 | |
| SQ6EMJ | 2026-09-03 00:15:01 | 50.87084 | 17.57032 | 114° | 40km/h | 18696m | 5.8m/s | 0°C | 0% | 0hPa | 0V | 00:00:00 | 00:00:00 | 00:00:00 | |
| OK1SLM-15 | 2026-09-03 00:15:00 | 50.87089 | 17.57018 | 115° | 37km/h | 18692m | 4.8m/s | 0°C | 0% | 0hPa | 0V | 00:00:00 | 00:00:00 | 00:00:00 | |
| SQ6EMJ | 2026-09-03 00:14:56 | 50.87091 | 17.56972 | 74° | 22km/h | 18670m | 6.3m/s | 0°C | 0% | 0hPa | 0V | 00:00:00 | 00:00:00 | 00:00:00 | |
| PETON7-10 | 2026-09-03 00:14:50 | 50.87089 | 17.56901 | 109° | 37km/h | 18639m | 4.4m/s | 0°C | 0% | 0hPa | 0V | 00:00:00 | 00:00:00 | 00:00:00 | |
| SQ6EMJ | 2026-09-03 00:14:45 | 50.87086 | 17.56834 | 47° | 24km/h | 18612m | 4.9m/s | 0°C | 0% | 0hPa | 0V | 00:00:00 | 00:00:00 | 00:00:00 | |
| SQ6EMJ | 2026-09-03 00:14:40 | 50.87083 | 17.56792 | 90° | 35km/h | 18590m | 2.9m/s | 0°C | 0% | 0hPa | 0V | 00:00:00 | 00:00:00 | 00:00:00 | |
| OE5DRO-10 | 2026-09-03 00:14:38 | 50.87081 | 17.56736 | 60° | 22km/h | 18564m | 4.9m/s | 0°C | 0% | 0hPa | 0V | 00:00:00 | 00:00:00 | 00:00:00 | |
| PETON7-10 | 2026-09-03 00:14:35 | 50.87081 | 17.56736 | 60° | 22km/h | 18564m | 4.9m/s | 0°C | 0% | 0hPa | 0V | 00:00:00 | 00:00:00 | 00:00:00 | |
| SQ6EMJ | 2026-09-03 00:14:34 | 50.87079 | 17.56728 | 77° | 18km/h | 18560m | 3.9m/s | 0°C | 0% | 0hPa | 0V | 00:00:00 | 00:00:00 | 00:00:00 | |
| SP3BTT-10 | 2026-09-03 00:14:32 | 50.87078 | 17.56718 | 104° | 22km/h | 18552m | 4.1m/s | 0°C | 0% | 0hPa | 0V | 00:00:00 | 00:00:00 | 00:00:00 | |
| SQ6EMJ | 2026-09-03 00:14:28 | 50.87079 | 17.56676 | 94° | 31km/h | 18536m | 4.5m/s | 0°C | 0% | 0hPa | 0V | 00:00:00 | 00:00:00 | 00:00:00 | |
| SQ6EMJ | 2026-09-03 00:14:22 | 50.87077 | 17.56628 | 112° | 26km/h | 18514m | 5.8m/s | 0°C | 0% | 0hPa | 0V | 00:00:00 | 00:00:00 | 00:00:00 | |
| PETON7-10 | 2026-09-03 00:14:20 | 50.87081 | 17.56610 | 101° | 24km/h | 18502m | 6.7m/s | 0°C | 0% | 0hPa | 0V | 00:00:00 | 00:00:00 | 00:00:00 | |
| SQ6EMJ | 2026-09-03 00:14:16 | 50.87080 | 17.56572 | 98° | 31km/h | 18483m | 5.2m/s | 0°C | 0% | 0hPa | 0V | 00:00:00 | 00:00:00 | 00:00:00 | |
| SQ6EMJ | 2026-09-03 00:14:10 | 50.87077 | 17.56514 | 100° | 26km/h | 18449m | 4.2m/s | 0°C | 0% | 0hPa | 0V | 00:00:00 | 00:00:00 | 00:00:00 | |
| SQ6EMJ | 2026-09-03 00:14:05 | 50.87077 | 17.56473 | 89° | 20km/h | 18425m | 3.4m/s | 0°C | 0% | 0hPa | 0V | 00:00:00 | 00:00:00 | 00:00:00 | |
| PETON7-10 | 2026-09-03 00:14:02 | 50.87073 | 17.56451 | 73° | 20km/h | 18413m | 3.1m/s | 0°C | 0% | 0hPa | 0V | 00:00:00 | 00:00:00 | 00:00:00 | |
| SQ6EMJ | 2026-09-03 00:13:59 | 50.87074 | 17.56426 | 97° | 16km/h | 18400m | 4.8m/s | 0°C | 0% | 0hPa | 0V | 00:00:00 | 00:00:00 | 00:00:00 | |
| OE5DRO-10 | 2026-09-03 00:13:58 | 50.87073 | 17.56391 | 86° | 33km/h | 18377m | 5.9m/s | 0°C | 0% | 0hPa | 0V | 00:00:00 | 00:00:00 | 00:00:00 | |
| SQ6EMJ | 2026-09-03 00:13:53 | 50.87071 | 17.56379 | 80° | 15km/h | 18366m | 5.4m/s | 0°C | 0% | 0hPa | 0V | 00:00:00 | 00:00:00 | 00:00:00 | |
| PETON7-10 | 2026-09-03 00:13:47 | 50.87072 | 17.56336 | 98° | 27km/h | 18339m | 5.1m/s | 0°C | 0% | 0hPa | 0V | 00:00:00 | 00:00:00 | 00:00:00 | |
| SQ6EMJ | 2026-09-03 00:13:40 | 50.87082 | 17.56276 | 102° | 29km/h | 18300m | 3.8m/s | 0°C | 0% | 0hPa | 0V | 00:00:00 | 00:00:00 | 00:00:00 | |
| SQ6EMJ | 2026-09-03 00:13:33 | 50.87089 | 17.56190 | 100° | 29km/h | 18268m | 6.6m/s | 0°C | 0% | 0hPa | 0V | 00:00:00 | 00:00:00 | 00:00:00 | |
| PETON7-10 | 2026-09-03 00:13:32 | 50.87089 | 17.56180 | 91° | 31km/h | 18261m | 5.0m/s | 0°C | 0% | 0hPa | 0V | 00:00:00 | 00:00:00 | 00:00:00 | |
| SQ6EMJ | 2026-09-03 00:13:28 | 50.87092 | 17.56140 | 101° | 33km/h | 18239m | 3.7m/s | 0°C | 0% | 0hPa | 0V | 00:00:00 | 00:00:00 | 00:00:00 | |
| SP3BTT-10 | 2026-09-03 00:13:22 | 50.87100 | 17.56056 | 115° | 35km/h | 18209m | 4.3m/s | 0°C | 0% | 0hPa | 0V | 00:00:00 | 00:00:00 | 00:00:00 | |
| PETON7-10 | 2026-09-03 00:13:17 | 50.87110 | 17.55998 | 113° | 33km/h | 18184m | 2.5m/s | 0°C | 0% | 0hPa | 0V | 00:00:00 | 00:00:00 | 00:00:00 | |
| SQ6EMJ | 2026-09-03 00:13:15 | 50.87115 | 17.55974 | 100° | 29km/h | 18178m | 1.7m/s | 0°C | 0% | 0hPa | 0V | 00:00:00 | 00:00:00 | 00:00:00 | |
| SQ6EMJ | 2026-09-03 00:13:10 | 50.87130 | 17.55917 | 116° | 24km/h | 18155m | 4.7m/s | 0°C | 0% | 0hPa | 0V | 00:00:00 | 00:00:00 | 00:00:00 | |
| SQ6EMJ | 2026-09-03 00:13:05 | 50.87146 | 17.55872 | 107° | 40km/h | 18130m | 3.4m/s | 0°C | 0% | 0hPa | 0V | 00:00:00 | 00:00:00 | 00:00:00 | |
| PETON7-10 | 2026-09-03 00:13:02 | 50.87156 | 17.55819 | 110° | 31km/h | 18115m | 2.7m/s | 0°C | 0% | 0hPa | 0V | 00:00:00 | 00:00:00 | 00:00:00 | |
| SQ6EMJ | 2026-09-03 00:12:54 | 50.87174 | 17.55732 | 94° | 44km/h | 18079m | 2.9m/s | 0°C | 0% | 0hPa | 0V | 00:00:00 | 00:00:00 | 00:00:00 | |
| SQ6EMJ | 2026-09-03 00:12:49 | 50.87190 | 17.55662 | 124° | 29km/h | 18052m | 6.1m/s | 0°C | 0% | 0hPa | 0V | 00:00:00 | 00:00:00 | 00:00:00 | |
| PETON7-10 | 2026-09-03 00:12:47 | 50.87197 | 17.55640 | 111° | 37km/h | 18043m | 3.2m/s | 0°C | 0% | 0hPa | 0V | 00:00:00 | 00:00:00 | 00:00:00 | |
| SQ6EMJ | 2026-09-03 00:12:45 | 50.87209 | 17.55599 | 115° | 46km/h | 18029m | 4.5m/s | 0°C | 0% | 0hPa | 0V | 00:00:00 | 00:00:00 | 00:00:00 | |
| SP3BTT-10 | 2026-09-03 00:12:40 | 50.87221 | 17.55536 | 114° | 33km/h | 18009m | 4.6m/s | 0°C | 0% | 0hPa | 0V | 00:00:00 | 00:00:00 | 00:00:00 | |
| SQ6EMJ | 2026-09-03 00:12:38 | 50.87228 | 17.55515 | 107° | 24km/h | 17999m | 5.4m/s | 0°C | 0% | 0hPa | 0V | 00:00:00 | 00:00:00 | 00:00:00 | |
| SQ6EMJ | 2026-09-03 00:12:33 | 50.87237 | 17.55446 | 99° | 40km/h | 17977m | 3.8m/s | 0°C | 0% | 0hPa | 0V | 00:00:00 | 00:00:00 | 00:00:00 | |
| PETON7-10 | 2026-09-03 00:12:32 | 50.87238 | 17.55431 | 92° | 38km/h | 17973m | 3.7m/s | 0°C | 0% | 0hPa | 0V | 00:00:00 | 00:00:00 | 00:00:00 | |
| SQ6EMJ | 2026-09-03 00:12:28 | 50.87244 | 17.55377 | 97° | 27km/h | 17956m | 5.6m/s | 0°C | 0% | 0hPa | 0V | 00:00:00 | 00:00:00 | 00:00:00 | |
| SQ6EMJ | 2026-09-03 00:12:22 | 50.87245 | 17.55284 | 103° | 42km/h | 17922m | 2.2m/s | 0°C | 0% | 0hPa | 0V | 00:00:00 | 00:00:00 | 00:00:00 | |
| PETON7-10 | 2026-09-03 00:12:17 | 50.87240 | 17.55200 | 88° | 38km/h | 17888m | 4.9m/s | 0°C | 0% | 0hPa | 0V | 00:00:00 | 00:00:00 | 00:00:00 | |
| SQ6EMJ | 2026-09-03 00:12:16 | 50.87240 | 17.55185 | 103° | 31km/h | 17880m | 5.1m/s | 0°C | 0% | 0hPa | 0V | 00:00:00 | 00:00:00 | 00:00:00 | |
| SQ6EMJ | 2026-09-03 00:12:10 | 50.87240 | 17.55093 | 95° | 33km/h | 17854m | 3.1m/s | 0°C | 0% | 0hPa | 0V | 00:00:00 | 00:00:00 | 00:00:00 | |
| PETON7-10 | 2026-09-03 00:12:02 | 50.87251 | 17.54968 | 87° | 35km/h | 17824m | 2.6m/s | 0°C | 0% | 0hPa | 0V | 00:00:00 | 00:00:00 | 00:00:00 | |
| SQ6EMJ | 2026-09-03 00:12:00 | 50.87250 | 17.54941 | 92° | 26km/h | 17814m | 4.8m/s | 0°C | 0% | 0hPa | 0V | 00:00:00 | 00:00:00 | 00:00:00 | |
| SQ6EMJ | 2026-09-03 00:11:54 | 50.87266 | 17.54860 | 122° | 31km/h | 17785m | 5.2m/s | 0°C | 0% | 0hPa | 0V | 00:00:00 | 00:00:00 | 00:00:00 | |
| SQ6EMJ | 2026-09-03 00:11:49 | 50.87282 | 17.54792 | 116° | 38km/h | 17757m | 4.9m/s | 0°C | 0% | 0hPa | 0V | 00:00:00 | 00:00:00 | 00:00:00 | |
| PETON7-10 | 2026-09-03 00:11:47 | 50.87286 | 17.54777 | 109° | 38km/h | 17751m | 6.0m/s | 0°C | 0% | 0hPa | 0V | 00:00:00 | 00:00:00 | 00:00:00 | |
| SQ6EMJ | 2026-09-03 00:11:41 | 50.87307 | 17.54697 | 99° | 35km/h | 17715m | 3.4m/s | 0°C | 0% | 0hPa | 0V | 00:00:00 | 00:00:00 | 00:00:00 | |
| SQ6EMJ | 2026-09-03 00:11:35 | 50.87333 | 17.54606 | 113° | 38km/h | 17684m | 3.6m/s | 0°C | 0% | 0hPa | 0V | 00:00:00 | 00:00:00 | 00:00:00 | |
| PETON7-10 | 2026-09-03 00:11:32 | 50.87345 | 17.54566 | 102° | 38km/h | 17669m | 5.2m/s | 0°C | 0% | 0hPa | 0V | 00:00:00 | 00:00:00 | 00:00:00 | |
| SQ6EMJ | 2026-09-03 00:11:29 | 50.87351 | 17.54514 | 112° | 44km/h | 17659m | 6.2m/s | 0°C | 0% | 0hPa | 0V | 00:00:00 | 00:00:00 | 00:00:00 | |
| SQ6EMJ | 2026-09-03 00:11:22 | 50.87381 | 17.54410 | 100° | 49km/h | 17623m | 7.0m/s | 0°C | 0% | 0hPa | 0V | 00:00:00 | 00:00:00 | 00:00:00 | |
| SQ6EMJ | 2026-09-03 00:11:17 | 50.87400 | 17.54334 | 128° | 33km/h | 17599m | 4.4m/s | 0°C | 0% | 0hPa | 0V | 00:00:00 | 00:00:00 | 00:00:00 | |
| PETON7-10 | 2026-09-03 00:11:15 | 50.87407 | 17.54312 | 110° | 42km/h | 17592m | 5.9m/s | 0°C | 0% | 0hPa | 0V | 00:00:00 | 00:00:00 | 00:00:00 | |
| SQ6EMJ | 2026-09-03 00:11:12 | 50.87418 | 17.54265 | 112° | 40km/h | 17580m | 7.6m/s | 0°C | 0% | 0hPa | 0V | 00:00:00 | 00:00:00 | 00:00:00 | |
| SP3BTT-10 | 2026-09-03 00:11:07 | 50.87440 | 17.54186 | 121° | 38km/h | 17550m | 5.4m/s | 0°C | 0% | 0hPa | 0V | 00:00:00 | 00:00:00 | 00:00:00 | |
| PETON7-10 | 2026-09-03 00:11:00 | 50.87472 | 17.54084 | 120° | 49km/h | 17514m | 3.1m/s | 0°C | 0% | 0hPa | 0V | 00:00:00 | 00:00:00 | 00:00:00 | |
| SQ6EMJ | 2026-09-03 00:10:55 | 50.87497 | 17.53998 | 102° | 49km/h | 17494m | 6.9m/s | 0°C | 0% | 0hPa | 0V | 00:00:00 | 00:00:00 | 00:00:00 | |
| SQ6EMJ | 2026-09-03 00:10:50 | 50.87526 | 17.53885 | 117° | 46km/h | 17465m | 4.6m/s | 0°C | 0% | 0hPa | 0V | 00:00:00 | 00:00:00 | 00:00:00 | |
| PETON7-10 | 2026-09-03 00:10:45 | 50.87544 | 17.53810 | 101° | 51km/h | 17441m | 6.8m/s | 0°C | 0% | 0hPa | 0V | 00:00:00 | 00:00:00 | 00:00:00 | |
| SQ6EMJ | 2026-09-03 00:10:43 | 50.87547 | 17.53771 | 98° | 51km/h | 17429m | 4.2m/s | 0°C | 0% | 0hPa | 0V | 00:00:00 | 00:00:00 | 00:00:00 | |
| SQ6EMJ | 2026-09-03 00:10:36 | 50.87577 | 17.53639 | 105° | 47km/h | 17395m | 7.3m/s | 0°C | 0% | 0hPa | 0V | 00:00:00 | 00:00:00 | 00:00:00 | |
| OE5DRO-10 | 2026-09-03 00:10:35 | 50.87587 | 17.53559 | 100° | 40km/h | 17371m | 5.9m/s | 0°C | 0% | 0hPa | 0V | 00:00:00 | 00:00:00 | 00:00:00 | |
| PETON7-10 | 2026-09-03 00:10:30 | 50.87593 | 17.53519 | 106° | 46km/h | 17363m | 5.4m/s | 0°C | 0% | 0hPa | 0V | 00:00:00 | 00:00:00 | 00:00:00 | |
| SQ6EMJ | 2026-09-03 00:10:28 | 50.87600 | 17.53482 | 107° | 49km/h | 17354m | 5.5m/s | 0°C | 0% | 0hPa | 0V | 00:00:00 | 00:00:00 | 00:00:00 | |
| SQ6EMJ | 2026-09-03 00:10:22 | 50.87614 | 17.53373 | 90° | 47km/h | 17328m | 7.2m/s | 0°C | 0% | 0hPa | 0V | 00:00:00 | 00:00:00 | 00:00:00 | |
| SQ6EMJ | 2026-09-03 00:10:17 | 50.87627 | 17.53281 | 104° | 46km/h | 17302m | 6.6m/s | 0°C | 0% | 0hPa | 0V | 00:00:00 | 00:00:00 | 00:00:00 | |
| OE5DRO-10 | 2026-09-03 00:10:14 | 50.87633 | 17.53188 | 93° | 33km/h | 17269m | 5.5m/s | 0°C | 0% | 0hPa | 0V | 00:00:00 | 00:00:00 | 00:00:00 | |
| SQ6EMJ | 2026-09-03 00:10:10 | 50.87634 | 17.53172 | 100° | 38km/h | 17265m | 4.5m/s | 0°C | 0% | 0hPa | 0V | 00:00:00 | 00:00:00 | 00:00:00 | |
| SP3BTT-10 | 2026-09-03 00:10:02 | 50.87653 | 17.53061 | 104° | 42km/h | 17223m | 5.6m/s | 0°C | 0% | 0hPa | 0V | 00:00:00 | 00:00:00 | 00:00:00 | |
| PETON7-10 | 2026-09-03 00:09:59 | 50.87661 | 17.53014 | 107° | 35km/h | 17208m | 4.2m/s | 0°C | 0% | 0hPa | 0V | 00:00:00 | 00:00:00 | 00:00:00 | |
| SQ6EMJ | 2026-09-03 00:09:56 | 50.87673 | 17.52974 | 125° | 35km/h | 17193m | 5.7m/s | 0°C | 0% | 0hPa | 0V | 00:00:00 | 00:00:00 | 00:00:00 | |
| OE5DRO-10 | 2026-09-03 00:09:52 | 50.87684 | 17.52916 | 109° | 38km/h | 17169m | 4.4m/s | 0°C | 0% | 0hPa | 0V | 00:00:00 | 00:00:00 | 00:00:00 | |
| SQ6EMJ | 2026-09-03 00:09:50 | 50.87688 | 17.52901 | 108° | 38km/h | 17165m | 5.7m/s | 0°C | 0% | 0hPa | 0V | 00:00:00 | 00:00:00 | 00:00:00 | |
| PETON7-10 | 2026-09-03 00:09:44 | 50.87714 | 17.52823 | 114° | 37km/h | 17136m | 5.3m/s | 0°C | 0% | 0hPa | 0V | 00:00:00 | 00:00:00 | 00:00:00 | |
| SQ6EMJ | 2026-09-03 00:09:43 | 50.87716 | 17.52812 | 104° | 31km/h | 17129m | 3.8m/s | 0°C | 0% | 0hPa | 0V | 00:00:00 | 00:00:00 | 00:00:00 | |
| SQ6EMJ | 2026-09-03 00:09:37 | 50.87736 | 17.52731 | 138° | 33km/h | 17104m | 4.7m/s | 0°C | 0% | 0hPa | 0V | 00:00:00 | 00:00:00 | 00:00:00 | |
| OE5DRO-10 | 2026-09-03 00:09:33 | 50.87759 | 17.52682 | 117° | 42km/h | 17084m | 3.7m/s | 0°C | 0% | 0hPa | 0V | 00:00:00 | 00:00:00 | 00:00:00 | |
| SQ6EMJ | 2026-09-03 00:09:32 | 50.87762 | 17.52669 | 116° | 35km/h | 17080m | 3.7m/s | 0°C | 0% | 0hPa | 0V | 00:00:00 | 00:00:00 | 00:00:00 | |
| PETON7-10 | 2026-09-03 00:09:29 | 50.87781 | 17.52622 | 123° | 44km/h | 17064m | 5.9m/s | 0°C | 0% | 0hPa | 0V | 00:00:00 | 00:00:00 | 00:00:00 | |
| SQ6EMJ | 2026-09-03 00:09:27 | 50.87793 | 17.52592 | 118° | 38km/h | 17053m | 4.7m/s | 0°C | 0% | 0hPa | 0V | 00:00:00 | 00:00:00 | 00:00:00 | |
| SQ6EMJ | 2026-09-03 00:09:21 | 50.87818 | 17.52504 | 115° | 46km/h | 17028m | 6.8m/s | 0°C | 0% | 0hPa | 0V | 00:00:00 | 00:00:00 | 00:00:00 | |
| SP3BTT-10 | 2026-09-03 00:09:16 | 50.87845 | 17.52419 | 116° | 42km/h | 17002m | 7.8m/s | 0°C | 0% | 0hPa | 0V | 00:00:00 | 00:00:00 | 00:00:00 | |
| SQ6EMJ | 2026-09-03 00:09:15 | 50.87849 | 17.52403 | 115° | 44km/h | 16996m | 5.1m/s | 0°C | 0% | 0hPa | 0V | 00:00:00 | 00:00:00 | 00:00:00 | |
| PETON7-10 | 2026-09-03 00:09:14 | 50.87853 | 17.52388 | 106° | 40km/h | 16990m | 6.2m/s | 0°C | 0% | 0hPa | 0V | 00:00:00 | 00:00:00 | 00:00:00 | |
| SQ6EMJ | 2026-09-03 00:09:10 | 50.87868 | 17.52319 | 118° | 47km/h | 16970m | 3.9m/s | 0°C | 0% | 0hPa | 0V | 00:00:00 | 00:00:00 | 00:00:00 | |
| SQ6EMJ | 2026-09-03 00:09:05 | 50.87886 | 17.52244 | 112° | 44km/h | 16949m | 4.9m/s | 0°C | 0% | 0hPa | 0V | 00:00:00 | 00:00:00 | 00:00:00 | |
| SQ6EMJ | 2026-09-03 00:08:59 | 50.87906 | 17.52152 | 111° | 46km/h | 16921m | 5.2m/s | 0°C | 0% | 0hPa | 0V | 00:00:00 | 00:00:00 | 00:00:00 | |
| PETON7-10 | 2026-09-03 00:08:57 | 50.87913 | 17.52121 | 101° | 46km/h | 16912m | 3.9m/s | 0°C | 0% | 0hPa | 0V | 00:00:00 | 00:00:00 | 00:00:00 | |
| OE5DRO-10 | 2026-09-03 00:08:55 | 50.87917 | 17.52088 | 105° | 47km/h | 16903m | 5.3m/s | 0°C | 0% | 0hPa | 0V | 00:00:00 | 00:00:00 | 00:00:00 | |
| SQ6EMJ | 2026-09-03 00:08:54 | 50.87921 | 17.52070 | 111° | 51km/h | 16899m | 2.2m/s | 0°C | 0% | 0hPa | 0V | 00:00:00 | 00:00:00 | 00:00:00 | |
| SQ6EMJ | 2026-09-03 00:08:49 | 50.87938 | 17.51986 | 101° | 49km/h | 16880m | 4.5m/s | 0°C | 0% | 0hPa | 0V | 00:00:00 | 00:00:00 | 00:00:00 | |
| SQ6EMJ | 2026-09-03 00:08:43 | 50.87947 | 17.51876 | 101° | 53km/h | 16852m | 5.1m/s | 0°C | 0% | 0hPa | 0V | 00:00:00 | 00:00:00 | 00:00:00 | |
| PETON7-10 | 2026-09-03 00:08:42 | 50.87949 | 17.51856 | 101° | 47km/h | 16847m | 4.9m/s | 0°C | 0% | 0hPa | 0V | 00:00:00 | 00:00:00 | 00:00:00 | |
| SQ6EMJ | 2026-09-03 00:08:36 | 50.87956 | 17.51747 | 92° | 42km/h | 16817m | 6.2m/s | 0°C | 0% | 0hPa | 0V | 00:00:00 | 00:00:00 | 00:00:00 | |
| OE5DRO-10 | 2026-09-03 00:08:33 | 50.87954 | 17.51690 | 87° | 51km/h | 16803m | 2.4m/s | 0°C | 0% | 0hPa | 0V | 00:00:00 | 00:00:00 | 00:00:00 | |
| SQ6EMJ | 2026-09-03 00:08:30 | 50.87953 | 17.51630 | 92° | 47km/h | 16792m | 4.6m/s | 0°C | 0% | 0hPa | 0V | 00:00:00 | 00:00:00 | 00:00:00 | |
| PETON7-10 | 2026-09-03 00:08:27 | 50.87953 | 17.51572 | 92° | 46km/h | 16778m | 5.3m/s | 0°C | 0% | 0hPa | 0V | 00:00:00 | 00:00:00 | 00:00:00 | |
| SQ6EMJ | 2026-09-03 00:08:24 | 50.87954 | 17.51516 | 89° | 51km/h | 16766m | 5.9m/s | 0°C | 0% | 0hPa | 0V | 00:00:00 | 00:00:00 | 00:00:00 | |
| SQ6EMJ | 2026-09-03 00:08:19 | 50.87957 | 17.51419 | 95° | 40km/h | 16742m | 5.8m/s | 0°C | 0% | 0hPa | 0V | 00:00:00 | 00:00:00 | 00:00:00 | |
| SQ6EMJ | 2026-09-03 00:08:14 | 50.87964 | 17.51328 | 110° | 44km/h | 16716m | 4.5m/s | 0°C | 0% | 0hPa | 0V | 00:00:00 | 00:00:00 | 00:00:00 | |
| OE5DRO-10 | 2026-09-03 00:08:13 | 50.87968 | 17.51311 | 107° | 38km/h | 16711m | 4.6m/s | 0°C | 0% | 0hPa | 0V | 00:00:00 | 00:00:00 | 00:00:00 | |
| PETON7-10 | 2026-09-03 00:08:12 | 50.87971 | 17.51293 | 103° | 40km/h | 16707m | 3.5m/s | 0°C | 0% | 0hPa | 0V | 00:00:00 | 00:00:00 | 00:00:00 | |
| SQ6EMJ | 2026-09-03 00:08:09 | 50.87977 | 17.51246 | 97° | 35km/h | 16696m | 4.3m/s | 0°C | 0% | 0hPa | 0V | 00:00:00 | 00:00:00 | 00:00:00 | |
| SQ6EMJ | 2026-09-03 00:08:03 | 50.87990 | 17.51148 | 108° | 42km/h | 16672m | 6.2m/s | 0°C | 0% | 0hPa | 0V | 00:00:00 | 00:00:00 | 00:00:00 | |
| SP3BTT-10 | 2026-09-03 00:08:02 | 50.87992 | 17.51132 | 101° | 40km/h | 16665m | 5.4m/s | 0°C | 0% | 0hPa | 0V | 00:00:00 | 00:00:00 | 00:00:00 | |
| PETON7-10 | 2026-09-03 00:07:57 | 50.87994 | 17.51061 | 98° | 38km/h | 16637m | 5.6m/s | 0°C | 0% | 0hPa | 0V | 00:00:00 | 00:00:00 | 00:00:00 | |
| SQ6EMJ | 2026-09-03 00:07:51 | 50.88008 | 17.50973 | 102° | 33km/h | 16613m | 4.3m/s | 0°C | 0% | 0hPa | 0V | 00:00:00 | 00:00:00 | 00:00:00 | |
| OE5DRO-10 | 2026-09-03 00:07:50 | 50.88011 | 17.50947 | 108° | 37km/h | 16605m | 4.5m/s | 0°C | 0% | 0hPa | 0V | 00:00:00 | 00:00:00 | 00:00:00 | |
| SQ6EMJ | 2026-09-03 00:07:46 | 50.88014 | 17.50904 | 98° | 37km/h | 16589m | 4.5m/s | 0°C | 0% | 0hPa | 0V | 00:00:00 | 00:00:00 | 00:00:00 | |
| PETON7-10 | 2026-09-03 00:07:42 | 50.88028 | 17.50849 | 109° | 37km/h | 16570m | 4.6m/s | 0°C | 0% | 0hPa | 0V | 00:00:00 | 00:00:00 | 00:00:00 | |
| SQ6EMJ | 2026-09-03 00:07:40 | 50.88034 | 17.50821 | 105° | 35km/h | 16560m | 5.1m/s | 0°C | 0% | 0hPa | 0V | 00:00:00 | 00:00:00 | 00:00:00 | |
| SQ6EMJ | 2026-09-03 00:07:33 | 50.88052 | 17.50734 | 127° | 37km/h | 16530m | 5.3m/s | 0°C | 0% | 0hPa | 0V | 00:00:00 | 00:00:00 | 00:00:00 | |
| OE5DRO-10 | 2026-09-03 00:07:29 | 50.88067 | 17.50675 | 107° | 37km/h | 16509m | 5.3m/s | 0°C | 0% | 0hPa | 0V | 00:00:00 | 00:00:00 | 00:00:00 | |
| PETON7-10 | 2026-09-03 00:07:27 | 50.88074 | 17.50649 | 110° | 37km/h | 16500m | 5.2m/s | 0°C | 0% | 0hPa | 0V | 00:00:00 | 00:00:00 | 00:00:00 | |
| SQ6EMJ | 2026-09-03 00:07:21 | 50.88094 | 17.50564 | 103° | 40km/h | 16476m | 5.8m/s | 0°C | 0% | 0hPa | 0V | 00:00:00 | 00:00:00 | 00:00:00 | |
| SP3BTT-10 | 2026-09-03 00:07:19 | 50.88103 | 17.50520 | 114° | 37km/h | 16463m | 4.4m/s | 0°C | 0% | 0hPa | 0V | 00:00:00 | 00:00:00 | 00:00:00 | |
| SQ6EMJ | 2026-09-03 00:07:15 | 50.88114 | 17.50486 | 117° | 38km/h | 16450m | 6.5m/s | 0°C | 0% | 0hPa | 0V | 00:00:00 | 00:00:00 | 00:00:00 | |
| PETON7-10 | 2026-09-03 00:07:12 | 50.88125 | 17.50445 | 111° | 38km/h | 16433m | 4.2m/s | 0°C | 0% | 0hPa | 0V | 00:00:00 | 00:00:00 | 00:00:00 | |
| SQ6EMJ | 2026-09-03 00:07:10 | 50.88132 | 17.50417 | 109° | 40km/h | 16425m | 4.9m/s | 0°C | 0% | 0hPa | 0V | 00:00:00 | 00:00:00 | 00:00:00 | |
| SQ6EMJ | 2026-09-03 00:07:04 | 50.88158 | 17.50337 | 122° | 42km/h | 16395m | 6.4m/s | 0°C | 0% | 0hPa | 0V | 00:00:00 | 00:00:00 | 00:00:00 | |
| SQ6EMJ | 2026-09-03 00:06:58 | 50.88189 | 17.50256 | 123° | 40km/h | 16371m | 5.2m/s | 0°C | 0% | 0hPa | 0V | 00:00:00 | 00:00:00 | 00:00:00 | |
| PETON7-10 | 2026-09-03 00:06:57 | 50.88195 | 17.50242 | 128° | 42km/h | 16366m | 6.4m/s | 0°C | 0% | 0hPa | 0V | 00:00:00 | 00:00:00 | 00:00:00 | |
| SQ6EMJ | 2026-09-03 00:06:53 | 50.88219 | 17.50187 | 123° | 46km/h | 16346m | 4.7m/s | 0°C | 0% | 0hPa | 0V | 00:00:00 | 00:00:00 | 00:00:00 | |
| SQ6EMJ | 2026-09-03 00:06:48 | 50.88248 | 17.50110 | 125° | 33km/h | 16317m | 5.3m/s | 0°C | 0% | 0hPa | 0V | 00:00:00 | 00:00:00 | 00:00:00 | |
| SP3BTT-10 | 2026-09-03 00:06:47 | 50.88253 | 17.50099 | 131° | 46km/h | 16312m | 5.1m/s | 0°C | 0% | 0hPa | 0V | 00:00:00 | 00:00:00 | 00:00:00 | |
| PETON7-10 | 2026-09-03 00:06:42 | 50.88277 | 17.50037 | 112° | 40km/h | 16291m | 5.7m/s | 0°C | 0% | 0hPa | 0V | 00:00:00 | 00:00:00 | 00:00:00 | |
| SQ6EMJ | 2026-09-03 00:06:36 | 50.88304 | 17.49952 | 124° | 42km/h | 16265m | 6.3m/s | 0°C | 0% | 0hPa | 0V | 00:00:00 | 00:00:00 | 00:00:00 | |
| SQ6EMJ | 2026-09-03 00:06:30 | 50.88332 | 17.49861 | 114° | 46km/h | 16238m | 3.6m/s | 0°C | 0% | 0hPa | 0V | 00:00:00 | 00:00:00 | 00:00:00 | |
| SQ6EMJ | 2026-09-03 00:06:25 | 50.88356 | 17.49791 | 124° | 51km/h | 16216m | 5.4m/s | 0°C | 0% | 0hPa | 0V | 00:00:00 | 00:00:00 | 00:00:00 | |
| SQ6EMJ | 2026-09-03 00:06:19 | 50.88384 | 17.49697 | 121° | 40km/h | 16184m | 3.7m/s | 0°C | 0% | 0hPa | 0V | 00:00:00 | 00:00:00 | 00:00:00 | |
| SQ6EMJ | 2026-09-03 00:06:13 | 50.88420 | 17.49592 | 118° | 47km/h | 16156m | 5.8m/s | 0°C | 0% | 0hPa | 0V | 00:00:00 | 00:00:00 | 00:00:00 | |
| PETON7-10 | 2026-09-03 00:06:12 | 50.88425 | 17.49574 | 112° | 40km/h | 16151m | 5.3m/s | 0°C | 0% | 0hPa | 0V | 00:00:00 | 00:00:00 | 00:00:00 | |
| SQ6EMJ | 2026-09-03 00:06:08 | 50.88443 | 17.49515 | 118° | 44km/h | 16135m | 4.5m/s | 0°C | 0% | 0hPa | 0V | 00:00:00 | 00:00:00 | 00:00:00 | |
| SQ6EMJ | 2026-09-03 00:06:02 | 50.88486 | 17.49417 | 104° | 37km/h | 16108m | 5.9m/s | 0°C | 0% | 0hPa | 0V | 00:00:00 | 00:00:00 | 00:00:00 | |
| SP3BTT-10 | 2026-09-03 00:06:00 | 50.88488 | 17.49389 | 97° | 57km/h | 16097m | 3.8m/s | 0°C | 0% | 0hPa | 0V | 00:00:00 | 00:00:00 | 00:00:00 | |
| PETON7-10 | 2026-09-03 00:05:57 | 50.88497 | 17.49342 | 114° | 49km/h | 16086m | 4.5m/s | 0°C | 0% | 0hPa | 0V | 00:00:00 | 00:00:00 | 00:00:00 | |
| SQ6EMJ | 2026-09-03 00:05:56 | 50.88503 | 17.49324 | 122° | 55km/h | 16080m | 3.4m/s | 0°C | 0% | 0hPa | 0V | 00:00:00 | 00:00:00 | 00:00:00 | |
| OK1SLM-15 | 2026-09-03 00:05:51 | 50.88536 | 17.49244 | 121° | 51km/h | 16061m | 6.1m/s | 0°C | 0% | 0hPa | 0V | 00:00:00 | 00:00:00 | 00:00:00 | |
| PETON7-10 | 2026-09-03 00:05:42 | 50.88593 | 17.49087 | 113° | 58km/h | 16021m | 7.2m/s | 0°C | 0% | 0hPa | 0V | 00:00:00 | 00:00:00 | 00:00:00 | |
| SQ6EMJ | 2026-09-03 00:05:32 | 50.88657 | 17.48891 | 117° | 51km/h | 15967m | 5.7m/s | 0°C | 0% | 0hPa | 0V | 00:00:00 | 00:00:00 | 00:00:00 | |
| PETON7-10 | 2026-09-03 00:05:26 | 50.88698 | 17.48755 | 117° | 62km/h | 15942m | 4.0m/s | 0°C | 0% | 0hPa | 0V | 00:00:00 | 00:00:00 | 00:00:00 | |
| SQ6EMJ | 2026-09-03 00:05:20 | 50.88736 | 17.48630 | 117° | 62km/h | 15912m | 4.3m/s | 0°C | 0% | 0hPa | 0V | 00:00:00 | 00:00:00 | 00:00:00 | |
| SP3BTT-10 | 2026-09-03 00:05:14 | 50.88780 | 17.48491 | 119° | 58km/h | 15895m | 4.8m/s | 0°C | 0% | 0hPa | 0V | 00:00:00 | 00:00:00 | 00:00:00 | |
| PETON7-10 | 2026-09-03 00:05:10 | 50.88809 | 17.48398 | 114° | 71km/h | 15877m | 5.1m/s | 0°C | 0% | 0hPa | 0V | 00:00:00 | 00:00:00 | 00:00:00 | |
| SQ6EMJ | 2026-09-03 00:05:09 | 50.88823 | 17.48350 | 115° | 60km/h | 15867m | 6.0m/s | 0°C | 0% | 0hPa | 0V | 00:00:00 | 00:00:00 | 00:00:00 | |
| SQ6EMJ | 2026-09-03 00:04:57 | 50.88890 | 17.48057 | 106° | 78km/h | 15818m | 4.0m/s | 0°C | 0% | 0hPa | 0V | 00:00:00 | 00:00:00 | 00:00:00 | |
| PETON7-10 | 2026-09-03 00:04:53 | 50.88917 | 17.47943 | 110° | 71km/h | 15801m | 6.3m/s | 0°C | 0% | 0hPa | 0V | 00:00:00 | 00:00:00 | 00:00:00 | |
| SQ6EMJ | 2026-09-03 00:04:50 | 50.88927 | 17.47869 | 105° | 71km/h | 15787m | 4.8m/s | 0°C | 0% | 0hPa | 0V | 00:00:00 | 00:00:00 | 00:00:00 | |
| SQ6EMJ | 2026-09-03 00:04:44 | 50.88960 | 17.47690 | 108° | 75km/h | 15763m | 5.7m/s | 0°C | 0% | 0hPa | 0V | 00:00:00 | 00:00:00 | 00:00:00 | |
| SQ6EMJ | 2026-09-03 00:04:41 | 50.88975 | 17.47557 | 106° | 68km/h | 15740m | 6.4m/s | 0°C | 0% | 0hPa | 0V | 00:00:00 | 00:00:00 | 00:00:00 | |
| PETON7-10 | 2026-09-03 00:04:38 | 50.88986 | 17.47503 | 110° | 62km/h | 15732m | 3.7m/s | 0°C | 0% | 0hPa | 0V | 00:00:00 | 00:00:00 | 00:00:00 | |
| SQ6EMJ | 2026-09-03 00:04:34 | 50.89002 | 17.47430 | 103° | 64km/h | 15721m | 5.8m/s | 0°C | 0% | 0hPa | 0V | 00:00:00 | 00:00:00 | 00:00:00 | |
| SQ6EMJ | 2026-09-03 00:04:29 | 50.89017 | 17.47285 | 109° | 64km/h | 15694m | 4.4m/s | 0°C | 0% | 0hPa | 0V | 00:00:00 | 00:00:00 | 00:00:00 | |
| PETON7-10 | 2026-09-03 00:04:22 | 50.89034 | 17.47145 | 103° | 55km/h | 15668m | 5.5m/s | 0°C | 0% | 0hPa | 0V | 00:00:00 | 00:00:00 | 00:00:00 | |
| SQ6EMJ | 2026-09-03 00:04:17 | 50.89050 | 17.47011 | 96° | 58km/h | 15640m | 3.5m/s | 0°C | 0% | 0hPa | 0V | 00:00:00 | 00:00:00 | 00:00:00 | |
| SQ6EMJ | 2026-09-03 00:04:12 | 50.89061 | 17.46877 | 95° | 58km/h | 15616m | 5.0m/s | 0°C | 0% | 0hPa | 0V | 00:00:00 | 00:00:00 | 00:00:00 | |
| PETON7-10 | 2026-09-03 00:04:06 | 50.89068 | 17.46771 | 91° | 57km/h | 15591m | 4.9m/s | 0°C | 0% | 0hPa | 0V | 00:00:00 | 00:00:00 | 00:00:00 | |
| SQ6EMJ | 2026-09-03 00:04:04 | 50.89068 | 17.46747 | 92° | 60km/h | 15586m | 5.2m/s | 0°C | 0% | 0hPa | 0V | 00:00:00 | 00:00:00 | 00:00:00 | |
| SP3BTT-10 | 2026-09-03 00:03:59 | 50.89073 | 17.46632 | 91° | 44km/h | 15563m | 4.0m/s | 0°C | 0% | 0hPa | 0V | 00:00:00 | 00:00:00 | 00:00:00 | |
| SQ6EMJ | 2026-09-03 00:03:58 | 50.89074 | 17.46612 | 96° | 49km/h | 15559m | 6.1m/s | 0°C | 0% | 0hPa | 0V | 00:00:00 | 00:00:00 | 00:00:00 | |
| SQ6EMJ | 2026-09-03 00:03:54 | 50.89080 | 17.46510 | 108° | 58km/h | 15538m | 5.0m/s | 0°C | 0% | 0hPa | 0V | 00:00:00 | 00:00:00 | 00:00:00 | |
| PETON7-10 | 2026-09-03 00:03:50 | 50.89087 | 17.46446 | 93° | 47km/h | 15525m | 4.8m/s | 0°C | 0% | 0hPa | 0V | 00:00:00 | 00:00:00 | 00:00:00 | |
| SQ6EMJ | 2026-09-03 00:03:47 | 50.89091 | 17.46387 | 102° | 46km/h | 15511m | 4.5m/s | 0°C | 0% | 0hPa | 0V | 00:00:00 | 00:00:00 | 00:00:00 | |
| SQ6EMJ | 2026-09-03 00:03:41 | 50.89106 | 17.46278 | 96° | 46km/h | 15484m | 5.5m/s | 0°C | 0% | 0hPa | 0V | 00:00:00 | 00:00:00 | 00:00:00 | |
| SQ6EMJ | 2026-09-03 00:03:37 | 50.89115 | 17.46169 | 98° | 49km/h | 15460m | 5.5m/s | 0°C | 0% | 0hPa | 0V | 00:00:00 | 00:00:00 | 00:00:00 | |
| PETON7-10 | 2026-09-03 00:03:36 | 50.89114 | 17.46169 | 98° | 44km/h | 15460m | 5.5m/s | 0°C | 0% | 0hPa | 0V | 00:00:00 | 00:00:00 | 00:00:00 | |
| SQ6EMJ | 2026-09-03 00:03:30 | 50.89121 | 17.46081 | 89° | 47km/h | 15435m | 6.6m/s | 0°C | 0% | 0hPa | 0V | 00:00:00 | 00:00:00 | 00:00:00 | |
| SQ6EMJ | 2026-09-03 00:03:25 | 50.89126 | 17.45983 | 92° | 46km/h | 15406m | 2.1m/s | 0°C | 0% | 0hPa | 0V | 00:00:00 | 00:00:00 | 00:00:00 | |
| PETON7-10 | 2026-09-03 00:03:20 | 50.89132 | 17.45914 | 99° | 42km/h | 15387m | 6.0m/s | 0°C | 0% | 0hPa | 0V | 00:00:00 | 00:00:00 | 00:00:00 | |
| SQ6EMJ | 2026-09-03 00:03:19 | 50.89133 | 17.45895 | 100° | 46km/h | 15382m | 4.1m/s | 0°C | 0% | 0hPa | 0V | 00:00:00 | 00:00:00 | 00:00:00 | |
| SQ6EMJ | 2026-09-03 00:03:13 | 50.89144 | 17.45797 | 99° | 40km/h | 15358m | 5.7m/s | 0°C | 0% | 0hPa | 0V | 00:00:00 | 00:00:00 | 00:00:00 | |
| SQ6EMJ | 2026-09-03 00:03:08 | 50.89154 | 17.45712 | 105° | 46km/h | 15334m | 6.2m/s | 0°C | 0% | 0hPa | 0V | 00:00:00 | 00:00:00 | 00:00:00 | |
| PETON7-10 | 2026-09-03 00:03:05 | 50.89161 | 17.45658 | 94° | 42km/h | 15316m | 6.1m/s | 0°C | 0% | 0hPa | 0V | 00:00:00 | 00:00:00 | 00:00:00 | |
| SQ6EMJ | 2026-09-03 00:02:55 | 50.89280 | 17.45070 | 122° | 38km/h | 15138m | 4.8m/s | 0°C | 0% | 0hPa | 0V | 00:00:00 | 00:00:00 | 00:00:00 | |
| SQ6EMJ | 2026-09-03 00:02:44 | 50.89307 | 17.44978 | 115° | 40km/h | 15112m | 4.7m/s | 0°C | 0% | 0hPa | 0V | 00:00:00 | 00:00:00 | 00:00:00 | |
| SQ6EMJ | 2026-09-03 00:02:36 | 50.89330 | 17.44898 | 111° | 49km/h | 15083m | 4.5m/s | 0°C | 0% | 0hPa | 0V | 00:00:00 | 00:00:00 | 00:00:00 | |
| SQ6EMJ | 2026-09-03 00:02:31 | 50.89352 | 17.44827 | 123° | 37km/h | 15059m | 5.8m/s | 0°C | 0% | 0hPa | 0V | 00:00:00 | 00:00:00 | 00:00:00 | |
| SQ6EMJ | 2026-09-03 00:02:23 | 50.89380 | 17.44764 | 112° | 44km/h | 15034m | 3.6m/s | 0°C | 0% | 0hPa | 0V | 00:00:00 | 00:00:00 | 00:00:00 | |
| PETON7-10 | 2026-09-03 00:02:17 | 50.89407 | 17.44695 | 130° | 44km/h | 15016m | 6.2m/s | 0°C | 0% | 0hPa | 0V | 00:00:00 | 00:00:00 | 00:00:00 | |
| SP3BTT-10 | 2026-09-03 00:02:15 | 50.89414 | 17.44682 | 125° | 51km/h | 15010m | 4.8m/s | 0°C | 0% | 0hPa | 0V | 00:00:00 | 00:00:00 | 00:00:00 | |
| SQ6EMJ | 2026-09-03 00:02:09 | 50.89446 | 17.44614 | 122° | 51km/h | 14986m | 4.5m/s | 0°C | 0% | 0hPa | 0V | 00:00:00 | 00:00:00 | 00:00:00 | |
| SQ6EMJ | 2026-09-03 00:02:01 | 50.89480 | 17.44547 | 132° | 46km/h | 14965m | 4.4m/s | 0°C | 0% | 0hPa | 0V | 00:00:00 | 00:00:00 | 00:00:00 | |
| PETON7-10 | 2026-09-03 00:01:57 | 50.89506 | 17.44491 | 127° | 47km/h | 14945m | 2.3m/s | 0°C | 0% | 0hPa | 0V | 00:00:00 | 00:00:00 | 00:00:00 | |
| SQ6EMJ | 2026-09-03 00:01:56 | 50.89521 | 17.44461 | 128° | 51km/h | 14937m | 4.3m/s | 0°C | 0% | 0hPa | 0V | 00:00:00 | 00:00:00 | 00:00:00 | |
| SQ6EMJ | 2026-09-03 00:01:49 | 50.89560 | 17.44389 | 125° | 53km/h | 14917m | 4.9m/s | 0°C | 0% | 0hPa | 0V | 00:00:00 | 00:00:00 | 00:00:00 | |
| SQ6EMJ | 2026-09-03 00:01:45 | 50.89609 | 17.44298 | 135° | 55km/h | 14890m | 4.6m/s | 0°C | 0% | 0hPa | 0V | 00:00:00 | 00:00:00 | 00:00:00 | |
| PETON7-10 | 2026-09-03 00:01:42 | 50.89626 | 17.44267 | 127° | 55km/h | 14879m | 3.5m/s | 0°C | 0% | 0hPa | 0V | 00:00:00 | 00:00:00 | 00:00:00 | |
| SQ6EMJ | 2026-09-03 00:01:39 | 50.89649 | 17.44216 | 129° | 60km/h | 14866m | 4.1m/s | 0°C | 0% | 0hPa | 0V | 00:00:00 | 00:00:00 | 00:00:00 | |
| SQ6EMJ | 2026-09-03 00:01:31 | 50.89705 | 17.44110 | 128° | 53km/h | 14837m | 4.1m/s | 0°C | 0% | 0hPa | 0V | 00:00:00 | 00:00:00 | 00:00:00 | |
| SQ6EMJ | 2026-09-03 00:01:23 | 50.89754 | 17.44002 | 124° | 58km/h | 14816m | 4.5m/s | 0°C | 0% | 0hPa | 0V | 00:00:00 | 00:00:00 | 00:00:00 | |
| PETON7-10 | 2026-09-03 00:01:20 | 50.89776 | 17.43937 | 116° | 58km/h | 14802m | 5.3m/s | 0°C | 0% | 0hPa | 0V | 00:00:00 | 00:00:00 | 00:00:00 | |
| SQ6EMJ | 2026-09-03 00:01:15 | 50.89799 | 17.43879 | 130° | 58km/h | 14787m | 4.8m/s | 0°C | 0% | 0hPa | 0V | 00:00:00 | 00:00:00 | 00:00:00 | |
| SQ6EMJ | 2026-09-03 00:01:07 | 50.89847 | 17.43756 | 118° | 58km/h | 14761m | 5.7m/s | 0°C | 0% | 0hPa | 0V | 00:00:00 | 00:00:00 | 00:00:00 | |
| PETON7-10 | 2026-09-03 00:00:57 | 50.89896 | 17.43641 | 121° | 58km/h | 14734m | 3.5m/s | 0°C | 0% | 0hPa | 0V | 00:00:00 | 00:00:00 | 00:00:00 | |
| SQ6EMJ | 2026-09-03 00:00:50 | 50.89934 | 17.43511 | 120° | 57km/h | 14708m | 3.8m/s | 0°C | 0% | 0hPa | 0V | 00:00:00 | 00:00:00 | 00:00:00 | |
| SQ6EMJ | 2026-09-03 00:00:49 | 50.89967 | 17.43406 | 117° | 62km/h | 14689m | 2.1m/s | 0°C | 0% | 0hPa | 0V | 00:00:00 | 00:00:00 | 00:00:00 | |
| SQ6EMJ | 2026-09-03 00:00:46 | 50.90003 | 17.43283 | 111° | 55km/h | 14664m | 5.7m/s | 0°C | 0% | 0hPa | 0V | 00:00:00 | 00:00:00 | 00:00:00 | |
| SQ6EMJ | 2026-09-03 00:00:40 | 50.90045 | 17.43159 | 122° | 55km/h | 14638m | 3.8m/s | 0°C | 0% | 0hPa | 0V | 00:00:00 | 00:00:00 | 00:00:00 | |
| SQ6EMJ | 2026-09-03 00:00:33 | 50.90073 | 17.43043 | 107° | 62km/h | 14617m | 3.8m/s | 0°C | 0% | 0hPa | 0V | 00:00:00 | 00:00:00 | 00:00:00 | |
| PETON7-10 | 2026-09-03 00:00:31 | 50.90082 | 17.42998 | 113° | 60km/h | 14609m | 6.2m/s | 0°C | 0% | 0hPa | 0V | 00:00:00 | 00:00:00 | 00:00:00 | |
| SQ6EMJ | 2026-09-03 00:00:26 | 50.90107 | 17.42913 | 113° | 57km/h | 14591m | 2.7m/s | 0°C | 0% | 0hPa | 0V | 00:00:00 | 00:00:00 | 00:00:00 | |
| SQ6EMJ | 2026-09-03 00:00:19 | 50.90140 | 17.42798 | 117° | 55km/h | 14570m | 3.8m/s | 0°C | 0% | 0hPa | 0V | 00:00:00 | 00:00:00 | 00:00:00 | |
| PETON7-10 | 2026-09-03 00:00:12 | 50.90183 | 17.42675 | 119° | 64km/h | 14544m | 4.9m/s | 0°C | 0% | 0hPa | 0V | 00:00:00 | 00:00:00 | 00:00:00 | |
| SQ6EMJ | 2026-09-03 00:00:08 | 50.90223 | 17.42566 | 125° | 60km/h | 14522m | 5.2m/s | 0°C | 0% | 0hPa | 0V | 00:00:00 | 00:00:00 | 00:00:00 | |
| SP3BTT-10 | 2026-09-03 00:00:04 | 50.90242 | 17.42527 | 129° | 58km/h | 14514m | 3.8m/s | 0°C | 0% | 0hPa | 0V | 00:00:00 | 00:00:00 | 00:00:00 | |
| SQ6EMJ | 2026-09-03 00:00:00 | 50.90274 | 17.42445 | 122° | 75km/h | 14496m | 6.7m/s | 0°C | 0% | 0hPa | 0V | 00:00:00 | 00:00:00 | 00:00:00 | |
| PETON7-10 | 2026-09-02 23:59:57 | 50.90311 | 17.42349 | 121° | 64km/h | 14476m | 3.8m/s | 0°C | 0% | 0hPa | 0V | 00:00:00 | 00:00:00 | 00:00:00 | |
| SQ6EMJ | 2026-09-02 23:59:54 | 50.90327 | 17.42306 | 121° | 66km/h | 14468m | 4.1m/s | 0°C | 0% | 0hPa | 0V | 00:00:00 | 00:00:00 | 00:00:00 | |
| SQ6EMJ | 2026-09-02 23:59:49 | 50.90365 | 17.42188 | 118° | 75km/h | 14448m | 3.8m/s | !°C | 0% | 0hPa | 0V | 00:00:00 | 00:00:00 | 00:00:00 | |
| SQ6EMJ | 2026-09-02 23:59:42 | 50.90417 | 17.42030 | 111° | 60km/h | 14421m | 4.2m/s | 0°C | 0% | 0hPa | 0V | 00:00:00 | 00:00:00 | 00:00:00 | |
| PETON7-10 | 2026-09-02 23:59:41 | 50.90422 | 17.42007 | 112° | 60km/h | 14416m | 6.3m/s | 0°C | 0% | 0hPa | 0V | 00:00:00 | 00:00:00 | 00:00:00 | |
| SQ6EMJ | 2026-09-02 23:59:37 | 50.90450 | 17.41914 | 117° | 68km/h | 14398m | 4.4m/s | 0°C | 0% | 0hPa | 0V | 00:00:00 | 00:00:00 | 00:00:00 | |
| SQ6EMJ | 2026-09-02 23:59:32 | 50.90484 | 17.41781 | 108° | 60km/h | 14370m | 5.6m/s | 0°C | 0% | 0hPa | 0V | 00:00:00 | 00:00:00 | 00:00:00 | |
| SQ6EMJ | 2026-09-02 23:59:26 | 50.90516 | 17.41673 | 121° | 62km/h | 14348m | 5.2m/s | 0°C | 0% | 0hPa | 0V | 00:00:00 | 00:00:00 | 00:00:00 | |
| PETON7-10 | 2026-09-02 23:59:21 | 50.90545 | 17.41562 | 99° | 58km/h | 14326m | 4.1m/s | 0°C | 0% | 0hPa | 0V | 00:00:00 | 00:00:00 | 00:00:00 | |
| SQ6EMJ | 2026-09-02 23:59:20 | 50.90547 | 17.41542 | 103° | 49km/h | 14322m | 3.0m/s | 0°C | 0% | 0hPa | 0V | 00:00:00 | 00:00:00 | 00:00:00 | |
| SQ6EMJ | 2026-09-02 23:59:15 | 50.90582 | 17.41438 | 121° | 69km/h | 14302m | 5.0m/s | 0°C | 0% | 0hPa | 0V | 00:00:00 | 00:00:00 | 00:00:00 | |
| SP3BTT-10 | 2026-09-02 23:59:14 | 50.90590 | 17.41415 | 120° | 69km/h | 14296m | 6.2m/s | 0°C | 0% | 0hPa | 0V | 00:00:00 | 00:00:00 | 00:00:00 | |
| SQ6EMJ | 2026-09-02 23:59:10 | 50.90625 | 17.41311 | 115° | 69km/h | 14270m | 2.7m/s | 0°C | 0% | 0hPa | 0V | 00:00:00 | 00:00:00 | 00:00:00 | |
| PETON7-10 | 2026-09-02 23:59:06 | 50.90649 | 17.41239 | 123° | 68km/h | 14257m | 3.7m/s | 0°C | 0% | 0hPa | 0V | 00:00:00 | 00:00:00 | 00:00:00 | |
| SQ6EMJ | 2026-09-02 23:59:03 | 50.90675 | 17.41174 | 124° | 66km/h | 14241m | 3.4m/s | 0°C | 0% | 0hPa | 0V | 00:00:00 | 00:00:00 | 00:00:00 | |
| SQ6EMJ | 2026-09-02 23:58:58 | 50.90717 | 17.41056 | 122° | 77km/h | 14224m | 4.0m/s | 0°C | 0% | 0hPa | 0V | 00:00:00 | 00:00:00 | 00:00:00 | |
| SQ6EMJ | 2026-09-02 23:58:52 | 50.90765 | 17.40915 | 121° | 66km/h | 14202m | 5.7m/s | 0°C | 0% | 0hPa | 0V | 00:00:00 | 00:00:00 | 00:00:00 | |
| PETON7-10 | 2026-09-02 23:58:51 | 50.90774 | 17.40891 | 122° | 73km/h | 14198m | 3.4m/s | 0°C | 0% | 0hPa | 0V | 00:00:00 | 00:00:00 | 00:00:00 | |
| SQ6EMJ | 2026-09-02 23:58:47 | 50.90812 | 17.40785 | 120° | 69km/h | 14176m | 4.7m/s | 0°C | 0% | 0hPa | 0V | 00:00:00 | 00:00:00 | 00:00:00 | |
| SQ6EMJ | 2026-09-02 23:58:42 | 50.90861 | 17.40639 | 127° | 73km/h | 14152m | 4.9m/s | 0°C | 0% | 0hPa | 0V | 00:00:00 | 00:00:00 | 00:00:00 | |
| PETON7-10 | 2026-09-02 23:58:35 | 50.90911 | 17.40480 | 112° | 69km/h | 14127m | 5.4m/s | 0°C | 0% | 0hPa | 0V | 00:00:00 | 00:00:00 | 00:00:00 | |
| SQ6EMJ | 2026-09-02 23:58:29 | 50.90964 | 17.40319 | 113° | 71km/h | 14100m | 4.4m/s | 0°C | 0% | 0hPa | 0V | 00:00:00 | 00:00:00 | 00:00:00 | |
| SP3BTT-10 | 2026-09-02 23:58:27 | 50.90976 | 17.40269 | 110° | 64km/h | 14093m | 3.7m/s | 0°C | 0% | 0hPa | 0V | 00:00:00 | 00:00:00 | 00:00:00 | |
| SQ6EMJ | 2026-09-02 23:58:18 | 50.91048 | 17.40042 | 109° | 58km/h | 14052m | 3.3m/s | 0°C | 0% | 0hPa | 0V | 00:00:00 | 00:00:00 | 00:00:00 | |
| PETON7-10 | 2026-09-02 23:58:16 | 50.91058 | 17.39992 | 108° | 66km/h | 14045m | 5.0m/s | 0°C | 0% | 0hPa | 0V | 00:00:00 | 00:00:00 | 00:00:00 | |
| SQ6EMJ | 2026-09-02 23:58:12 | 50.91092 | 17.39891 | 121° | 58km/h | 14028m | 4.4m/s | 0°C | 0% | 0hPa | 0V | 00:00:00 | 00:00:00 | 00:00:00 | |
| SQ6EMJ | 2026-09-02 23:58:06 | 50.91126 | 17.39746 | 119° | 62km/h | 14004m | 3.0m/s | 0°C | 0% | 0hPa | 0V | 00:00:00 | 00:00:00 | 00:00:00 | |
| PETON7-10 | 2026-09-02 23:58:01 | 50.91156 | 17.39623 | 104° | 64km/h | 13984m | 4.3m/s | 0°C | 0% | 0hPa | 0V | 00:00:00 | 00:00:00 | 00:00:00 | |
| SQ6EMJ | 2026-09-02 23:58:00 | 50.91160 | 17.39598 | 107° | 66km/h | 13979m | 5.8m/s | 0°C | 0% | 0hPa | 0V | 00:00:00 | 00:00:00 | 00:00:00 | |
| SQ6EMJ | 2026-09-02 23:57:55 | 50.91185 | 17.39475 | 111° | 60km/h | 13958m | 4.2m/s | 0°C | 0% | 0hPa | 0V | 00:00:00 | 00:00:00 | 00:00:00 | |
| SQ6EMJ | 2026-09-02 23:57:50 | 50.91208 | 17.39347 | 98° | 66km/h | 13935m | 4.4m/s | 0°C | 0% | 0hPa | 0V | 00:00:00 | 00:00:00 | 00:00:00 | |
| SQ6EMJ | 2026-09-02 23:57:45 | 50.91226 | 17.39226 | 101° | 58km/h | 13915m | 4.7m/s | 0°C | 0% | 0hPa | 0V | 00:00:00 | 00:00:00 | 00:00:00 | |
| SQ6EMJ | 2026-09-02 23:57:39 | 50.91251 | 17.39074 | 102° | 60km/h | 13889m | 4.9m/s | 0°C | 0% | 0hPa | 0V | 00:00:00 | 00:00:00 | 00:00:00 | |
| SQ6EMJ | 2026-09-02 23:57:32 | 50.91283 | 17.38912 | 103° | 66km/h | 13857m | 4.1m/s | 0°C | 0% | 0hPa | 0V | 00:00:00 | 00:00:00 | 00:00:00 | |
| SQ6EMJ | 2026-09-02 23:57:27 | 50.91307 | 17.38794 | 118° | 64km/h | 13836m | 3.7m/s | 0°C | 0% | 0hPa | 0V | 00:00:00 | 00:00:00 | 00:00:00 | |
| SQ6EMJ | 2026-09-02 23:57:22 | 50.91340 | 17.38682 | 104° | 68km/h | 13812m | 3.8m/s | 0°C | 0% | 0hPa | 0V | 00:00:00 | 00:00:00 | 00:00:00 | |
| SQ6EMJ | 2026-09-02 23:57:16 | 50.91378 | 17.38542 | 116° | 64km/h | 13786m | 4.4m/s | 0°C | 0% | 0hPa | 0V | 00:00:00 | 00:00:00 | 00:00:00 | |
| SQ6EMJ | 2026-09-02 23:57:11 | 50.91413 | 17.38409 | 111° | 58km/h | 13758m | 5.2m/s | 0°C | 0% | 0hPa | 0V | 00:00:00 | 00:00:00 | 00:00:00 | |
| SP3BTT-10 | 2026-09-02 23:57:08 | 50.91423 | 17.38364 | 112° | 68km/h | 13750m | 5.2m/s | 0°C | 0% | 0hPa | 0V | 00:00:00 | 00:00:00 | 00:00:00 | |
| SQ6EMJ | 2026-09-02 23:57:05 | 50.91444 | 17.38297 | 118° | 62km/h | 13736m | 4.5m/s | 0°C | 0% | 0hPa | 0V | 00:00:00 | 00:00:00 | 00:00:00 | |
| SQ6EMJ | 2026-09-02 23:56:59 | 50.91480 | 17.38164 | 114° | 62km/h | 13710m | 5.2m/s | 0°C | 0% | 0hPa | 0V | 00:00:00 | 00:00:00 | 00:00:00 | |
| SQ6EMJ | 2026-09-02 23:56:53 | 50.91521 | 17.38026 | 113° | 71km/h | 13682m | 4.0m/s | 0°C | 0% | 0hPa | 0V | 00:00:00 | 00:00:00 | 00:00:00 | |
| SQ6EMJ | 2026-09-02 23:56:47 | 50.91565 | 17.37876 | 118° | 71km/h | 13655m | 3.2m/s | 0°C | 0% | 0hPa | 0V | 00:00:00 | 00:00:00 | 00:00:00 | |
| SQ6EMJ | 2026-09-02 23:56:42 | 50.91594 | 17.37753 | 110° | 75km/h | 13635m | 3.3m/s | 0°C | 0% | 0hPa | 0V | 00:00:00 | 00:00:00 | 00:00:00 | |
| SQ6EMJ | 2026-09-02 23:56:36 | 50.91643 | 17.37600 | 120° | 69km/h | 13609m | 2.8m/s | 0°C | 0% | 0hPa | 0V | 00:00:00 | 00:00:00 | 00:00:00 | |
| SQ6EMJ | 2026-09-02 23:56:31 | 50.91677 | 17.37478 | 118° | 73km/h | 13589m | 2.6m/s | 0°C | 0% | 0hPa | 0V | 00:00:00 | 00:00:00 | 00:00:00 | |
| SP3BTT-10 | 2026-09-02 23:56:26 | 50.91728 | 17.37366 | 119° | 66km/h | 13567m | 4.7m/s | 0°C | 0% | 0hPa | 0V | 00:00:00 | 00:00:00 | 00:00:00 | |
| SQ6EMJ | 2026-09-02 23:56:20 | 50.91772 | 17.37223 | 124° | 71km/h | 13542m | 4.7m/s | 0°C | 0% | 0hPa | 0V | 00:00:00 | 00:00:00 | 00:00:00 | |
| SQ6EMJ | 2026-09-02 23:56:14 | 50.91829 | 17.37091 | 123° | 64km/h | 13515m | 5.7m/s | 0°C | 0% | 0hPa | 0V | 00:00:00 | 00:00:00 | 00:00:00 | |
| SQ6EMJ | 2026-09-02 23:56:09 | 50.91872 | 17.36975 | 124° | 75km/h | 13493m | 4.6m/s | 0°C | 0% | 0hPa | 0V | 00:00:00 | 00:00:00 | 00:00:00 | |
| SQ6EMJ | 2026-09-02 23:56:03 | 50.91930 | 17.36842 | 127° | 66km/h | 13467m | 4.2m/s | 0°C | 0% | 0hPa | 0V | 00:00:00 | 00:00:00 | 00:00:00 | |
| SQ6EMJ | 2026-09-02 23:55:58 | 50.91978 | 17.36730 | 121° | 66km/h | 13447m | 4.0m/s | 0°C | 0% | 0hPa | 0V | 00:00:00 | 00:00:00 | 00:00:00 | |
| SP3BTT-10 | 2026-09-02 23:55:55 | 50.92003 | 17.36662 | 126° | 64km/h | 13433m | 3.5m/s | 0°C | 0% | 0hPa | 0V | 00:00:00 | 00:00:00 | 00:00:00 | |
| SQ6EMJ | 2026-09-02 23:55:52 | 50.92031 | 17.36600 | 129° | 68km/h | 13420m | 4.7m/s | 0°C | 0% | 0hPa | 0V | 00:00:00 | 00:00:00 | 00:00:00 | |
| SQ6EMJ | 2026-09-02 23:55:47 | 50.92073 | 17.36485 | 116° | 66km/h | 13398m | 4.7m/s | 0°C | 0% | 0hPa | 0V | 00:00:00 | 00:00:00 | 00:00:00 | |
| SQ6EMJ | 2026-09-02 23:55:42 | 50.92114 | 17.36374 | 124° | 64km/h | 13379m | 4.6m/s | 0°C | 0% | 0hPa | 0V | 00:00:00 | 00:00:00 | 00:00:00 | |
| SQ6EMJ | 2026-09-02 23:55:36 | 50.92158 | 17.36231 | 114° | 64km/h | 13354m | 5.3m/s | 0°C | 0% | 0hPa | 0V | 00:00:00 | 00:00:00 | 00:00:00 | |
| SQ6EMJ | 2026-09-02 23:55:31 | 50.92193 | 17.36117 | 116° | 66km/h | 13330m | 4.8m/s | 0°C | 0% | 0hPa | 0V | 00:00:00 | 00:00:00 | 00:00:00 | |
| SQ6EMJ | 2026-09-02 23:55:25 | 50.92232 | 17.35981 | 113° | 66km/h | 13305m | 3.5m/s | 0°C | 0% | 0hPa | 0V | 00:00:00 | 00:00:00 | 00:00:00 | |
| SQ6EMJ | 2026-09-02 23:55:19 | 50.92268 | 17.35841 | 115° | 58km/h | 13280m | 4.8m/s | 0°C | 0% | 0hPa | 0V | 00:00:00 | 00:00:00 | 00:00:00 | |
| SQ6EMJ | 2026-09-02 23:55:13 | 50.92312 | 17.35699 | 120° | 62km/h | 13252m | 3.5m/s | 0°C | 0% | 0hPa | 0V | 00:00:00 | 00:00:00 | 00:00:00 | |
| SP3BTT-10 | 2026-09-02 23:55:10 | 50.92333 | 17.35629 | 108° | 77km/h | 13240m | 4.5m/s | 0°C | 0% | 0hPa | 0V | 00:00:00 | 00:00:00 | 00:00:00 | |
| SQ6EMJ | 2026-09-02 23:55:07 | 50.92348 | 17.35556 | 108° | 68km/h | 13230m | 3.7m/s | 0°C | 0% | 0hPa | 0V | 00:00:00 | 00:00:00 | 00:00:00 | |
| SQ6EMJ | 2026-09-02 23:55:02 | 50.92381 | 17.35435 | 118° | 64km/h | 13207m | 5.0m/s | 0°C | 0% | 0hPa | 0V | 00:00:00 | 00:00:00 | 00:00:00 | |
| SQ6EMJ | 2026-09-02 23:54:57 | 50.92422 | 17.35310 | 118° | 73km/h | 13188m | 4.8m/s | 0°C | 0% | 0hPa | 0V | 00:00:00 | 00:00:00 | 00:00:00 | |
| SQ6EMJ | 2026-09-02 23:54:50 | 50.92471 | 17.35138 | 113° | 73km/h | 13163m | 5.2m/s | 0°C | 0% | 0hPa | 0V | 00:00:00 | 00:00:00 | 00:00:00 | |
| SQ6EMJ | 2026-09-02 23:54:43 | 50.92534 | 17.34964 | 128° | 60km/h | 13126m | 5.5m/s | 0°C | 0% | 0hPa | 0V | 00:00:00 | 00:00:00 | 00:00:00 | |
| SQ6EMJ | 2026-09-02 23:54:38 | 50.92571 | 17.34833 | 118° | 75km/h | 13102m | 5.7m/s | 0°C | 0% | 0hPa | 0V | 00:00:00 | 00:00:00 | 00:00:00 | |
| SQ6EMJ | 2026-09-02 23:54:34 | 50.92623 | 17.34713 | 127° | 69km/h | 13077m | 4.0m/s | 0°C | 0% | 0hPa | 0V | 00:00:00 | 00:00:00 | 00:00:00 | |
| SQ6EMJ | 2026-09-02 23:54:27 | 50.92688 | 17.34552 | 133° | 78km/h | 13051m | 2.8m/s | 0°C | 0% | 0hPa | 0V | 00:00:00 | 00:00:00 | 00:00:00 | |
| SQ6EMJ | 2026-09-02 23:54:21 | 50.92752 | 17.34390 | 121° | 88km/h | 13027m | 3.3m/s | 0°C | 0% | 0hPa | 0V | 00:00:00 | 00:00:00 | 00:00:00 | |
| SQ6EMJ | 2026-09-02 23:54:16 | 50.92803 | 17.34248 | 124° | 73km/h | 13003m | 1.9m/s | 0°C | 0% | 0hPa | 0V | 00:00:00 | 00:00:00 | 00:00:00 | |
| SQ6EMJ | 2026-09-02 23:54:11 | 50.92849 | 17.34116 | 121° | 89km/h | 12988m | 4.9m/s | 0°C | 0% | 0hPa | 0V | 00:00:00 | 00:00:00 | 00:00:00 | |
| SQ6EMJ | 2026-09-02 23:54:05 | 50.92914 | 17.33967 | 127° | 82km/h | 12966m | 6.3m/s | 0°C | 0% | 0hPa | 0V | 00:00:00 | 00:00:00 | 00:00:00 | |
| SQ6EMJ | 2026-09-02 23:53:59 | 50.92982 | 17.33806 | 124° | 80km/h | 12940m | 5.8m/s | 0°C | 0% | 0hPa | 0V | 00:00:00 | 00:00:00 | 00:00:00 | |
| SP3BTT-10 | 2026-09-02 23:53:55 | 50.93033 | 17.33691 | 128° | 75km/h | 12920m | 3.8m/s | 0°C | 0% | 0hPa | 0V | 00:00:00 | 00:00:00 | 00:00:00 | |
| SQ6EMJ | 2026-09-02 23:53:52 | 50.93065 | 17.33615 | 122° | 77km/h | 12909m | 3.4m/s | 0°C | 0% | 0hPa | 0V | 00:00:00 | 00:00:00 | 00:00:00 | |
| SQ6EMJ | 2026-09-02 23:53:45 | 50.93153 | 17.33412 | 129° | 86km/h | 12879m | 3.0m/s | 0°C | 0% | 0hPa | 0V | 00:00:00 | 00:00:00 | 00:00:00 | |
| SQ6EMJ | 2026-09-02 23:53:35 | 50.93279 | 17.33100 | 126° | 80km/h | 12831m | 4.3m/s | 0°C | 0% | 0hPa | 0V | 00:00:00 | 00:00:00 | 00:00:00 | |
| SQ6EMJ | 2026-09-02 23:53:23 | 50.93386 | 17.32790 | 121° | 78km/h | 12784m | 2.0m/s | 0°C | 0% | 0hPa | 0V | 00:00:00 | 00:00:00 | 00:00:00 | |
| SP3BTT-10 | 2026-09-02 23:53:11 | 50.93498 | 17.32476 | 114° | 69km/h | 12730m | 2.9m/s | 0°C | 0% | 0hPa | 0V | 00:00:00 | 00:00:00 | 00:00:00 | |
| SP3BTT-10 | 2026-09-02 23:52:41 | 50.93731 | 17.31706 | 113° | 62km/h | 12609m | 3.9m/s | 0°C | 0% | 0hPa | 0V | 00:00:00 | 00:00:00 | 00:00:00 | |
| SP3BTT-10 | 2026-09-02 23:51:54 | 50.94011 | 17.30673 | 116° | 68km/h | 12355m | 6.7m/s | 0°C | 0% | 0hPa | 0V | 00:00:00 | 00:00:00 | 00:00:00 | |
| SP3BTT-10 | 2026-09-02 23:51:09 | 50.94464 | 17.29724 | 126° | 82km/h | 12108m | 3.5m/s | 0°C | 0% | 0hPa | 0V | 00:00:00 | 00:00:00 | 00:00:00 | |
| SQ6EMJ | 2026-09-02 23:50:36 | 50.94883 | 17.28834 | 128° | 82km/h | 11914m | 6.1m/s | 0°C | 0% | 0hPa | 0V | 00:00:00 | 00:00:00 | 00:00:00 | |
| SP3BTT-10 | 2026-09-02 23:50:24 | 50.95050 | 17.28543 | 138° | 93km/h | 11852m | 9.1m/s | 0°C | 0% | 0hPa | 0V | 00:00:00 | 00:00:00 | 00:00:00 | |
| SQ6EMJ | 2026-09-02 23:50:03 | 50.95390 | 17.28031 | 138° | 91km/h | 11728m | 5.6m/s | 0°C | 0% | 0hPa | 0V | 00:00:00 | 00:00:00 | 00:00:00 | |
| SQ6EMJ | 2026-09-02 23:49:54 | 50.95533 | 17.27805 | 132° | 89km/h | 11673m | 3.2m/s | 0°C | 0% | 0hPa | 0V | 00:00:00 | 00:00:00 | 00:00:00 | |
| SQ6EMJ | 2026-09-02 23:49:47 | 50.95645 | 17.27623 | 136° | 91km/h | 11635m | 6.7m/s | 0°C | 0% | 0hPa | 0V | 00:00:00 | 00:00:00 | 00:00:00 | |
| SP3BTT-10 | 2026-09-02 23:49:23 | 50.96040 | 17.26943 | 127° | 97km/h | 11496m | 4.8m/s | 0°C | 0% | 0hPa | 0V | 00:00:00 | 00:00:00 | 00:00:00 | |
| SQ6EMJ | 2026-09-02 23:49:17 | 50.96142 | 17.26770 | 131° | 95km/h | 11467m | 7.8m/s | 0°C | 0% | 0hPa | 0V | 00:00:00 | 00:00:00 | 00:00:00 | |
| SQ6EMJ | 2026-09-02 23:49:11 | 50.96230 | 17.26586 | 133° | 97km/h | 11429m | 3.8m/s | 0°C | 0% | 0hPa | 0V | 00:00:00 | 00:00:00 | 00:00:00 | |
| SQ6EMJ | 2026-09-02 23:49:05 | 50.96313 | 17.26415 | 127° | 97km/h | 11397m | 4.8m/s | 0°C | 0% | 0hPa | 0V | 00:00:00 | 00:00:00 | 00:00:00 | |
| SQ6EMJ | 2026-09-02 23:49:00 | 50.96420 | 17.26228 | 138° | 88km/h | 11363m | 6.5m/s | 0°C | 0% | 0hPa | 0V | 00:00:00 | 00:00:00 | 00:00:00 | |
| SQ6EMJ | 2026-09-02 23:48:53 | 50.96510 | 17.26036 | 127° | 91km/h | 11329m | 6.1m/s | 0°C | 0% | 0hPa | 0V | 00:00:00 | 00:00:00 | 00:00:00 | |
| SQ6EMJ | 2026-09-02 23:48:47 | 50.96597 | 17.25859 | 137° | 99km/h | 11291m | 4.3m/s | 0°C | 0% | 0hPa | 0V | 00:00:00 | 00:00:00 | 00:00:00 | |
| SQ6EMJ | 2026-09-02 23:48:41 | 50.96691 | 17.25695 | 128° | 93km/h | 11261m | 6.7m/s | 0°C | 0% | 0hPa | 0V | 00:00:00 | 00:00:00 | 00:00:00 | |
| SQ6EMJ | 2026-09-02 23:48:35 | 50.96799 | 17.25515 | 134° | 97km/h | 11226m | 7.8m/s | 0°C | 0% | 0hPa | 0V | 00:00:00 | 00:00:00 | 00:00:00 | |
| SQ6EMJ | 2026-09-02 23:48:29 | 50.96899 | 17.25349 | 136° | 100km/h | 11194m | 4.1m/s | 0°C | 0% | 0hPa | 0V | 00:00:00 | 00:00:00 | 00:00:00 | |
| SP3BTT-10 | 2026-09-02 23:48:27 | 50.96933 | 17.25289 | 128° | 100km/h | 11183m | 4.5m/s | 0°C | 0% | 0hPa | 0V | 00:00:00 | 00:00:00 | 00:00:00 | |
| SQ6EMJ | 2026-09-02 23:48:24 | 50.96983 | 17.25197 | 133° | 99km/h | 11169m | 5.4m/s | 0°C | 0% | 0hPa | 0V | 00:00:00 | 00:00:00 | 00:00:00 | |
| SQ6EMJ | 2026-09-02 23:48:19 | 50.97075 | 17.25054 | 136° | 102km/h | 11140m | 4.2m/s | 0°C | 0% | 0hPa | 0V | 00:00:00 | 00:00:00 | 00:00:00 | |
| SQ6EMJ | 2026-09-02 23:48:14 | 50.97164 | 17.24918 | 138° | 95km/h | 11110m | 8.8m/s | 0°C | 0% | 0hPa | 0V | 00:00:00 | 00:00:00 | 00:00:00 | |
| SQ6EMJ | 2026-09-02 23:48:08 | 50.97273 | 17.24759 | 132° | 99km/h | 11078m | 5.9m/s | 0°C | 0% | 0hPa | 0V | 00:00:00 | 00:00:00 | 00:00:00 | |
| SQ6EMJ | 2026-09-02 23:48:02 | 50.97383 | 17.24592 | 148° | 108km/h | 11043m | 4.5m/s | 0°C | 0% | 0hPa | 0V | 00:00:00 | 00:00:00 | 00:00:00 | |
| SQ6EMJ | 2026-09-02 23:47:57 | 50.97484 | 17.24444 | 129° | 108km/h | 11017m | 6.3m/s | 0°C | 0% | 0hPa | 0V | 00:00:00 | 00:00:00 | 00:00:00 | |
| SQ6EMJ | 2026-09-02 23:47:51 | 50.97597 | 17.24266 | 132° | 104km/h | 10985m | 8.4m/s | 0°C | 0% | 0hPa | 0V | 00:00:00 | 00:00:00 | 00:00:00 | |
| SQ6EMJ | 2026-09-02 23:47:46 | 50.97686 | 17.24110 | 135° | 93km/h | 10957m | 5.9m/s | 0°C | 0% | 0hPa | 0V | 00:00:00 | 00:00:00 | 00:00:00 | |
| SQ6EMJ | 2026-09-02 23:47:40 | 50.97786 | 17.23927 | 128° | 106km/h | 10925m | 5.7m/s | 0°C | 0% | 0hPa | 0V | 00:00:00 | 00:00:00 | 00:00:00 | |
| SQ6EMJ | 2026-09-02 23:47:35 | 50.97886 | 17.23756 | 138° | 89km/h | 10889m | 5.6m/s | 0°C | 0% | 0hPa | 0V | 00:00:00 | 00:00:00 | 00:00:00 | |
| SQ6EMJ | 2026-09-02 23:47:29 | 50.97962 | 17.23622 | 133° | 104km/h | 10861m | 4.3m/s | 0°C | 0% | 0hPa | 0V | 00:00:00 | 00:00:00 | 00:00:00 | |
| SQ6EMJ | 2026-09-02 23:47:24 | 50.98048 | 17.23477 | 134° | 82km/h | 10832m | 3.4m/s | 0°C | 0% | 0hPa | 0V | 00:00:00 | 00:00:00 | 00:00:00 | |
| SQ6EMJ | 2026-09-02 23:47:18 | 50.98155 | 17.23291 | 136° | 104km/h | 10803m | 9.3m/s | 0°C | 0% | 0hPa | 0V | 00:00:00 | 00:00:00 | 00:00:00 | |
| SQ6EMJ | 2026-09-02 23:47:12 | 50.98254 | 17.23115 | 133° | 108km/h | 10769m | 3.8m/s | 0°C | 0% | 0hPa | 0V | 00:00:00 | 00:00:00 | 00:00:00 | |
| SP3BTT-10 | 2026-09-02 23:47:08 | 50.98329 | 17.23000 | 136° | 89km/h | 10747m | 4.5m/s | 0°C | 0% | 0hPa | 0V | 00:00:00 | 00:00:00 | 00:00:00 | |
| SQ6EMJ | 2026-09-02 23:47:07 | 50.98346 | 17.22972 | 133° | 95km/h | 10741m | 5.9m/s | 0°C | 0% | 0hPa | 0V | 00:00:00 | 00:00:00 | 00:00:00 | |
| SQ6EMJ | 2026-09-02 23:47:01 | 50.98456 | 17.22802 | 145° | 102km/h | 10709m | 4.6m/s | 0°C | 0% | 0hPa | 0V | 00:00:00 | 00:00:00 | 00:00:00 | |
| SQ6EMJ | 2026-09-02 23:46:55 | 50.98560 | 17.22622 | 136° | 102km/h | 10678m | 4.0m/s | 0°C | 0% | 0hPa | 0V | 00:00:00 | 00:00:00 | 00:00:00 | |
| SQ6EMJ | 2026-09-02 23:46:49 | 50.98661 | 17.22444 | 128° | 110km/h | 10646m | 5.1m/s | 0°C | 0% | 0hPa | 0V | 00:00:00 | 00:00:00 | 00:00:00 | |
| SQ6EMJ | 2026-09-02 23:46:44 | 50.98735 | 17.22301 | 128° | 84km/h | 10627m | 4.1m/s | 0°C | 0% | 0hPa | 0V | 00:00:00 | 00:00:00 | 00:00:00 | |
| SQ6EMJ | 2026-09-02 23:46:39 | 50.98821 | 17.22140 | 132° | 110km/h | 10608m | 2.7m/s | 0°C | 0% | 0hPa | 0V | 00:00:00 | 00:00:00 | 00:00:00 | |
| SQ6EMJ | 2026-09-02 23:46:33 | 50.98900 | 17.21986 | 126° | 78km/h | 10577m | 7.7m/s | 0°C | 0% | 0hPa | 0V | 00:00:00 | 00:00:00 | 00:00:00 | |
| SQ6EMJ | 2026-09-02 23:46:27 | 50.98990 | 17.21822 | 134° | 86km/h | 10544m | 5.4m/s | 0°C | 0% | 0hPa | 0V | 00:00:00 | 00:00:00 | 00:00:00 | |
| SP3BTT-10 | 2026-09-02 23:46:24 | 50.99041 | 17.21719 | 136° | 91km/h | 10524m | 3.5m/s | 0°C | 0% | 0hPa | 0V | 00:00:00 | 00:00:00 | 00:00:00 | |
| SQ6EMJ | 2026-09-02 23:46:21 | 50.99075 | 17.21676 | 145° | 86km/h | 10515m | 4.3m/s | 0°C | 0% | 0hPa | 0V | 00:00:00 | 00:00:00 | 00:00:00 | |
| SQ6EMJ | 2026-09-02 23:46:15 | 50.99168 | 17.21523 | 134° | 95km/h | 10484m | 6.9m/s | 0°C | 0% | 0hPa | 0V | 00:00:00 | 00:00:00 | 00:00:00 | |
| SQ6EMJ | 2026-09-02 23:46:09 | 50.99256 | 17.21365 | 138° | 100km/h | 10447m | 5.2m/s | 0°C | 0% | 0hPa | 0V | 00:00:00 | 00:00:00 | 00:00:00 | |
| SQ6EMJ | 2026-09-02 23:46:03 | 50.99356 | 17.21212 | 136° | 84km/h | 10412m | 4.8m/s | 0°C | 0% | 0hPa | 0V | 00:00:00 | 00:00:00 | 00:00:00 | |
| SQ6EMJ | 2026-09-02 23:45:58 | 50.99444 | 17.21082 | 142° | 93km/h | 10382m | 5.4m/s | 0°C | 0% | 0hPa | 0V | 00:00:00 | 00:00:00 | 00:00:00 | |
| SQ6EMJ | 2026-09-02 23:45:53 | 50.99525 | 17.20952 | 139° | 95km/h | 10354m | 5.8m/s | 0°C | 0% | 0hPa | 0V | 00:00:00 | 00:00:00 | 00:00:00 | |
| SQ6EMJ | 2026-09-02 23:45:47 | 50.99619 | 17.20780 | 133° | 88km/h | 10319m | 5.3m/s | 0°C | 0% | 0hPa | 0V | 00:00:00 | 00:00:00 | 00:00:00 | |
| SQ6EMJ | 2026-09-02 23:45:42 | 50.99706 | 17.20647 | 134° | 100km/h | 10283m | 7.0m/s | 0°C | 0% | 0hPa | 0V | 00:00:00 | 00:00:00 | 00:00:00 | |
| SQ6EMJ | 2026-09-02 23:45:36 | 50.99803 | 17.20475 | 139° | 89km/h | 10253m | 5.3m/s | 0°C | 0% | 0hPa | 0V | 00:00:00 | 00:00:00 | 00:00:00 | |
| SQ6EMJ | 2026-09-02 23:45:30 | 50.99908 | 17.20332 | 133° | 97km/h | 10217m | 7.8m/s | 0°C | 0% | 0hPa | 0V | 00:00:00 | 00:00:00 | 00:00:00 | |
| SP3BTT-10 | 2026-09-02 23:45:27 | 50.99955 | 17.20241 | 134° | 93km/h | 10200m | 5.9m/s | 0°C | 0% | 0hPa | 0V | 00:00:00 | 00:00:00 | 00:00:00 | |
| SQ6EMJ | 2026-09-02 23:45:25 | 50.99990 | 17.20191 | 144° | 88km/h | 10189m | 4.7m/s | 0°C | 0% | 0hPa | 0V | 00:00:00 | 00:00:00 | 00:00:00 | |
| SQ6EMJ | 2026-09-02 23:45:19 | 51.00095 | 17.20037 | 125° | 93km/h | 10158m | 5.3m/s | 0°C | 0% | 0hPa | 0V | 00:00:00 | 00:00:00 | 00:00:00 | |
| SQ6EMJ | 2026-09-02 23:45:14 | 51.00181 | 17.19905 | 146° | 104km/h | 10134m | 6.2m/s | 0°C | 0% | 0hPa | 0V | 00:00:00 | 00:00:00 | 00:00:00 | |
| SQ6EMJ | 2026-09-02 23:45:08 | 51.00291 | 17.19757 | 135° | 93km/h | 10100m | 9.1m/s | 0°C | 0% | 0hPa | 0V | 00:00:00 | 00:00:00 | 00:00:00 | |
| SQ6EMJ | 2026-09-02 23:45:02 | 51.00394 | 17.19600 | 138° | 78km/h | 10062m | 8.1m/s | 0°C | 0% | 0hPa | 0V | 00:00:00 | 00:00:00 | 00:00:00 | |
| SQ6EMJ | 2026-09-02 23:44:57 | 51.00477 | 17.19468 | 133° | 102km/h | 10036m | 5.5m/s | 0°C | 0% | 0hPa | 0V | 00:00:00 | 00:00:00 | 00:00:00 | |
| SQ6EMJ | 2026-09-02 23:44:51 | 51.00579 | 17.19300 | 138° | 106km/h | 10000m | 6.7m/s | 0°C | 0% | 0hPa | 0V | 00:00:00 | 00:00:00 | 00:00:00 | |
| SQ6EMJ | 2026-09-02 23:44:46 | 51.00672 | 17.19176 | 144° | 91km/h | 9968m | 4.1m/s | 0°C | 0% | 0hPa | 0V | 00:00:00 | 00:00:00 | 00:00:00 | |
| SQ6EMJ | 2026-09-02 23:44:40 | 51.00778 | 17.19030 | 149° | 93km/h | 9936m | 6.2m/s | 0°C | 0% | 0hPa | 0V | 00:00:00 | 00:00:00 | 00:00:00 | |
| SP3BTT-10 | 2026-09-02 23:44:38 | 51.00816 | 17.18985 | 137° | 97km/h | 9926m | 4.2m/s | 0°C | 0% | 0hPa | 0V | 00:00:00 | 00:00:00 | 00:00:00 | |
| KRY50SP | 2026-09-02 23:44:35 | 51.00861 | 17.18902 | 131° | 89km/h | 9910m | 5.1m/s | 0°C | 0% | 0hPa | 0V | 00:00:00 | 00:00:00 | 00:00:00 | |
| KRY50SP | 2026-09-02 23:44:29 | 51.00971 | 17.18753 | 135° | 84km/h | 9879m | 3.6m/s | 0°C | 0% | 0hPa | 0V | 00:00:00 | 00:00:00 | 00:00:00 | |
| SQ6EMJ | 2026-09-02 23:44:23 | 51.01079 | 17.18603 | 144° | 93km/h | 9845m | 8.5m/s | 0°C | 0% | 0hPa | 0V | 00:00:00 | 00:00:00 | 00:00:00 | |
| KRY50SP | 2026-09-02 23:44:21 | 51.01113 | 17.18553 | 136° | 93km/h | 9831m | 9.6m/s | 0°C | 0% | 0hPa | 0V | 00:00:00 | 00:00:00 | 00:00:00 | |
| SQ6EMJ | 2026-09-02 23:44:17 | 51.01188 | 17.18450 | 144° | 104km/h | 9807m | 5.8m/s | 0°C | 0% | 0hPa | 0V | 00:00:00 | 00:00:00 | 00:00:00 | |
| KRY50SP | 2026-09-02 23:44:16 | 51.01208 | 17.18425 | 140° | 95km/h | 9801m | 6.0m/s | 0°C | 0% | 0hPa | 0V | 00:00:00 | 00:00:00 | 00:00:00 | |
| SQ6EMJ | 2026-09-02 23:44:11 | 51.01291 | 17.18307 | 143° | 88km/h | 9771m | 8.2m/s | 0°C | 0% | 0hPa | 0V | 00:00:00 | 00:00:00 | 00:00:00 | |
| SQ6EMJ | 2026-09-02 23:44:06 | 51.01386 | 17.18182 | 145° | 106km/h | 9743m | 6.0m/s | 0°C | 0% | 0hPa | 0V | 00:00:00 | 00:00:00 | 00:00:00 | |
| SQ6EMJ | 2026-09-02 23:44:01 | 51.01473 | 17.18073 | 139° | 86km/h | 9719m | 5.5m/s | 0°C | 0% | 0hPa | 0V | 00:00:00 | 00:00:00 | 00:00:00 | |
| SQ6EMJ | 2026-09-02 23:43:56 | 51.01579 | 17.17937 | 143° | 106km/h | 9694m | 6.5m/s | 0°C | 0% | 0hPa | 0V | 00:00:00 | 00:00:00 | 00:00:00 | |
| KRY50SP | 2026-09-02 23:43:53 | 51.01630 | 17.17866 | 136° | 78km/h | 9673m | 6.1m/s | 0°C | 0% | 0hPa | 0V | 00:00:00 | 00:00:00 | 00:00:00 | |
| SQ6EMJ | 2026-09-02 23:43:50 | 51.01678 | 17.17789 | 139° | 100km/h | 9655m | 6.0m/s | 0°C | 0% | 0hPa | 0V | 00:00:00 | 00:00:00 | 00:00:00 | |
| SQ6EMJ | 2026-09-02 23:43:44 | 51.01788 | 17.17640 | 137° | 82km/h | 9619m | 5.4m/s | 0°C | 0% | 0hPa | 0V | 00:00:00 | 00:00:00 | 00:00:00 | |
| SQ6EMJ | 2026-09-02 23:43:38 | 51.01901 | 17.17491 | 141° | 95km/h | 9584m | 5.9m/s | 0°C | 0% | 0hPa | 0V | 00:00:00 | 00:00:00 | 00:00:00 | |
| SQ6EMJ | 2026-09-02 23:43:32 | 51.01998 | 17.17336 | 137° | 97km/h | 9554m | 2.2m/s | 0°C | 0% | 0hPa | 0V | 00:00:00 | 00:00:00 | 00:00:00 | |
| SQ6EMJ | 2026-09-02 23:43:26 | 51.02118 | 17.17185 | 144° | 88km/h | 9518m | 5.0m/s | 0°C | 0% | 0hPa | 0V | 00:00:00 | 00:00:00 | 00:00:00 | |
| SP3BTT-10 | 2026-09-02 23:43:21 | 51.02209 | 17.17062 | 140° | 95km/h | 9485m | 4.0m/s | 0°C | 0% | 0hPa | 0V | 00:00:00 | 00:00:00 | 00:00:00 | |
| SQ6EMJ | 2026-09-02 23:43:20 | 51.02226 | 17.17038 | 140° | 91km/h | 9479m | 8.6m/s | 0°C | 0% | 0hPa | 0V | 00:00:00 | 00:00:00 | 00:00:00 | |
| SQ6EMJ | 2026-09-02 23:43:15 | 51.02313 | 17.16920 | 143° | 89km/h | 9448m | 4.7m/s | 0°C | 0% | 0hPa | 0V | 00:00:00 | 00:00:00 | 00:00:00 | |
| SQ6EMJ | 2026-09-02 23:43:09 | 51.02434 | 17.16772 | 140° | 93km/h | 9419m | 5.5m/s | 0°C | 0% | 0hPa | 0V | 00:00:00 | 00:00:00 | 00:00:00 | |
| SQ6EMJ | 2026-09-02 23:43:03 | 51.02522 | 17.16611 | 139° | 104km/h | 9386m | 6.6m/s | 0°C | 0% | 0hPa | 0V | 00:00:00 | 00:00:00 | 00:00:00 | |
| KRY50SP | 2026-09-02 23:43:02 | 51.02543 | 17.16585 | 147° | 110km/h | 9379m | 7.3m/s | 0°C | 0% | 0hPa | 0V | 00:00:00 | 00:00:00 | 00:00:00 | |
| SQ6EMJ | 2026-09-02 23:42:57 | 51.02632 | 17.16488 | 136° | 89km/h | 9347m | 5.9m/s | 0°C | 0% | 0hPa | 0V | 00:00:00 | 00:00:00 | 00:00:00 | |
| SQ6EMJ | 2026-09-02 23:42:52 | 51.02728 | 17.16353 | 152° | 91km/h | 9320m | 6.4m/s | 0°C | 0% | 0hPa | 0V | 00:00:00 | 00:00:00 | 00:00:00 | |
| KRY50SP | 2026-09-02 23:42:50 | 51.02769 | 17.16319 | 155° | 93km/h | 9310m | 2.9m/s | 0°C | 0% | 0hPa | 0V | 00:00:00 | 00:00:00 | 00:00:00 | |
| SQ6EMJ | 2026-09-02 23:42:46 | 51.02856 | 17.16241 | 144° | 104km/h | 9288m | 7.7m/s | 0°C | 0% | 0hPa | 0V | 00:00:00 | 00:00:00 | 00:00:00 | |
| SQ6EMJ | 2026-09-02 23:42:40 | 51.02961 | 17.16088 | 139° | 113km/h | 9255m | 5.1m/s | 0°C | 0% | 0hPa | 0V | 00:00:00 | 00:00:00 | 00:00:00 | |
| SP3BTT-10 | 2026-09-02 23:42:36 | 51.03040 | 17.15985 | 146° | 84km/h | 9235m | 5.3m/s | 0°C | 0% | 0hPa | 0V | 00:00:00 | 00:00:00 | 00:00:00 | |
| SQ6EMJ | 2026-09-02 23:42:34 | 51.03075 | 17.15948 | 145° | 86km/h | 9226m | 5.7m/s | 0°C | 0% | 0hPa | 0V | 00:00:00 | 00:00:00 | 00:00:00 | |
| SQ6EMJ | 2026-09-02 23:42:28 | 51.03192 | 17.15810 | 155° | 78km/h | 9197m | 3.5m/s | 0°C | 0% | 0hPa | 0V | 00:00:00 | 00:00:00 | 00:00:00 | |
| SQ6EMJ | 2026-09-02 23:42:23 | 51.03281 | 17.15690 | 139° | 113km/h | 9168m | 8.0m/s | 0°C | 0% | 0hPa | 0V | 00:00:00 | 00:00:00 | 00:00:00 | |
| SQ6EMJ | 2026-09-02 23:42:18 | 51.03383 | 17.15582 | 146° | 97km/h | 9138m | 6.2m/s | 0°C | 0% | 0hPa | 0V | 00:00:00 | 00:00:00 | 00:00:00 | |
| SQ6EMJ | 2026-09-02 23:42:13 | 51.03493 | 17.15432 | 148° | 69km/h | 9104m | 5.8m/s | 0°C | 0% | 0hPa | 0V | 00:00:00 | 00:00:00 | 00:00:00 | |
| SQ6EMJ | 2026-09-02 23:42:06 | 51.03610 | 17.15289 | 142° | 110km/h | 9070m | 4.1m/s | 0°C | 0% | 0hPa | 0V | 00:00:00 | 00:00:00 | 00:00:00 | |
| SQ6EMJ | 2026-09-02 23:41:59 | 51.03731 | 17.15130 | 142° | 100km/h | 9030m | 5.0m/s | 0°C | 0% | 0hPa | 0V | 00:00:00 | 00:00:00 | 00:00:00 | |
| SQ6EMJ | 2026-09-02 23:41:53 | 51.03849 | 17.15021 | 151° | 95km/h | 8999m | 5.2m/s | 0°C | 0% | 0hPa | 0V | 00:00:00 | 00:00:00 | 00:00:00 | |
| SQ6EMJ | 2026-09-02 23:41:48 | 51.03939 | 17.14885 | 134° | 84km/h | 8964m | 4.8m/s | 0°C | 0% | 0hPa | 0V | 00:00:00 | 00:00:00 | 00:00:00 | |
| SQ6EMJ | 2026-09-02 23:41:42 | 51.04048 | 17.14768 | 144° | 110km/h | 8933m | 5.8m/s | 0°C | 0% | 0hPa | 0V | 00:00:00 | 00:00:00 | 00:00:00 | |
| SQ6EMJ | 2026-09-02 23:41:31 | 51.04242 | 17.14534 | 124° | 68km/h | 8868m | 6.5m/s | 0°C | 0% | 0hPa | 0V | 00:00:00 | 00:00:00 | 00:00:00 | |
| SQ6EMJ | 2026-09-02 23:41:26 | 51.04326 | 17.14404 | 151° | 102km/h | 8836m | 4.5m/s | 0°C | 0% | 0hPa | 0V | 00:00:00 | 00:00:00 | 00:00:00 | |
| SQ6EMJ | 2026-09-02 23:41:20 | 51.04419 | 17.14265 | 131° | 66km/h | 8800m | 3.5m/s | 0°C | 0% | 0hPa | 0V | 00:00:00 | 00:00:00 | 00:00:00 | |
| SP3BTT-10 | 2026-09-02 23:41:17 | 51.04456 | 17.14206 | 141° | 89km/h | 8783m | 7.3m/s | 0°C | 0% | 0hPa | 0V | 00:00:00 | 00:00:00 | 00:00:00 | |
| SQ6EMJ | 2026-09-02 23:41:14 | 51.04510 | 17.14145 | 144° | 86km/h | 8763m | 7.3m/s | 0°C | 0% | 0hPa | 0V | 00:00:00 | 00:00:00 | 00:00:00 | |
| SQ6EMJ | 2026-09-02 23:41:09 | 51.04580 | 17.14019 | 138° | 86km/h | 8729m | 6.5m/s | 0°C | 0% | 0hPa | 0V | 00:00:00 | 00:00:00 | 00:00:00 | |
| SQ6EMJ | 2026-09-02 23:41:03 | 51.04675 | 17.13878 | 137° | 84km/h | 8690m | 5.9m/s | 0°C | 0% | 0hPa | 0V | 00:00:00 | 00:00:00 | 00:00:00 | |
| SQ6EMJ | 2026-09-02 23:40:57 | 51.04762 | 17.13740 | 142° | 102km/h | 8658m | 5.2m/s | 0°C | 0% | 0hPa | 0V | 00:00:00 | 00:00:00 | 00:00:00 | |
| SQ6EMJ | 2026-09-02 23:40:52 | 51.04839 | 17.13606 | 132° | 82km/h | 8631m | 4.7m/s | 0°C | 0% | 0hPa | 0V | 00:00:00 | 00:00:00 | 00:00:00 | |
| SQ6EMJ | 2026-09-02 23:40:47 | 51.04915 | 17.13496 | 138° | 73km/h | 8605m | 5.6m/s | 0°C | 0% | 0hPa | 0V | 00:00:00 | 00:00:00 | 00:00:00 | |
| SQ6EMJ | 2026-09-02 23:40:41 | 51.05004 | 17.13321 | 126° | 100km/h | 8573m | 4.8m/s | 0°C | 0% | 0hPa | 0V | 00:00:00 | 00:00:00 | 00:00:00 | |
| SP3BTT-10 | 2026-09-02 23:40:38 | 51.05048 | 17.13242 | 141° | 80km/h | 8549m | 7.4m/s | 0°C | 0% | 0hPa | 0V | 00:00:00 | 00:00:00 | 00:00:00 | |
| SQ6EMJ | 2026-09-02 23:40:34 | 51.05101 | 17.13157 | 124° | 71km/h | 8526m | 7.6m/s | 0°C | 0% | 0hPa | 0V | 00:00:00 | 00:00:00 | 00:00:00 | |
| SQ6EMJ | 2026-09-02 23:40:29 | 51.05170 | 17.13038 | 139° | 99km/h | 8494m | 6.4m/s | 0°C | 0% | 0hPa | 0V | 00:00:00 | 00:00:00 | 00:00:00 | |
| SQ6EMJ | 2026-09-02 23:40:23 | 51.05252 | 17.12842 | 128° | 91km/h | 8462m | 5.8m/s | 0°C | 0% | 0hPa | 0V | 00:00:00 | 00:00:00 | 00:00:00 | |
| SQ6EMJ | 2026-09-02 23:40:16 | 51.05357 | 17.12651 | 120° | 82km/h | 8421m | 4.4m/s | 0°C | 0% | 0hPa | 0V | 00:00:00 | 00:00:00 | 00:00:00 | |
| SQ6EMJ | 2026-09-02 23:40:10 | 51.05439 | 17.12514 | 137° | 89km/h | 8380m | 4.9m/s | 0°C | 0% | 0hPa | 0V | 00:00:00 | 00:00:00 | 00:00:00 | |
| SQ6EMJ | 2026-09-02 23:40:04 | 51.05537 | 17.12351 | 131° | 102km/h | 8334m | 4.3m/s | 0°C | 0% | 0hPa | 0V | 00:00:00 | 00:00:00 | 00:00:00 | |
| SQ6EMJ | 2026-09-02 23:39:59 | 51.05605 | 17.12196 | 119° | 93km/h | 8302m | 8.2m/s | 0°C | 0% | 0hPa | 0V | 00:00:00 | 00:00:00 | 00:00:00 | |
| SQ6EMJ | 2026-09-02 23:39:52 | 51.05711 | 17.11989 | 127° | 99km/h | 8263m | 4.8m/s | 0°C | 0% | 0hPa | 0V | 00:00:00 | 00:00:00 | 00:00:00 | |
| SQ6EMJ | 2026-09-02 23:39:47 | 51.05780 | 17.11822 | 135° | 88km/h | 8233m | 7.3m/s | 0°C | 0% | 0hPa | 0V | 00:00:00 | 00:00:00 | 00:00:00 | |
| SQ6EMJ | 2026-09-02 23:39:41 | 51.05866 | 17.11643 | 124° | 106km/h | 8198m | 5.2m/s | 0°C | 0% | 0hPa | 0V | 00:00:00 | 00:00:00 | 00:00:00 | |
| SQ6EMJ | 2026-09-02 23:39:29 | 51.06040 | 17.11274 | 130° | 97km/h | 8127m | 6.1m/s | 0°C | 0% | 0hPa | 0V | 00:00:00 | 00:00:00 | 00:00:00 | |
| SQ6EMJ | 2026-09-02 23:39:24 | 51.06126 | 17.11112 | 121° | 93km/h | 8098m | 7.2m/s | 0°C | 0% | 0hPa | 0V | 00:00:00 | 00:00:00 | 00:00:00 | |
| SQ6EMJ | 2026-09-02 23:39:18 | 51.06205 | 17.10927 | 132° | 113km/h | 8062m | 5.9m/s | 0°C | 0% | 0hPa | 0V | 00:00:00 | 00:00:00 | 00:00:00 | |
| SQ6EMJ | 2026-09-02 23:39:12 | 51.06283 | 17.10745 | 130° | 75km/h | 8034m | 4.0m/s | 0°C | 0% | 0hPa | 0V | 00:00:00 | 00:00:00 | 00:00:00 | |
| SQ6EMJ | 2026-09-02 23:39:06 | 51.06377 | 17.10558 | 135° | 91km/h | 8002m | 4.7m/s | 0°C | 0% | 0hPa | 0V | 00:00:00 | 00:00:00 | 00:00:00 | |
| SQ6EMJ | 2026-09-02 23:39:00 | 51.06457 | 17.10385 | 125° | 104km/h | 7965m | 2.0m/s | 0°C | 0% | 0hPa | 0V | 00:00:00 | 00:00:00 | 00:00:00 | |
| SQ6EMJ | 2026-09-02 23:38:54 | 51.06536 | 17.10215 | 132° | 80km/h | 7931m | 7.6m/s | 0°C | 0% | 0hPa | 0V | 00:00:00 | 00:00:00 | 00:00:00 | |
| SQ6EMJ | 2026-09-02 23:38:48 | 51.06617 | 17.10045 | 132° | 89km/h | 7894m | 6.0m/s | 0°C | 0% | 0hPa | 0V | 00:00:00 | 00:00:00 | 00:00:00 | |
| SQ6EMJ | 2026-09-02 23:38:42 | 51.06699 | 17.09887 | 126° | 84km/h | 7862m | 4.6m/s | 0°C | 0% | 0hPa | 0V | 00:00:00 | 00:00:00 | 00:00:00 | |
| SQ6EMJ | 2026-09-02 23:38:36 | 51.06782 | 17.09716 | 139° | 80km/h | 7835m | 2.7m/s | 0°C | 0% | 0hPa | 0V | 00:00:00 | 00:00:00 | 00:00:00 | |
| SQ6EMJ | 2026-09-02 23:38:30 | 51.06883 | 17.09540 | 143° | 97km/h | 7802m | 7.3m/s | 0°C | 0% | 0hPa | 0V | 00:00:00 | 00:00:00 | 00:00:00 | |
| SQ6EMJ | 2026-09-02 23:38:24 | 51.06968 | 17.09369 | 131° | 93km/h | 7755m | 7.7m/s | 0°C | 0% | 0hPa | 0V | 00:00:00 | 00:00:00 | 00:00:00 | |
| SQ6EMJ | 2026-09-02 23:38:18 | 51.07047 | 17.09197 | 122° | 84km/h | 7712m | 4.8m/s | 0°C | 0% | 0hPa | 0V | 00:00:00 | 00:00:00 | 00:00:00 | |
| SQ6EMJ | 2026-09-02 23:38:13 | 51.07123 | 17.09050 | 127° | 97km/h | 7683m | 4.8m/s | 0°C | 0% | 0hPa | 0V | 00:00:00 | 00:00:00 | 00:00:00 | |
| SQ6EMJ | 2026-09-02 23:38:06 | 51.07215 | 17.08858 | 122° | 102km/h | 7646m | 3.9m/s | 0°C | 0% | 0hPa | 0V | 00:00:00 | 00:00:00 | 00:00:00 | |
| SQ6EMJ | 2026-09-02 23:38:01 | 51.07283 | 17.08698 | 135° | 82km/h | 7622m | 6.5m/s | 0°C | 0% | 0hPa | 0V | 00:00:00 | 00:00:00 | 00:00:00 | |
| SQ6EMJ | 2026-09-02 23:37:39 | 51.07571 | 17.08102 | 124° | 82km/h | 7489m | 4.9m/s | 0°C | 0% | 0hPa | 0V | 00:00:00 | 00:00:00 | 00:00:00 | |
| SQ6EMJ | 2026-09-02 23:37:34 | 51.07626 | 17.07966 | 127° | 95km/h | 7462m | 3.6m/s | 0°C | 0% | 0hPa | 0V | 00:00:00 | 00:00:00 | 00:00:00 | |
| SQ6EMJ | 2026-09-02 23:37:29 | 51.07709 | 17.07823 | 134° | 84km/h | 7434m | 4.5m/s | 0°C | 0% | 0hPa | 0V | 00:00:00 | 00:00:00 | 00:00:00 | |
| SQ6EMJ | 2026-09-02 23:37:16 | 51.07855 | 17.07477 | 128° | 97km/h | 7364m | 3.1m/s | 0°C | 0% | 0hPa | 0V | 00:00:00 | 00:00:00 | 00:00:00 | |
| SQ6EMJ | 2026-09-02 23:37:11 | 51.07940 | 17.07327 | 128° | 93km/h | 7342m | 6.0m/s | 0°C | 0% | 0hPa | 0V | 00:00:00 | 00:00:00 | 00:00:00 | |
| SQ6EMJ | 2026-09-02 23:36:58 | 51.08097 | 17.06958 | 119° | 99km/h | 7262m | 5.5m/s | 0°C | 0% | 0hPa | 0V | 00:00:00 | 00:00:00 | 00:00:00 | |
| SQ6EMJ | 2026-09-02 23:36:52 | 51.08168 | 17.06777 | 116° | 93km/h | 7223m | 3.4m/s | 0°C | 0% | 0hPa | 0V | 00:00:00 | 00:00:00 | 00:00:00 | |
| SQ6EMJ | 2026-09-02 23:36:47 | 51.08243 | 17.06597 | 127° | 95km/h | 7187m | 6.2m/s | 0°C | 0% | 0hPa | 0V | 00:00:00 | 00:00:00 | 00:00:00 | |
| SQ6EMJ | 2026-09-02 23:36:41 | 51.08303 | 17.06471 | 130° | 86km/h | 7157m | 4.8m/s | 0°C | 0% | 0hPa | 0V | 00:00:00 | 00:00:00 | 00:00:00 | |
| SQ6EMJ | 2026-09-02 23:36:34 | 51.08387 | 17.06265 | 129° | 88km/h | 7119m | 5.7m/s | 0°C | 0% | 0hPa | 0V | 00:00:00 | 00:00:00 | 00:00:00 | |
| SQ6EMJ | 2026-09-02 23:36:29 | 51.08449 | 17.06125 | 135° | 97km/h | 7089m | 3.9m/s | 0°C | 0% | 0hPa | 0V | 00:00:00 | 00:00:00 | 00:00:00 | |
| SQ6EMJ | 2026-09-02 23:36:18 | 51.08595 | 17.05836 | 136° | 91km/h | 7019m | 5.5m/s | 0°C | 0% | 0hPa | 0V | 00:00:00 | 00:00:00 | 00:00:00 | |
| SQ6EMJ | 2026-09-02 23:36:12 | 51.08662 | 17.05684 | 126° | 86km/h | 6981m | 5.3m/s | 0°C | 0% | 0hPa | 0V | 00:00:00 | 00:00:00 | 00:00:00 | |
| SQ6EMJ | 2026-09-02 23:36:06 | 51.08734 | 17.05527 | 130° | 60km/h | 6950m | 3.4m/s | 0°C | 0% | 0hPa | 0V | 00:00:00 | 00:00:00 | 00:00:00 | |
| SQ6EMJ | 2026-09-02 23:36:00 | 51.08803 | 17.05376 | 118° | 89km/h | 6913m | 5.2m/s | 0°C | 0% | 0hPa | 0V | 00:00:00 | 00:00:00 | 00:00:00 | |
| SQ6EMJ | 2026-09-02 23:35:54 | 51.08871 | 17.05223 | 130° | 73km/h | 6876m | 7.1m/s | 0°C | 0% | 0hPa | 0V | 00:00:00 | 00:00:00 | 00:00:00 | |
| SQ6EMJ | 2026-09-02 23:35:49 | 51.08944 | 17.05099 | 136° | 78km/h | 6850m | 4.3m/s | 0°C | 0% | 0hPa | 0V | 00:00:00 | 00:00:00 | 00:00:00 | |
| SQ6EMJ | 2026-09-02 23:35:44 | 51.08990 | 17.04966 | 117° | 71km/h | 6828m | 5.9m/s | 0°C | 0% | 0hPa | 0V | 00:00:00 | 00:00:00 | 00:00:00 | |
| SQ6EMJ | 2026-09-02 23:35:38 | 51.09065 | 17.04812 | 124° | 91km/h | 6791m | 2.5m/s | 0°C | 0% | 0hPa | 0V | 00:00:00 | 00:00:00 | 00:00:00 | |
| SQ6EMJ | 2026-09-02 23:35:32 | 51.09136 | 17.04650 | 132° | 69km/h | 6758m | 6.9m/s | 0°C | 0% | 0hPa | 0V | 00:00:00 | 00:00:00 | 00:00:00 | |
| SQ6EMJ | 2026-09-02 23:35:27 | 51.09200 | 17.04501 | 125° | 78km/h | 6726m | 5.1m/s | 0°C | 0% | 0hPa | 0V | 00:00:00 | 00:00:00 | 00:00:00 | |
| SQ6EMJ | 2026-09-02 23:35:21 | 51.09256 | 17.04374 | 132° | 69km/h | 6704m | 3.3m/s | 0°C | 0% | 0hPa | 0V | 00:00:00 | 00:00:00 | 00:00:00 | |
| SQ6EMJ | 2026-09-02 23:35:16 | 51.09313 | 17.04232 | 123° | 89km/h | 6681m | 3.9m/s | 0°C | 0% | 0hPa | 0V | 00:00:00 | 00:00:00 | 00:00:00 | |
| SQ6EMJ | 2026-09-02 23:35:10 | 51.09359 | 17.04080 | 120° | 62km/h | 6648m | 5.4m/s | 0°C | 0% | 0hPa | 0V | 00:00:00 | 00:00:00 | 00:00:00 | |
| SQ6EMJ | 2026-09-02 23:35:04 | 51.09435 | 17.03927 | 117° | 80km/h | 6607m | 7.0m/s | 0°C | 0% | 0hPa | 0V | 00:00:00 | 00:00:00 | 00:00:00 | |
| SQ6EMJ | 2026-09-02 23:34:58 | 51.09490 | 17.03792 | 131° | 47km/h | 6577m | 6.2m/s | 0°C | 0% | 0hPa | 0V | 00:00:00 | 00:00:00 | 00:00:00 | |
| SQ6EMJ | 2026-09-02 23:34:53 | 51.09534 | 17.03677 | 123° | 82km/h | 6548m | 5.6m/s | 0°C | 0% | 0hPa | 0V | 00:00:00 | 00:00:00 | 00:00:00 | |
| SQ6EMJ | 2026-09-02 23:34:48 | 51.09606 | 17.03529 | 134° | 47km/h | 6519m | 5.8m/s | 0°C | 0% | 0hPa | 0V | 00:00:00 | 00:00:00 | 00:00:00 | |
| SQ6EMJ | 2026-09-02 23:34:36 | 51.09706 | 17.03286 | 110° | 51km/h | 6448m | 4.6m/s | 0°C | 0% | 0hPa | 0V | 00:00:00 | 00:00:00 | 00:00:00 | |
| SQ6EMJ | 2026-09-02 23:34:29 | 51.09773 | 17.03142 | 113° | 55km/h | 6418m | 5.2m/s | 0°C | 0% | 0hPa | 0V | 00:00:00 | 00:00:00 | 00:00:00 | |
| SQ6EMJ | 2026-09-02 23:34:06 | 51.09915 | 17.02747 | 116° | 44km/h | 6270m | 5.8m/s | 0°C | 0% | 0hPa | 0V | 00:00:00 | 00:00:00 | 00:00:00 | |
| SQ6EMJ | 2026-09-02 23:34:00 | 51.09940 | 17.02634 | 128° | 42km/h | 6243m | 6.0m/s | 0°C | 0% | 0hPa | 0V | 00:00:00 | 00:00:00 | 00:00:00 | |
| SQ6EMJ | 2026-09-02 23:33:54 | 51.09976 | 17.02545 | 123° | 53km/h | 6207m | 4.2m/s | 0°C | 0% | 0hPa | 0V | 00:00:00 | 00:00:00 | 00:00:00 | |
| SQ6EMJ | 2026-09-02 23:33:49 | 51.10025 | 17.02481 | 140° | 64km/h | 6187m | 3.1m/s | 0°C | 0% | 0hPa | 0V | 00:00:00 | 00:00:00 | 00:00:00 | |
| SQ6EMJ | 2026-09-02 23:33:44 | 51.10053 | 17.02393 | 114° | 53km/h | 6158m | 5.7m/s | 0°C | 0% | 0hPa | 0V | 00:00:00 | 00:00:00 | 00:00:00 | |
| SQ6EMJ | 2026-09-02 23:33:39 | 51.10082 | 17.02293 | 115° | 31km/h | 6126m | 4.3m/s | 0°C | 0% | 0hPa | 0V | 00:00:00 | 00:00:00 | 00:00:00 | |
| SQ6EMJ | 2026-09-02 23:33:33 | 51.10111 | 17.02200 | 109° | 47km/h | 6094m | 2.3m/s | 0°C | 0% | 0hPa | 0V | 00:00:00 | 00:00:00 | 00:00:00 | |
| SQ6EMJ | 2026-09-02 23:33:27 | 51.10139 | 17.02117 | 90° | 37km/h | 6069m | 4.9m/s | 0°C | 0% | 0hPa | 0V | 00:00:00 | 00:00:00 | 00:00:00 | |
| SQ6EMJ | 2026-09-02 23:33:21 | 51.10163 | 17.02007 | 142° | 42km/h | 6040m | 7.2m/s | 0°C | 0% | 0hPa | 0V | 00:00:00 | 00:00:00 | 00:00:00 | |
| SQ6EMJ | 2026-09-02 23:33:15 | 51.10208 | 17.01914 | 137° | 44km/h | 6005m | 3.8m/s | 0°C | 0% | 0hPa | 0V | 00:00:00 | 00:00:00 | 00:00:00 | |
| SQ6EMJ | 2026-09-02 23:33:10 | 51.10225 | 17.01868 | 114° | 26km/h | 5981m | 3.0m/s | 0°C | 0% | 0hPa | 0V | 00:00:00 | 00:00:00 | 00:00:00 | |
| SQ6EMJ | 2026-09-02 23:33:04 | 51.10255 | 17.01809 | 139° | 31km/h | 5950m | 6.5m/s | 0°C | 0% | 0hPa | 0V | 00:00:00 | 00:00:00 | 00:00:00 | |
| SQ6EMJ | 2026-09-02 23:32:59 | 51.10256 | 17.01745 | 100° | 27km/h | 5923m | 2.5m/s | 0°C | 0% | 0hPa | 0V | 00:00:00 | 00:00:00 | 00:00:00 | |
| SQ6EMJ | 2026-09-02 23:32:49 | 51.10273 | 17.01584 | 120° | 38km/h | 5873m | 8.1m/s | 0°C | 0% | 0hPa | 0V | 00:00:00 | 00:00:00 | 00:00:00 | |
| SQ6EMJ | 2026-09-02 23:32:40 | 51.10295 | 17.01432 | 99° | 27km/h | 5822m | 3.6m/s | 0°C | 0% | 0hPa | 0V | 00:00:00 | 00:00:00 | 00:00:00 | |
| SQ6EMJ | 2026-09-02 23:32:10 | 51.10315 | 17.01007 | 125° | 37km/h | 5662m | 3.0m/s | 0°C | 0% | 0hPa | 0V | 00:00:00 | 00:00:00 | 00:00:00 | |
| SQ6EMJ | 2026-09-02 23:31:58 | 51.10363 | 17.00835 | 120° | 53km/h | 5601m | 5.1m/s | 0°C | 0% | 0hPa | 0V | 00:00:00 | 00:00:00 | 00:00:00 | |
| SQ6EMJ | 2026-09-02 23:31:46 | 51.10404 | 17.00634 | 132° | 46km/h | 5536m | 3.4m/s | 0°C | 0% | 0hPa | 0V | 00:00:00 | 00:00:00 | 00:00:00 | |
| SQ6EMJ | 2026-09-02 23:31:39 | 51.10415 | 17.00544 | 101° | 38km/h | 5495m | 6.1m/s | 0°C | 0% | 0hPa | 0V | 00:00:00 | 00:00:00 | 00:00:00 | |
| SQ6EMJ | 2026-09-02 23:31:34 | 51.10414 | 17.00461 | 117° | 27km/h | 5471m | 5.1m/s | 0°C | 0% | 0hPa | 0V | 00:00:00 | 00:00:00 | 00:00:00 | |
| SQ6EMJ | 2026-09-02 23:31:28 | 51.10427 | 17.00394 | 87° | 44km/h | 5439m | 6.5m/s | 0°C | 0% | 0hPa | 0V | 00:00:00 | 00:00:00 | 00:00:00 | |
| SQ6EMJ | 2026-09-02 23:31:23 | 51.10449 | 17.00301 | 128° | 31km/h | 5401m | 2.6m/s | 0°C | 0% | 0hPa | 0V | 00:00:00 | 00:00:00 | 00:00:00 | |
| SQ6EMJ | 2026-09-02 23:31:17 | 51.10463 | 17.00199 | 83° | 53km/h | 5368m | 2.5m/s | 0°C | 0% | 0hPa | 0V | 00:00:00 | 00:00:00 | 00:00:00 | |
| SQ6EMJ | 2026-09-02 23:31:07 | 51.10479 | 17.00054 | 100° | 49km/h | 5319m | 4.3m/s | 0°C | 0% | 0hPa | 0V | 00:00:00 | 00:00:00 | 00:00:00 | |
| SQ6EMJ | 2026-09-02 23:30:54 | 51.10485 | 16.99790 | 118° | 53km/h | 5256m | 6.7m/s | 0°C | 0% | 0hPa | 0V | 00:00:00 | 00:00:00 | 00:00:00 | |
| SQ6EMJ | 2026-09-02 23:30:49 | 51.10516 | 16.99709 | 105° | 40km/h | 5233m | 6.2m/s | 0°C | 0% | 0hPa | 0V | 00:00:00 | 00:00:00 | 00:00:00 | |
| SQ6EMJ | 2026-09-02 23:30:43 | 51.10530 | 16.99588 | 127° | 44km/h | 5203m | 3.8m/s | 0°C | 0% | 0hPa | 0V | 00:00:00 | 00:00:00 | 00:00:00 | |
| SQ6EMJ | 2026-09-02 23:30:36 | 51.10572 | 16.99486 | 109° | 55km/h | 5163m | 6.9m/s | 0°C | 0% | 0hPa | 0V | 00:00:00 | 00:00:00 | 00:00:00 | |
| SQ6EMJ | 2026-09-02 23:30:31 | 51.10593 | 16.99384 | 107° | 35km/h | 5133m | 4.2m/s | 0°C | 0% | 0hPa | 0V | 00:00:00 | 00:00:00 | 00:00:00 | |
| SQ6EMJ | 2026-09-02 23:30:17 | 51.10638 | 16.99077 | 101° | 37km/h | 5050m | 5.9m/s | 0°C | 0% | 0hPa | 0V | 00:00:00 | 00:00:00 | 00:00:00 | |
| SQ6EMJ | 2026-09-02 23:30:11 | 51.10640 | 16.98990 | 110° | 55km/h | 5021m | 7.1m/s | 0°C | 0% | 0hPa | 0V | 00:00:00 | 00:00:00 | 00:00:00 | |
| SQ6EMJ | 2026-09-02 23:30:04 | 51.10681 | 16.98861 | 81° | 46km/h | 4976m | 5.9m/s | 0°C | 0% | 0hPa | 0V | 00:00:00 | 00:00:00 | 00:00:00 | |
| SQ6EMJ | 2026-09-02 23:29:58 | 51.10702 | 16.98746 | 109° | 44km/h | 4940m | 4.8m/s | 0°C | 0% | 0hPa | 0V | 00:00:00 | 00:00:00 | 00:00:00 | |
| SQ6EMJ | 2026-09-02 23:29:52 | 51.10714 | 16.98636 | 117° | 42km/h | 4898m | 6.6m/s | 0°C | 0% | 0hPa | 0V | 00:00:00 | 00:00:00 | 00:00:00 | |
| SQ6EMJ | 2026-09-02 23:29:45 | 51.10722 | 16.98511 | 84° | 58km/h | 4851m | 3.2m/s | 0°C | 0% | 0hPa | 0V | 00:00:00 | 00:00:00 | 00:00:00 | |
| SQ6EMJ | 2026-09-02 23:29:40 | 51.10725 | 16.98399 | 116° | 47km/h | 4828m | 4.9m/s | 0°C | 0% | 0hPa | 0V | 00:00:00 | 00:00:00 | 00:00:00 | |
| SQ6EMJ | 2026-09-02 23:29:34 | 51.10745 | 16.98325 | 99° | 27km/h | 4799m | 4.5m/s | 0°C | 0% | 0hPa | 0V | 00:00:00 | 00:00:00 | 00:00:00 | |
| SQ6EMJ | 2026-09-02 23:29:29 | 51.10759 | 16.98241 | 117° | 57km/h | 4772m | 5.7m/s | 0°C | 0% | 0hPa | 0V | 00:00:00 | 00:00:00 | 00:00:00 | |
| SQ6EMJ | 2026-09-02 23:29:24 | 51.10773 | 16.98168 | 75° | 40km/h | 4746m | 4.4m/s | 0°C | 0% | 0hPa | 0V | 00:00:00 | 00:00:00 | 00:00:00 | |
| SQ6EMJ | 2026-09-02 23:28:57 | 51.10724 | 16.97704 | 96° | 42km/h | 4586m | 6.1m/s | 0°C | 0% | 0hPa | 0V | 00:00:00 | 00:00:00 | 00:00:00 | |
| SQ6EMJ | 2026-09-02 23:28:48 | 51.10711 | 16.97581 | 60° | 42km/h | 4542m | 5.0m/s | 0°C | 0% | 0hPa | 0V | 00:00:00 | 00:00:00 | 00:00:00 | |
| SQ6EMJ | 2026-09-02 23:27:54 | 51.10624 | 16.96761 | 82° | 38km/h | 4222m | 6.8m/s | 0°C | 0% | 0hPa | 0V | 00:00:00 | 00:00:00 | 00:00:00 |